Provisional Data: Catatonk Creek near Spencer, NY


Please select a monitoring station.
Please select start date.
Please select start date.

Toggle Unit: C/F Toggle Unit: C/F
Sample Time Temperature (C) Temperature (F) Specific Conductivity (mS/cm) pH   Turbidity (NTU+) DO (mg/L)
12/4/2020 12:00:00 AM 4.19 39.542 0.267 7.58 4.31 11.04
12/4/2020 12:15:00 AM 4.18 39.524 0.267 7.58 4.31 11.03
12/4/2020 12:30:00 AM 4.16 39.488 0.269 7.59 4.37 11.03
12/4/2020 12:45:00 AM 4.15 39.47 0.269 7.58 4.47 11.02
12/4/2020 1:00:00 AM 4.15 39.47 0.27 7.58 5.29 11.01
12/4/2020 1:15:00 AM 4.15 39.47 0.27 7.58 4.22 10.99
12/4/2020 1:30:00 AM 4.14 39.452 0.268 7.58 4.2 10.98
12/4/2020 1:45:00 AM 4.15 39.47 0.27 7.58 4.21 10.96
12/4/2020 2:00:00 AM 4.16 39.488 0.271 7.57 4.19 10.92
12/4/2020 2:15:00 AM 4.16 39.488 0.271 7.57 4.19 10.93
12/4/2020 2:30:00 AM 4.17 39.506 0.272 7.57 4.09 10.91
12/4/2020 2:45:00 AM 4.16 39.488 0.272 7.57 4.25 10.93
12/4/2020 3:00:00 AM 4.18 39.524 0.273 7.57 4.02 10.89
12/4/2020 3:15:00 AM 4.19 39.542 0.273 7.57 4.04 10.89
12/4/2020 3:30:00 AM 4.21 39.578 0.274 7.57 4.17 10.87
12/4/2020 3:45:00 AM 4.2 39.56 0.274 7.57 4.12 10.86
12/4/2020 4:00:00 AM 4.23 39.614 0.276 7.57 4.11 10.84
12/4/2020 4:15:00 AM 4.22 39.596 0.274 7.57 4.17 10.82
12/4/2020 4:30:00 AM 4.23 39.614 0.274 7.57 4.04 10.84
12/4/2020 4:45:00 AM 4.24 39.632 0.274 7.57 4.14 10.84
12/4/2020 5:00:00 AM 4.26 39.668 0.273 7.56 4.15 10.8
12/4/2020 5:15:00 AM 4.29 39.722 0.276 7.56 4.1 10.78
12/4/2020 5:30:00 AM 4.29 39.722 0.276 7.57 4.19 10.78
12/4/2020 5:45:00 AM 4.28 39.704 0.275 7.56 4.12 10.78
12/4/2020 6:00:00 AM 4.29 39.722 0.275 7.57 4.07 10.77
12/4/2020 6:15:00 AM 4.33 39.794 0.278 7.56 7.02 10.72
12/4/2020 6:30:00 AM 4.34 39.812 0.277 7.56 5.32 10.71
12/4/2020 6:45:00 AM 4.33 39.794 0.277 7.56 4.53 10.72
12/4/2020 7:00:00 AM 4.34 39.812 0.277 7.56 4.64 10.71
12/4/2020 7:15:00 AM 4.35 39.83 0.277 7.55 4.27 10.68
12/4/2020 7:30:00 AM 4.38 39.884 0.28 7.55 4.37 10.66
12/4/2020 7:45:00 AM 4.37 39.866 0.277 7.57 4.27 10.68
12/4/2020 8:00:00 AM 4.41 39.938 0.277 7.56 4.41 10.66
12/4/2020 8:15:00 AM 4.4 39.92 0.278 7.56 3.98 10.71
12/4/2020 8:30:00 AM 4.44 39.992 0.279 7.57 3.99 10.69
12/4/2020 8:45:00 AM 4.45 40.01 0.279 7.56 3.96 10.73
12/4/2020 9:00:00 AM 4.47 40.046 0.279 7.57 3.89 10.73
12/4/2020 9:15:00 AM 4.48 40.064 0.279 7.57 3.77 10.76
12/4/2020 9:30:00 AM 4.5 40.1 0.279 7.56 3.93 10.79
12/4/2020 9:45:00 AM 4.53 40.154 0.279 7.58 3.81 10.81
12/4/2020 10:00:00 AM 4.56 40.208 0.279 7.58 3.79 10.83
12/4/2020 10:15:00 AM 4.59 40.262 0.28 7.58 5.03 10.88
12/4/2020 10:30:00 AM 4.61 40.298 0.279 7.58 3.89 10.92
12/4/2020 10:45:00 AM 4.64 40.352 0.279 7.58 3.72 10.91
12/4/2020 11:00:00 AM 4.68 40.424 0.281 7.58 3.85 10.9
12/4/2020 11:15:00 AM 4.71 40.478 0.281 7.6 3.9 10.96
12/4/2020 11:30:00 AM 4.75 40.55 0.28 7.6 3.82 10.98
12/4/2020 11:45:00 AM 4.78 40.604 0.28 7.6 3.96 11.04
12/4/2020 12:00:00 PM 4.79 40.622 0.28 7.61 3.86 11.04
12/4/2020 12:15:00 PM 4.81 40.658 0.28 7.6 3.88 11.05
12/4/2020 12:30:00 PM 4.84 40.712 0.281 7.61 4 11.08
12/4/2020 12:45:00 PM 4.89 40.802 0.283 7.61 3.94 11.07
12/4/2020 1:00:00 PM 4.92 40.856 0.282 7.62 4.02 11.12
12/4/2020 1:15:00 PM 4.97 40.946 0.282 7.62 3.95 11.18
12/4/2020 1:30:00 PM 5.01 41.018 0.28 7.63 4.08 11.22
12/4/2020 1:45:00 PM 5.06 41.108 0.282 7.63 4.13 11.25
12/4/2020 2:00:00 PM 5.09 41.162 0.281 7.64 4.04 11.31
12/4/2020 2:15:00 PM 5.14 41.252 0.282 7.63 4.15 11.3
12/4/2020 2:30:00 PM 5.17 41.306 0.283 7.64 4.02 11.26
12/4/2020 2:45:00 PM 5.15 41.27 0.281 7.64 4.13 11.25
12/4/2020 3:00:00 PM 5.18 41.324 0.282 7.64 4.32 11.21
12/4/2020 3:15:00 PM 5.19 41.342 0.283 7.64 4.25 11.2
12/4/2020 3:30:00 PM 5.22 41.396 0.284 7.63 7.04 11.18
12/4/2020 3:45:00 PM 5.22 41.396 0.281 7.64 4.7 11.21
12/4/2020 4:00:00 PM 5.08 41.144 0.27 7.65 10.56 11.5
12/4/2020 4:15:00 PM 5.04 41.072 0.266 7.65 7.17 11.62
12/4/2020 4:30:00 PM 5.06 41.108 0.269 7.65 6.2 11.6
12/4/2020 4:45:00 PM 5.1 41.18 0.274 7.65 5.14 11.49
12/4/2020 5:00:00 PM 5.21 41.378 0.281 7.64 4.44 11.31
12/4/2020 5:15:00 PM 5.25 41.45 0.283 7.63 4.67 11.24
12/4/2020 5:30:00 PM 5.29 41.522 0.283 7.62 4.48 11.14
12/4/2020 5:45:00 PM 5.34 41.612 0.284 7.62 4.41 11.04
12/4/2020 6:00:00 PM 5.37 41.666 0.284 7.61 4.53 10.99
12/4/2020 6:15:00 PM 5.4 41.72 0.286 7.61 4.38 10.9
12/4/2020 6:30:00 PM 5.43 41.774 0.287 7.61 4.34 10.85
12/4/2020 6:45:00 PM 5.43 41.774 0.286 7.61 4.61 10.84
12/4/2020 7:00:00 PM 5.5 41.9 0.288 7.6 5.45 10.7
12/4/2020 7:15:00 PM 5.52 41.936 0.289 7.59 4.64 10.66
12/4/2020 7:30:00 PM 5.54 41.972 0.289 7.59 4.6 10.62
12/4/2020 7:45:00 PM 5.54 41.972 0.287 7.59 4.49 10.6
12/4/2020 8:00:00 PM 5.55 41.99 0.287 7.59 4.62 10.58
12/4/2020 8:15:00 PM 5.58 42.044 0.29 7.58 4.37 10.51
12/4/2020 8:30:00 PM 5.58 42.044 0.289 7.58 4.4 10.51
12/4/2020 8:45:00 PM 5.58 42.044 0.288 7.59 4.3 10.47
12/4/2020 9:00:00 PM 5.61 42.098 0.289 7.58 4.27 10.4
12/4/2020 9:15:00 PM 5.59 42.062 0.289 7.58 4.33 10.41
12/4/2020 9:30:00 PM 5.61 42.098 0.289 7.57 4.73 10.37
12/4/2020 9:45:00 PM 5.6 42.08 0.289 7.58 4.31 10.35
12/4/2020 10:00:00 PM 5.62 42.116 0.289 7.57 4.25 10.31
12/4/2020 10:15:00 PM 5.62 42.116 0.29 7.56 4.28 10.3
12/4/2020 10:30:00 PM 5.62 42.116 0.29 7.57 4.2 10.27
12/4/2020 10:45:00 PM 5.61 42.098 0.289 7.57 4.08 10.27
12/4/2020 11:00:00 PM 5.61 42.098 0.29 7.57 4.05 10.23
12/4/2020 11:15:00 PM 5.63 42.134 0.292 7.57 4.04 10.19
12/4/2020 11:30:00 PM 5.61 42.098 0.292 7.56 4.11 10.2
12/4/2020 11:45:00 PM 5.62 42.116 0.291 7.56 4.2 10.16
12/5/2020 12:00:00 AM 5.58 42.044 0.29 7.56 4.05 10.19
12/5/2020 12:15:00 AM 5.6 42.08 0.292 7.56 4 10.16
12/5/2020 12:30:00 AM 5.6 42.08 0.292 7.56 4.18 10.11
12/5/2020 12:45:00 AM 5.6 42.08 0.293 7.56 4.02 10.09
12/5/2020 1:00:00 AM 5.61 42.098 0.294 7.55 3.97 10.08
12/5/2020 1:15:00 AM 5.57 42.026 0.292 7.56 4.09 10.12
12/5/2020 1:30:00 AM 5.58 42.044 0.292 7.56 4.04 10.09
12/5/2020 1:45:00 AM 5.57 42.026 0.293 7.55 4.21 10.09
12/5/2020 2:00:00 AM 5.56 42.008 0.29 7.55 4.08 10.08
12/5/2020 2:15:00 AM 5.54 41.972 0.292 7.55 4.19 10.09
12/5/2020 2:30:00 AM 5.54 41.972 0.292 7.55 4.15 10.09
12/5/2020 2:45:00 AM 5.53 41.954 0.292 7.55 4.2 10.06
12/5/2020 3:00:00 AM 5.51 41.918 0.291 7.55 4.49 10.07
12/5/2020 3:15:00 AM 5.51 41.918 0.291 7.55 4.17 10.06
12/5/2020 3:30:00 AM 5.48 41.864 0.29 7.55 4.04 10.09
12/5/2020 3:45:00 AM 5.5 41.9 0.292 7.55 4.02 10.06
12/5/2020 4:00:00 AM 5.49 41.882 0.29 7.54 4.14 10.05
12/5/2020 4:15:00 AM 5.48 41.864 0.291 7.55 4.11 10.05
12/5/2020 4:30:00 AM 5.47 41.846 0.289 7.55 4.21 10.04
12/5/2020 4:45:00 AM 5.48 41.864 0.291 7.55 4.13 10.05
12/5/2020 5:00:00 AM 5.47 41.846 0.292 7.55 4.14 10.03
12/5/2020 5:15:00 AM 5.47 41.846 0.292 7.54 4.15 10.03
12/5/2020 5:30:00 AM 5.45 41.81 0.29 7.54 4.18 10.05
12/5/2020 5:45:00 AM 5.44 41.792 0.291 7.55 4.14 10.06
12/5/2020 6:00:00 AM 5.46 41.828 0.292 7.55 4.05 10.03
12/5/2020 6:15:00 AM 5.46 41.828 0.294 7.55 4.32 10.03
12/5/2020 6:30:00 AM 5.45 41.81 0.291 7.55 4.31 10.05
12/5/2020 6:45:00 AM 5.43 41.774 0.289 7.55 4.27 10.07
12/5/2020 7:00:00 AM 5.44 41.792 0.292 7.55 4.34 10.04
12/5/2020 7:15:00 AM 5.46 41.828 0.293 7.54 4.36 10
12/5/2020 7:30:00 AM 5.46 41.828 0.292 7.55 4.72 9.98
12/5/2020 7:45:00 AM 5.44 41.792 0.291 7.54 4.24 9.99
12/5/2020 8:00:00 AM 5.44 41.792 0.291 7.55 5.68 10.03
12/5/2020 8:15:00 AM 5.46 41.828 0.293 7.55 4.74 9.98
12/5/2020 8:30:00 AM 5.44 41.792 0.292 7.54 3.86 10.03
12/5/2020 8:45:00 AM 5.41 41.738 0.289 7.55 5.08 10.07
12/5/2020 9:00:00 AM 5.44 41.792 0.293 7.55 3.76 10.04
12/5/2020 9:15:00 AM 5.43 41.774 0.292 7.55 3.68 10.05
12/5/2020 9:30:00 AM 5.42 41.756 0.291 7.55 3.97 10.05
12/5/2020 9:45:00 AM 5.43 41.774 0.291 7.55 7.1 10.1
12/5/2020 10:00:00 AM 5.46 41.828 0.292 7.56 6.69 10.14
12/5/2020 10:15:00 AM 5.43 41.774 0.291 7.56 3.93 10.16
12/5/2020 10:30:00 AM 5.42 41.756 0.291 7.56 3.87 10.16
12/5/2020 10:45:00 AM 5.44 41.792 0.29 7.57 3.68 10.22
12/5/2020 11:00:00 AM 5.46 41.828 0.291 7.57 3.79 10.25
12/5/2020 11:15:00 AM 5.5 41.9 0.294 7.57 4.04 10.21
12/5/2020 11:30:00 AM 5.46 41.828 0.291 7.57 5.05 10.29
12/5/2020 11:45:00 AM 5.46 41.828 0.292 7.58 3.58 10.28
12/5/2020 12:00:00 PM 5.47 41.846 0.291 7.58 3.49 10.33
12/5/2020 12:15:00 PM 5.46 41.828 0.291 7.57 3.48 10.36
12/5/2020 12:30:00 PM 5.52 41.936 0.291 7.59 3.41 10.43
12/5/2020 12:45:00 PM 5.53 41.954 0.293 7.59 3.36 10.41
12/5/2020 1:00:00 PM 5.52 41.936 0.292 7.59 3.41 10.5
12/5/2020 1:15:00 PM 5.52 41.936 0.294 7.59 3.5 10.54
12/5/2020 1:30:00 PM 5.5 41.9 0.293 7.59 3.44 10.53
12/5/2020 1:45:00 PM 5.51 41.918 0.293 7.6 3.49 10.57
12/5/2020 2:00:00 PM 5.5 41.9 0.293 7.6 3.37 10.61
12/5/2020 2:15:00 PM 5.49 41.882 0.291 7.6 3.55 10.62
12/5/2020 2:30:00 PM 5.51 41.918 0.294 7.6 3.39 10.63
12/5/2020 2:45:00 PM 5.48 41.864 0.291 7.61 3.43 10.67
12/5/2020 3:00:00 PM 5.49 41.882 0.292 7.62 3.33 10.77
12/5/2020 3:15:00 PM 5.52 41.936 0.293 7.62 3.41 10.78
12/5/2020 3:30:00 PM 5.5 41.9 0.292 7.62 3.23 10.79
12/5/2020 3:45:00 PM 5.49 41.882 0.292 7.62 3.26 10.8
12/5/2020 4:00:00 PM 5.48 41.864 0.294 7.65 3.64 10.76
12/5/2020 4:15:00 PM 5.48 41.864 0.293 7.62 3.53 10.72
12/5/2020 4:30:00 PM 5.44 41.792 0.292 7.62 3.3 10.72
12/5/2020 4:45:00 PM 5.44 41.792 0.293 7.61 3.36 10.7
12/5/2020 5:00:00 PM 5.44 41.792 0.297 7.62 3.33 10.7
12/5/2020 5:15:00 PM 5.38 41.684 0.293 7.61 3.42 10.67
12/5/2020 5:30:00 PM 5.38 41.684 0.296 7.61 3.41 10.68
12/5/2020 5:45:00 PM 5.35 41.63 0.294 7.62 3.54 10.71
12/5/2020 6:00:00 PM 5.37 41.666 0.297 7.62 3.65 10.7
12/5/2020 6:15:00 PM 5.34 41.612 0.299 7.61 3.61 10.73
12/5/2020 6:30:00 PM 5.35 41.63 0.3 7.62 3.79 10.67
12/5/2020 6:45:00 PM 5.3 41.54 0.302 7.61 3.7 10.67
12/5/2020 7:00:00 PM 5.22 41.396 0.3 7.61 3.87 10.66
12/5/2020 7:15:00 PM 5.17 41.306 0.3 7.61 3.84 10.64
12/5/2020 7:30:00 PM 5.15 41.27 0.3 7.61 3.87 10.62
12/5/2020 7:45:00 PM 5.09 41.162 0.302 7.61 3.95 10.6
12/5/2020 8:00:00 PM 5.02 41.036 0.299 7.6 4.07 10.56
12/5/2020 8:15:00 PM 5 41 0.297 7.6 3.98 10.57
12/5/2020 8:30:00 PM 5 41 0.295 7.61 4.04 10.58
12/5/2020 8:45:00 PM 5.04 41.072 0.295 7.6 3.95 10.54
12/5/2020 9:00:00 PM 5.02 41.036 0.296 7.6 3.88 10.52
12/5/2020 9:15:00 PM 4.96 40.928 0.295 7.59 4.14 10.5
12/5/2020 9:30:00 PM 4.88 40.784 0.292 7.6 4.06 10.52
12/5/2020 9:45:00 PM 4.87 40.766 0.29 7.6 3.93 10.52
12/5/2020 10:00:00 PM 4.84 40.712 0.289 7.59 3.87 10.53
12/5/2020 10:15:00 PM 4.85 40.73 0.292 7.59 3.96 10.5
12/5/2020 10:30:00 PM 4.82 40.676 0.291 7.59 3.99 10.5
12/5/2020 10:45:00 PM 4.81 40.658 0.29 7.59 3.96 10.45
12/5/2020 11:00:00 PM 4.78 40.604 0.29 7.59 3.98 10.46
12/5/2020 11:15:00 PM 4.75 40.55 0.289 7.59 4.04 10.49
12/5/2020 11:30:00 PM 4.74 40.532 0.29 7.58 3.88 10.46
12/5/2020 11:45:00 PM 4.71 40.478 0.291 7.58 3.92 10.47
12/6/2020 12:00:00 AM 4.65 40.37 0.289 7.59 3.98 10.49
12/6/2020 12:15:00 AM 4.65 40.37 0.29 7.58 4.06 10.44
12/6/2020 12:30:00 AM 4.61 40.298 0.29 7.59 4.06 10.46
12/6/2020 12:45:00 AM 4.56 40.208 0.289 7.58 4.23 10.47
12/6/2020 1:00:00 AM 4.51 40.118 0.29 7.58 4.22 10.48
12/6/2020 1:15:00 AM 4.5 40.1 0.29 7.58 4.23 10.49
12/6/2020 1:30:00 AM 4.44 39.992 0.29 7.58 4.36 10.51
12/6/2020 1:45:00 AM 4.42 39.956 0.29 7.58 4.11 10.49
12/6/2020 2:00:00 AM 4.38 39.884 0.289 7.58 4.29 10.52
12/6/2020 2:15:00 AM 4.32 39.776 0.289 7.57 5.55 10.54
12/6/2020 2:30:00 AM 4.31 39.758 0.291 7.58 4.43 10.54
12/6/2020 2:45:00 AM 4.28 39.704 0.292 7.58 4.23 10.57
12/6/2020 3:00:00 AM 4.25 39.65 0.291 7.58 4.27 10.57
12/6/2020 3:15:00 AM 4.21 39.578 0.291 7.58 4.3 10.56
12/6/2020 3:30:00 AM 4.16 39.488 0.291 7.57 4.48 10.57
12/6/2020 3:45:00 AM 4.13 39.434 0.293 7.57 4.29 10.6
12/6/2020 4:00:00 AM 4.12 39.416 0.292 7.58 4.39 10.61
12/6/2020 4:15:00 AM 4.09 39.362 0.291 7.58 4.17 10.59
12/6/2020 4:30:00 AM 4.06 39.308 0.291 7.58 4.24 10.62
12/6/2020 4:45:00 AM 4.04 39.272 0.292 7.58 4.1 10.64
12/6/2020 5:00:00 AM 3.99 39.182 0.29 7.58 4.09 10.65
12/6/2020 5:15:00 AM 3.96 39.128 0.289 7.58 4.55 10.65
12/6/2020 5:30:00 AM 3.94 39.092 0.287 7.58 4.54 10.62
12/6/2020 5:45:00 AM 3.91 39.038 0.288 7.58 4.51 10.68
12/6/2020 6:00:00 AM 3.87 38.966 0.286 7.58 4.54 10.69
12/6/2020 6:15:00 AM 3.85 38.93 0.286 7.58 4.5 10.67
12/6/2020 6:30:00 AM 3.84 38.912 0.286 7.58 4.49 10.69
12/6/2020 6:45:00 AM 3.8 38.84 0.284 7.58 3.9 10.71
12/6/2020 7:00:00 AM 3.8 38.84 0.284 7.58 5.85 10.69
12/6/2020 7:15:00 AM 3.77 38.786 0.284 7.58 4.21 10.74
12/6/2020 7:30:00 AM 3.75 38.75 0.283 7.57 5.68 10.74
12/6/2020 7:45:00 AM 3.75 38.75 0.284 7.57 4.13 10.74
12/6/2020 8:00:00 AM 3.71 38.678 0.283 7.58 6.45 10.79
12/6/2020 8:15:00 AM 3.72 38.696 0.284 7.59 3.85 10.81
12/6/2020 8:30:00 AM 3.71 38.678 0.284 7.59 3.79 10.88
12/6/2020 8:45:00 AM 3.67 38.606 0.281 7.59 3.8 10.92
12/6/2020 9:00:00 AM 3.68 38.624 0.282 7.59 3.9 10.91
12/6/2020 9:15:00 AM 3.69 38.642 0.284 7.59 3.79 10.92
12/6/2020 9:30:00 AM 3.67 38.606 0.28 7.6 5.58 10.98
12/6/2020 9:45:00 AM 3.67 38.606 0.282 7.6 3.6 11.01
12/6/2020 10:00:00 AM 3.68 38.624 0.283 7.6 5.44 11.05
12/6/2020 10:15:00 AM 3.68 38.624 0.282 7.61 3.57 11.09
12/6/2020 10:30:00 AM 3.67 38.606 0.282 7.61 3.67 11.1
12/6/2020 10:45:00 AM 3.66 38.588 0.282 7.61 3.66 11.17
12/6/2020 11:00:00 AM 3.66 38.588 0.282 7.62 3.64 11.21
12/6/2020 11:15:00 AM 3.68 38.624 0.283 7.62 3.67 11.26
12/6/2020 11:30:00 AM 3.68 38.624 0.284 7.61 3.59 11.3
12/6/2020 11:45:00 AM 3.69 38.642 0.283 7.63 3.99 11.33
12/6/2020 12:00:00 PM 3.71 38.678 0.282 7.63 3.6 11.33
12/6/2020 12:15:00 PM 3.68 38.624 0.281 7.63 3.59 11.45
12/6/2020 12:30:00 PM 3.7 38.66 0.282 7.64 3.72 11.48
12/6/2020 12:45:00 PM 3.74 38.732 0.283 7.64 3.53 11.51
12/6/2020 1:00:00 PM 3.77 38.786 0.283 7.64 3.48 11.54
12/6/2020 1:15:00 PM 3.76 38.768 0.28 7.65 3.59 11.6
12/6/2020 1:30:00 PM 3.78 38.804 0.282 7.66 3.49 11.61
12/6/2020 1:45:00 PM 3.78 38.804 0.283 7.66 3.64 11.64
12/6/2020 2:00:00 PM 3.78 38.804 0.283 7.66 3.42 11.7
12/6/2020 2:15:00 PM 3.82 38.876 0.283 7.66 3.5 11.73
12/6/2020 2:30:00 PM 3.82 38.876 0.282 7.67 5.4 11.76
12/6/2020 2:45:00 PM 3.85 38.93 0.283 7.67 3.49 11.79
12/6/2020 3:00:00 PM 3.86 38.948 0.283 7.67 3.64 11.79
12/6/2020 3:15:00 PM 3.83 38.894 0.282 7.67 3.45 11.82
12/6/2020 3:30:00 PM 3.85 38.93 0.282 7.68 3.68 11.81
12/6/2020 3:45:00 PM 3.86 38.948 0.282 7.67 3.79 11.77
12/6/2020 4:00:00 PM 3.86 38.948 0.284 7.67 4.43 11.77
12/6/2020 4:15:00 PM 3.85 38.93 0.283 7.68 3.86 11.77
12/6/2020 4:30:00 PM 3.87 38.966 0.284 7.67 3.75 11.71
12/6/2020 4:45:00 PM 3.85 38.93 0.282 7.67 3.91 11.72
12/6/2020 5:00:00 PM 3.85 38.93 0.281 7.67 4.12 11.68
12/6/2020 5:15:00 PM 3.85 38.93 0.282 7.67 4.46 11.68
12/6/2020 5:30:00 PM 3.86 38.948 0.282 7.66 4.09 11.67
12/6/2020 5:45:00 PM 3.89 39.002 0.284 7.67 4.15 11.62
12/6/2020 6:00:00 PM 3.88 38.984 0.283 7.66 3.91 11.61
12/6/2020 6:15:00 PM 3.87 38.966 0.283 7.66 4.07 11.58
12/6/2020 6:30:00 PM 3.84 38.912 0.282 7.66 4.04 11.58
12/6/2020 6:45:00 PM 3.82 38.876 0.282 7.65 4.08 11.54
12/6/2020 7:00:00 PM 3.8 38.84 0.283 7.66 4.35 11.51
12/6/2020 7:15:00 PM 3.78 38.804 0.283 7.65 4.14 11.48
12/6/2020 7:30:00 PM 3.78 38.804 0.283 7.65 4.1 11.43
12/6/2020 7:45:00 PM 3.77 38.786 0.282 7.63 4.21 11.39
12/6/2020 8:00:00 PM 3.77 38.786 0.284 7.64 4.21 11.36
12/6/2020 8:15:00 PM 3.76 38.768 0.283 7.64 4.15 11.34
12/6/2020 8:30:00 PM 3.76 38.768 0.282 7.63 4.29 11.3
12/6/2020 8:45:00 PM 3.76 38.768 0.283 7.62 4.23 11.25
12/6/2020 9:00:00 PM 3.77 38.786 0.285 7.63 4.06 11.23
12/6/2020 9:15:00 PM 3.74 38.732 0.283 7.62 4.06 11.19
12/6/2020 9:30:00 PM 3.71 38.678 0.283 7.62 4.21 11.18
12/6/2020 9:45:00 PM 3.7 38.66 0.285 7.62 4.15 11.14
12/6/2020 10:00:00 PM 3.68 38.624 0.284 7.62 4.1 11.13
12/6/2020 10:15:00 PM 3.7 38.66 0.287 7.61 4.21 11.09
12/6/2020 10:30:00 PM 3.66 38.588 0.286 7.6 4.31 11.07
12/6/2020 10:45:00 PM 3.63 38.534 0.285 7.6 4.18 11.04
12/6/2020 11:00:00 PM 3.6 38.48 0.285 7.61 4.31 11.03
12/6/2020 11:15:00 PM 3.59 38.462 0.287 7.6 4.12 11.03
12/6/2020 11:30:00 PM 3.59 38.462 0.288 7.6 4.22 11
12/6/2020 11:45:00 PM 3.55 38.39 0.286 7.6 4.88 11.02
12/7/2020 12:00:00 AM 3.54 38.372 0.287 7.6 4.13 11.01
12/7/2020 12:15:00 AM 3.51 38.318 0.287 7.6 4.08 10.99
12/7/2020 12:30:00 AM 3.46 38.228 0.287 7.59 4.14 10.96
12/7/2020 12:45:00 AM 3.44 38.192 0.288 7.59 4.12 10.94
12/7/2020 1:00:00 AM 3.39 38.102 0.287 7.59 4.06 10.95
12/7/2020 1:15:00 AM 3.39 38.102 0.29 7.59 4.09 10.97
12/7/2020 1:30:00 AM 3.4 38.12 0.291 7.59 4.01 10.93
12/7/2020 1:45:00 AM 3.36 38.048 0.288 7.59 4 10.95
12/7/2020 2:00:00 AM 3.36 38.048 0.291 7.59 4.01 10.92
12/7/2020 2:15:00 AM 3.34 38.012 0.29 7.59 4.1 10.9
12/7/2020 2:30:00 AM 3.31 37.958 0.29 7.59 3.97 10.95
12/7/2020 2:45:00 AM 3.32 37.976 0.29 7.59 4.03 10.91
12/7/2020 3:00:00 AM 3.28 37.904 0.289 7.59 4.18 10.91
12/7/2020 3:15:00 AM 3.27 37.886 0.291 7.58 4.32 10.9
12/7/2020 3:30:00 AM 3.25 37.85 0.291 7.58 3.99 10.91
12/7/2020 3:45:00 AM 3.24 37.832 0.292 7.59 4.08 10.91
12/7/2020 4:00:00 AM 3.25 37.85 0.293 7.58 3.96 10.89
12/7/2020 4:15:00 AM 3.22 37.796 0.293 7.57 4.02 10.89
12/7/2020 4:30:00 AM 3.21 37.778 0.292 7.58 3.8 10.89
12/7/2020 4:45:00 AM 3.2 37.76 0.293 7.57 3.81 10.9
12/7/2020 5:00:00 AM 3.18 37.724 0.292 7.59 3.76 10.88
12/7/2020 5:15:00 AM 3.2 37.76 0.292 7.58 3.79 10.85
12/7/2020 5:30:00 AM 3.17 37.706 0.291 7.58 3.82 10.88
12/7/2020 5:45:00 AM 3.2 37.76 0.294 7.58 3.95 10.91
12/7/2020 6:00:00 AM 3.21 37.778 0.293 7.58 3.73 10.86
12/7/2020 6:15:00 AM 3.22 37.796 0.297 7.58 4.45 10.83
12/7/2020 6:30:00 AM 3.17 37.706 0.293 7.57 4.05 10.87
12/7/2020 6:45:00 AM 3.19 37.742 0.294 7.58 3.85 10.85
12/7/2020 7:00:00 AM 3.19 37.742 0.295 7.58 3.85 10.8
12/7/2020 7:15:00 AM 3.18 37.724 0.294 7.58 3.86 10.82
12/7/2020 7:30:00 AM 3.16 37.688 0.295 7.58 3.76 10.88
12/7/2020 7:45:00 AM 3.15 37.67 0.294 7.58 3.96 10.89
12/7/2020 8:00:00 AM 3.17 37.706 0.295 7.58 3.82 10.91
12/7/2020 8:15:00 AM 3.2 37.76 0.297 7.59 3.59 10.89
12/7/2020 8:30:00 AM 3.18 37.724 0.294 7.59 3.64 10.98
12/7/2020 8:45:00 AM 3.22 37.796 0.299 7.6 3.59 11.05
12/7/2020 9:00:00 AM 3.21 37.778 0.295 7.6 3.72 11.06
12/7/2020 9:15:00 AM 3.26 37.868 0.297 7.6 3.5 11.09
12/7/2020 9:30:00 AM 3.24 37.832 0.298 7.61 3.53 11.12
12/7/2020 9:45:00 AM 3.24 37.832 0.297 7.61 3.47 11.15
12/7/2020 10:00:00 AM 3.29 37.922 0.3 7.61 3.56 11.17
12/7/2020 10:15:00 AM 3.29 37.922 0.298 7.62 3.5 11.21
12/7/2020 10:30:00 AM 3.36 38.048 0.299 7.62 3.38 11.23
12/7/2020 10:45:00 AM 3.36 38.048 0.298 7.62 3.57 11.25
12/7/2020 11:00:00 AM 3.38 38.084 0.298 7.63 3.58 11.32
12/7/2020 11:15:00 AM 3.41 38.138 0.297 7.63 3.5 11.38
12/7/2020 11:30:00 AM 3.44 38.192 0.294 7.64 4.04 11.45
12/7/2020 11:45:00 AM 3.44 38.192 0.293 7.64 3.89 11.56
12/7/2020 12:00:00 PM 3.56 38.408 0.294 7.65 3.76 11.59
12/7/2020 12:15:00 PM 3.6 38.48 0.296 7.65 3.58 11.59
12/7/2020 12:30:00 PM 3.63 38.534 0.299 7.65 3.47 11.6
12/7/2020 12:45:00 PM 3.68 38.624 0.3 7.66 3.74 11.66
12/7/2020 1:00:00 PM 3.71 38.678 0.301 7.66 3.66 11.67
12/7/2020 1:15:00 PM 3.75 38.75 0.303 7.67 3.92 11.65
12/7/2020 1:30:00 PM 3.8 38.84 0.301 7.67 3.61 11.68
12/7/2020 1:45:00 PM 3.86 38.948 0.301 7.67 3.79 11.68
12/7/2020 2:00:00 PM 3.86 38.948 0.301 7.68 4.32 11.76
12/7/2020 2:15:00 PM 3.88 38.984 0.301 7.68 3.77 11.76
12/7/2020 2:30:00 PM 3.9 39.02 0.303 7.67 4.32 11.76
12/7/2020 2:45:00 PM 3.92 39.056 0.303 7.68 3.96 11.75
12/7/2020 3:00:00 PM 3.92 39.056 0.302 7.69 4.22 11.76
12/7/2020 3:15:00 PM 3.91 39.038 0.302 7.68 3.79 11.72
12/7/2020 3:30:00 PM 3.93 39.074 0.304 7.67 3.78 11.63
12/7/2020 3:45:00 PM 3.93 39.074 0.303 7.68 3.67 11.67
12/7/2020 4:00:00 PM 3.91 39.038 0.303 7.67 3.78 11.65
12/7/2020 4:15:00 PM 3.94 39.092 0.304 7.67 3.93 11.62
12/7/2020 4:30:00 PM 3.95 39.11 0.304 7.67 3.72 11.57
12/7/2020 4:45:00 PM 3.92 39.056 0.303 7.67 3.75 11.61
12/7/2020 5:00:00 PM 3.95 39.11 0.303 7.67 3.85 11.53
12/7/2020 5:15:00 PM 3.93 39.074 0.303 7.67 3.91 11.52
12/7/2020 5:30:00 PM 3.96 39.128 0.306 7.67 3.82 11.49
12/7/2020 5:45:00 PM 3.93 39.074 0.302 7.67 4 11.51
12/7/2020 6:00:00 PM 3.94 39.092 0.303 7.67 3.74 11.44
12/7/2020 6:15:00 PM 3.92 39.056 0.304 7.66 3.91 11.44
12/7/2020 6:30:00 PM 3.94 39.092 0.304 7.67 3.7 11.38
12/7/2020 6:45:00 PM 3.93 39.074 0.305 7.66 3.84 11.35
12/7/2020 7:00:00 PM 3.91 39.038 0.305 7.66 4.04 11.29
12/7/2020 7:15:00 PM 3.89 39.002 0.303 7.65 4.06 11.26
12/7/2020 7:30:00 PM 3.9 39.02 0.304 7.65 3.89 11.21
12/7/2020 7:45:00 PM 3.91 39.038 0.304 7.65 3.94 11.14
12/7/2020 8:00:00 PM 3.88 38.984 0.303 7.65 4.05 11.15
12/7/2020 8:15:00 PM 3.87 38.966 0.303 7.65 3.91 11.14
12/7/2020 8:30:00 PM 3.89 39.002 0.303 7.64 4.13 11.05
12/7/2020 8:45:00 PM 3.89 39.002 0.304 7.64 3.9 11.03
12/7/2020 9:00:00 PM 3.91 39.038 0.306 7.64 3.91 10.97
12/7/2020 9:15:00 PM 3.87 38.966 0.305 7.63 3.84 10.98
12/7/2020 9:30:00 PM 3.87 38.966 0.304 7.63 3.83 10.94
12/7/2020 9:45:00 PM 3.86 38.948 0.305 7.63 3.81 10.9
12/7/2020 10:00:00 PM 3.87 38.966 0.307 7.63 3.81 10.85
12/7/2020 10:15:00 PM 3.79 38.822 0.305 7.63 3.73 10.9
12/7/2020 10:30:00 PM 3.8 38.84 0.309 7.62 3.78 10.83
12/7/2020 10:45:00 PM 3.76 38.768 0.309 7.62 3.92 10.82
12/7/2020 11:00:00 PM 3.72 38.696 0.308 7.62 3.88 10.8
12/7/2020 11:15:00 PM 3.66 38.588 0.308 7.62 3.86 10.83
12/7/2020 11:30:00 PM 3.63 38.534 0.308 7.62 3.84 10.78
12/7/2020 11:45:00 PM 3.63 38.534 0.31 7.62 4.5 10.77
12/8/2020 12:00:00 AM 3.62 38.516 0.309 7.61 4.35 10.77
12/8/2020 12:15:00 AM 3.58 38.444 0.309 7.61 4.01 10.77
12/8/2020 12:30:00 AM 3.59 38.462 0.31 7.61 3.96 10.73
12/8/2020 12:45:00 AM 3.53 38.354 0.31 7.61 3.82 10.78
12/8/2020 1:00:00 AM 3.47 38.246 0.311 7.61 3.9 10.8
12/8/2020 1:15:00 AM 3.51 38.318 0.313 7.6 3.85 10.69
12/8/2020 1:30:00 AM 3.42 38.156 0.31 7.6 3.84 10.76
12/8/2020 1:45:00 AM 3.37 38.066 0.309 7.61 3.87 10.77
12/8/2020 2:00:00 AM 3.4 38.12 0.312 7.6 3.85 10.7
12/8/2020 2:15:00 AM 3.35 38.03 0.312 7.6 3.8 10.74
12/8/2020 2:30:00 AM 3.36 38.048 0.313 7.6 3.82 10.71
12/8/2020 2:45:00 AM 3.31 37.958 0.31 7.6 3.85 10.74
12/8/2020 3:00:00 AM 3.3 37.94 0.312 7.59 3.75 10.73
12/8/2020 3:15:00 AM 3.28 37.904 0.314 7.6 3.68 10.74
12/8/2020 3:30:00 AM 3.27 37.886 0.313 7.6 3.62 10.71
12/8/2020 3:45:00 AM 3.24 37.832 0.313 7.59 3.75 10.71
12/8/2020 4:00:00 AM 3.22 37.796 0.312 7.6 3.66 10.73
12/8/2020 4:15:00 AM 3.21 37.778 0.314 7.6 3.67 10.76
12/8/2020 4:30:00 AM 3.21 37.778 0.316 7.6 3.7 10.73
12/8/2020 4:45:00 AM 3.18 37.724 0.313 7.6 3.64 10.73
12/8/2020 5:00:00 AM 3.16 37.688 0.313 7.59 3.77 10.76
12/8/2020 5:15:00 AM 3.16 37.688 0.315 7.6 3.76 10.71
12/8/2020 5:30:00 AM 3.12 37.616 0.312 7.59 3.83 10.74
12/8/2020 5:45:00 AM 3.09 37.562 0.311 7.59 3.9 10.76
12/8/2020 6:00:00 AM 3.12 37.616 0.313 7.59 3.88 10.72
12/8/2020 6:15:00 AM 3.07 37.526 0.313 7.6 3.85 10.77
12/8/2020 6:30:00 AM 3.05 37.49 0.311 7.59 3.99 10.63
12/8/2020 6:45:00 AM 3.07 37.526 0.315 7.59 3.96 10.75
12/8/2020 7:00:00 AM 3.04 37.472 0.313 7.6 3.85 10.77
12/8/2020 7:15:00 AM 3.04 37.472 0.314 7.59 4.59 10.75
12/8/2020 7:30:00 AM 3.01 37.418 0.313 7.6 3.97 10.77
12/8/2020 7:45:00 AM 3 37.4 0.312 7.6 4.1 10.78
12/8/2020 8:00:00 AM 2.99 37.382 0.314 7.6 3.92 10.83
12/8/2020 8:15:00 AM 3 37.4 0.311 7.6 3.85 10.81
12/8/2020 8:30:00 AM 3.01 37.418 0.316 7.6 3.74 10.87
12/8/2020 8:45:00 AM 3.02 37.436 0.315 7.6 3.68 10.9
12/8/2020 9:00:00 AM 3.04 37.472 0.314 7.61 3.57 10.94
12/8/2020 9:15:00 AM 3.01 37.418 0.315 7.62 3.72 10.97
12/8/2020 9:30:00 AM 3.02 37.436 0.315 7.62 3.64 10.98
12/8/2020 9:45:00 AM 3.05 37.49 0.317 7.62 3.38 11.05
12/8/2020 10:00:00 AM 3.11 37.598 0.319 7.62 3.4 11.09
12/8/2020 10:15:00 AM 3.09 37.562 0.315 7.62 3.72 11.07
12/8/2020 10:30:00 AM 3.09 37.562 0.316 7.63 3.58 11.15
12/8/2020 10:45:00 AM 3.11 37.598 0.315 7.64 3.49 11.21
12/8/2020 11:00:00 AM 3.12 37.616 0.315 7.64 3.7 11.25
12/8/2020 11:15:00 AM 3.17 37.706 0.317 7.64 3.58 11.21
12/8/2020 11:30:00 AM 3.17 37.706 0.316 7.64 4.63 11.27
12/8/2020 11:45:00 AM 3.22 37.796 0.317 7.64 6.49 11.27
12/8/2020 12:00:00 PM 3.25 37.85 0.317 7.65 3.91 11.28
12/8/2020 12:15:00 PM 3.31 37.958 0.319 7.65 4.36 11.33
12/8/2020 12:30:00 PM 3.36 38.048 0.319 7.65 4.6 11.29
12/8/2020 12:45:00 PM 3.31 37.958 0.318 7.66 4.29 11.47
12/8/2020 1:00:00 PM 3.34 38.012 0.316 7.65 4.48 11.44
12/8/2020 1:15:00 PM 3.4 38.12 0.319 7.67 4.28 11.44
12/8/2020 1:30:00 PM 3.4 38.12 0.317 7.66 3.92 11.48
12/8/2020 1:45:00 PM 3.4 38.12 0.318 7.67 4.1 11.55
12/8/2020 2:00:00 PM 3.41 38.138 0.317 7.67 4.37 11.59
12/8/2020 2:15:00 PM 3.44 38.192 0.317 7.68 4.04 11.58
12/8/2020 2:30:00 PM 3.51 38.318 0.32 7.68 3.8 11.55
12/8/2020 2:45:00 PM 3.48 38.264 0.318 7.68 4.09 11.64
12/8/2020 3:00:00 PM 3.52 38.336 0.319 7.68 3.93 11.57
12/8/2020 3:15:00 PM 3.52 38.336 0.318 7.68 3.96 11.6
12/8/2020 3:30:00 PM 3.55 38.39 0.319 7.69 4.03 11.61
12/8/2020 3:45:00 PM 3.58 38.444 0.32 7.69 4.17 11.58
12/8/2020 4:00:00 PM 3.61 38.498 0.322 7.69 4.13 11.58
12/8/2020 4:15:00 PM 3.6 38.48 0.32 7.68 4.02 11.54
12/8/2020 4:30:00 PM 3.6 38.48 0.321 7.68 3.92 11.51
12/8/2020 4:45:00 PM 3.59 38.462 0.321 7.68 3.98 11.51
12/8/2020 5:00:00 PM 3.58 38.444 0.321 7.68 3.96 11.46
12/8/2020 5:15:00 PM 3.6 38.48 0.321 7.68 3.91 11.45
12/8/2020 5:30:00 PM 3.57 38.426 0.321 7.67 4.03 11.46
12/8/2020 5:45:00 PM 3.57 38.426 0.323 7.67 4.1 11.42
12/8/2020 6:00:00 PM 3.56 38.408 0.324 7.67 3.91 11.42
12/8/2020 6:15:00 PM 3.54 38.372 0.323 7.68 3.81 11.39
12/8/2020 6:30:00 PM 3.49 38.282 0.322 7.67 3.92 11.41
12/8/2020 6:45:00 PM 3.49 38.282 0.323 7.67 3.94 11.37
12/8/2020 7:00:00 PM 3.43 38.174 0.322 7.67 3.93 11.39
12/8/2020 7:15:00 PM 3.43 38.174 0.323 7.66 3.89 11.3
12/8/2020 7:30:00 PM 3.41 38.138 0.324 7.66 3.87 11.28
12/8/2020 7:45:00 PM 3.38 38.084 0.323 7.66 3.9 11.26
12/8/2020 8:00:00 PM 3.33 37.994 0.321 7.66 3.92 11.18
12/8/2020 8:15:00 PM 3.34 38.012 0.323 7.65 3.89 11.15
12/8/2020 8:30:00 PM 3.33 37.994 0.324 7.65 3.93 11.12
12/8/2020 8:45:00 PM 3.37 38.066 0.326 7.65 3.99 11.08
12/8/2020 9:00:00 PM 3.36 38.048 0.328 7.65 3.99 11.05
12/8/2020 9:15:00 PM 3.33 37.994 0.326 7.64 4.01 11.04
12/8/2020 9:30:00 PM 3.37 38.066 0.327 7.64 3.94 10.96
12/8/2020 9:45:00 PM 3.35 38.03 0.326 7.64 3.9 10.95
12/8/2020 10:00:00 PM 3.35 38.03 0.327 7.64 3.78 10.92
12/8/2020 10:15:00 PM 3.34 38.012 0.326 7.64 3.84 10.91
12/8/2020 10:30:00 PM 3.34 38.012 0.326 7.63 4.92 10.87
12/8/2020 10:45:00 PM 3.34 38.012 0.327 7.64 3.97 10.86
12/8/2020 11:00:00 PM 3.34 38.012 0.328 7.63 3.77 10.85
12/8/2020 11:15:00 PM 3.33 37.994 0.328 7.64 3.73 10.83
12/8/2020 11:30:00 PM 3.35 38.03 0.327 7.63 3.64 10.78
12/8/2020 11:45:00 PM 3.31 37.958 0.328 7.63 4.26 10.79
12/9/2020 12:00:00 AM 3.31 37.958 0.329 7.63 3.67 10.79
12/9/2020 12:15:00 AM 3.28 37.904 0.327 7.63 3.57 10.78
12/9/2020 12:30:00 AM 3.27 37.886 0.33 7.63 3.67 10.77
12/9/2020 12:45:00 AM 3.26 37.868 0.331 7.62 3.76 10.76
12/9/2020 1:00:00 AM 3.27 37.886 0.331 7.62 3.64 10.72
12/9/2020 1:15:00 AM 3.2 37.76 0.328 7.62 3.6 10.76
12/9/2020 1:30:00 AM 3.18 37.724 0.329 7.62 3.62 10.73
12/9/2020 1:45:00 AM 3.24 37.832 0.332 7.61 3.75 10.68
12/9/2020 2:00:00 AM 3.17 37.706 0.33 7.61 3.91 10.7
12/9/2020 2:15:00 AM 3.13 37.634 0.33 7.61 3.61 10.73
12/9/2020 2:30:00 AM 3.12 37.616 0.331 7.61 3.86 10.72
12/9/2020 2:45:00 AM 3.09 37.562 0.33 7.61 3.77 10.74
12/9/2020 3:00:00 AM 3.13 37.634 0.333 7.61 3.37 10.68
12/9/2020 3:15:00 AM 3.07 37.526 0.332 7.6 3.69 10.72
12/9/2020 3:30:00 AM 3.07 37.526 0.331 7.61 3.66 10.72
12/9/2020 3:45:00 AM 3.03 37.454 0.332 7.6 3.64 10.73
12/9/2020 4:00:00 AM 3.04 37.472 0.331 7.6 3.7 10.72
12/9/2020 4:15:00 AM 3.02 37.436 0.333 7.6 3.67 10.71
12/9/2020 4:30:00 AM 3.04 37.472 0.335 7.61 3.75 10.7
12/9/2020 4:45:00 AM 3.07 37.526 0.334 7.61 3.64 10.66
12/9/2020 5:00:00 AM 3.12 37.616 0.337 7.6 3.67 10.58
12/9/2020 5:15:00 AM 3.06 37.508 0.334 7.59 3.69 10.66
12/9/2020 5:30:00 AM 3.1 37.58 0.336 7.6 3.82 10.61
12/9/2020 5:45:00 AM 3.07 37.526 0.332 7.6 3.66 10.65
12/9/2020 6:00:00 AM 3.08 37.544 0.335 7.59 3.46 10.63
12/9/2020 6:15:00 AM 3.03 37.454 0.332 7.6 3.51 10.68
12/9/2020 6:30:00 AM 3.06 37.508 0.333 7.6 3.46 10.64
12/9/2020 6:45:00 AM 3.05 37.49 0.333 7.6 3.63 10.64
12/9/2020 7:00:00 AM 2.99 37.382 0.333 7.6 3.52 10.69
12/9/2020 7:15:00 AM 2.93 37.274 0.332 7.6 3.68 10.71
12/9/2020 7:30:00 AM 2.92 37.256 0.333 7.59 3.91 10.7
12/9/2020 7:45:00 AM 2.9 37.22 0.329 7.6 3.53 10.75
12/9/2020 8:00:00 AM 2.92 37.256 0.33 7.6 3.68 10.74
12/9/2020 8:15:00 AM 2.87 37.166 0.33 7.61 3.38 10.79
12/9/2020 8:30:00 AM 2.89 37.202 0.331 7.6 3.39 10.82
12/9/2020 8:45:00 AM 2.9 37.22 0.33 7.61 3.37 10.85
12/9/2020 9:00:00 AM 2.92 37.256 0.328 7.62 3.23 10.9
12/9/2020 9:15:00 AM 2.96 37.328 0.328 7.62 3.34 10.89
12/9/2020 9:30:00 AM 2.92 37.256 0.329 7.62 3.2 10.96
12/9/2020 9:45:00 AM 2.92 37.256 0.329 7.62 3.16 10.99
12/9/2020 10:00:00 AM 2.89 37.202 0.327 7.63 3.15 11.01
12/9/2020 10:15:00 AM 2.87 37.166 0.326 7.63 3.18 11.06
12/9/2020 10:30:00 AM 2.92 37.256 0.328 7.63 3.16 11.06
12/9/2020 10:45:00 AM 2.96 37.328 0.327 7.64 3.07 11.07
12/9/2020 11:00:00 AM 2.93 37.274 0.326 7.63 3 11.11
12/9/2020 11:15:00 AM 2.97 37.346 0.327 7.64 3.13 11.14
12/9/2020 11:30:00 AM 3.05 37.49 0.328 7.64 3.12 11.12
12/9/2020 11:45:00 AM 3.05 37.49 0.329 7.64 3.26 11.17
12/9/2020 12:00:00 PM 3.05 37.49 0.325 7.64 3.25 11.16
12/9/2020 12:15:00 PM 3.09 37.562 0.329 7.64 3.24 11.2
12/9/2020 12:30:00 PM 3.12 37.616 0.328 7.65 3.32 11.2
12/9/2020 12:45:00 PM 3.1 37.58 0.326 7.65 3.25 11.26
12/9/2020 1:00:00 PM 3.14 37.652 0.326 7.66 3.79 11.24
12/9/2020 1:15:00 PM 3.12 37.616 0.327 7.66 3.16 11.31
12/9/2020 1:30:00 PM 3.12 37.616 0.324 7.66 3.24 11.32
12/9/2020 1:45:00 PM 3.13 37.634 0.324 7.66 3.35 11.32
12/9/2020 2:00:00 PM 3.18 37.724 0.327 7.66 3.35 11.32
12/9/2020 2:15:00 PM 3.22 37.796 0.329 7.66 3.34 11.32
12/9/2020 2:30:00 PM 3.21 37.778 0.327 7.66 3.53 11.34
12/9/2020 2:45:00 PM 3.22 37.796 0.329 7.67 3.87 11.34
12/9/2020 3:00:00 PM 3.26 37.868 0.332 7.66 3.98 11.33
12/9/2020 3:15:00 PM 3.26 37.868 0.332 7.67 3.41 11.35
12/9/2020 3:30:00 PM 3.28 37.904 0.334 7.66 3.76 11.35
12/9/2020 3:45:00 PM 3.28 37.904 0.336 7.67 3.57 11.33
12/9/2020 4:00:00 PM 3.27 37.886 0.338 7.66 3.56 11.31
12/9/2020 4:15:00 PM 3.29 37.922 0.341 7.66 3.62 11.26
12/9/2020 4:30:00 PM 3.26 37.868 0.345 7.66 3.61 11.31
12/9/2020 4:45:00 PM 3.29 37.922 0.35 7.66 3.49 11.27
12/9/2020 5:00:00 PM 3.27 37.886 0.354 7.66 3.79 11.28
12/9/2020 5:15:00 PM 3.27 37.886 0.361 7.65 3.75 11.28
12/9/2020 5:30:00 PM 3.28 37.904 0.367 7.65 3.65 11.27
12/9/2020 5:45:00 PM 3.29 37.922 0.374 7.66 3.76 11.25
12/9/2020 6:00:00 PM 3.31 37.958 0.38 7.65 3.76 11.23
12/9/2020 6:15:00 PM 3.32 37.976 0.384 7.66 3.81 11.23
12/9/2020 6:30:00 PM 3.33 37.994 0.39 7.66 3.87 11.22
12/9/2020 6:45:00 PM 3.34 38.012 0.394 7.65 3.87 11.21
12/9/2020 7:00:00 PM 3.34 38.012 0.397 7.65 4.03 11.18
12/9/2020 7:15:00 PM 3.35 38.03 0.403 7.65 4.01 11.18
12/9/2020 7:30:00 PM 3.38 38.084 0.403 7.65 4.24 11.13
12/9/2020 7:45:00 PM 3.39 38.102 0.404 7.65 4.1 11.09
12/9/2020 8:00:00 PM 3.37 38.066 0.402 7.65 4.2 11.11
12/9/2020 8:15:00 PM 3.41 38.138 0.4 7.65 4.26 11.07
12/9/2020 8:30:00 PM 3.42 38.156 0.398 7.64 4.15 11.05
12/9/2020 8:45:00 PM 3.43 38.174 0.394 7.65 4.11 11.03
12/9/2020 9:00:00 PM 3.46 38.228 0.389 7.64 4.09 10.98
12/9/2020 9:15:00 PM 3.48 38.264 0.385 7.64 11.58 10.95
12/9/2020 9:30:00 PM 3.5 38.3 0.38 7.64 4.08 10.89
12/9/2020 9:45:00 PM 3.52 38.336 0.376 7.64 4.33 10.88
12/9/2020 10:00:00 PM 3.52 38.336 0.371 7.63 4.36 10.89
12/9/2020 10:15:00 PM 3.54 38.372 0.366 7.64 3.94 10.86
12/9/2020 10:30:00 PM 3.56 38.408 0.361 7.64 3.9 10.84
12/9/2020 10:45:00 PM 3.54 38.372 0.356 7.64 3.86 10.86
12/9/2020 11:00:00 PM 3.57 38.426 0.354 7.63 3.95 10.83
12/9/2020 11:15:00 PM 3.6 38.48 0.351 7.63 3.85 10.77
12/9/2020 11:30:00 PM 3.63 38.534 0.35 7.63 3.97 10.76
12/9/2020 11:45:00 PM 3.61 38.498 0.346 7.62 3.82 10.77
12/10/2020 12:00:00 AM 3.64 38.552 0.344 7.63 3.93 10.73
12/10/2020 12:15:00 AM 3.67 38.606 0.344 7.62 3.75 10.67
12/10/2020 12:30:00 AM 3.67 38.606 0.342 7.62 3.9 10.68
12/10/2020 12:45:00 AM 3.67 38.606 0.339 7.62 4.62 10.69
12/10/2020 1:00:00 AM 3.7 38.66 0.339 7.61 4.7 10.63
12/10/2020 1:15:00 AM 3.69 38.642 0.337 7.61 4.08 10.65
12/10/2020 1:30:00 AM 3.7 38.66 0.337 7.61 3.87 10.63
12/10/2020 1:45:00 AM 3.7 38.66 0.335 7.61 3.86 10.62
12/10/2020 2:00:00 AM 3.72 38.696 0.338 7.61 3.89 10.6
12/10/2020 2:15:00 AM 3.72 38.696 0.334 7.6 4.03 10.59
12/10/2020 2:30:00 AM 3.75 38.75 0.336 7.61 3.86 10.57
12/10/2020 2:45:00 AM 3.76 38.768 0.335 7.61 3.73 10.54
12/10/2020 3:00:00 AM 3.79 38.822 0.335 7.6 3.85 10.54
12/10/2020 3:15:00 AM 3.8 38.84 0.336 7.61 3.94 10.48
12/10/2020 3:30:00 AM 3.76 38.768 0.334 7.6 3.81 10.55
12/10/2020 3:45:00 AM 3.79 38.822 0.335 7.6 3.63 10.53
12/10/2020 4:00:00 AM 3.75 38.75 0.333 7.6 3.69 10.57
12/10/2020 4:15:00 AM 3.77 38.786 0.335 7.6 3.72 10.56
12/10/2020 4:30:00 AM 3.84 38.912 0.337 7.6 3.7 10.47
12/10/2020 4:45:00 AM 3.83 38.894 0.336 7.6 4.15 10.5
12/10/2020 5:00:00 AM 3.77 38.786 0.334 7.59 3.94 10.56
12/10/2020 5:15:00 AM 3.82 38.876 0.336 7.61 3.47 10.5
12/10/2020 5:30:00 AM 3.81 38.858 0.335 7.6 5.68 10.51
12/10/2020 5:45:00 AM 3.84 38.912 0.339 7.59 3.59 10.49
12/10/2020 6:00:00 AM 3.86 38.948 0.338 7.6 3.67 10.47
12/10/2020 6:15:00 AM 3.83 38.894 0.334 7.6 3.55 10.48
12/10/2020 6:30:00 AM 3.85 38.93 0.337 7.59 3.52 10.45
12/10/2020 6:45:00 AM 3.86 38.948 0.336 7.6 3.58 10.45
12/10/2020 7:00:00 AM 3.88 38.984 0.338 7.6 3.51 10.42
12/10/2020 7:15:00 AM 3.85 38.93 0.336 7.59 3.55 10.46
12/10/2020 7:30:00 AM 3.88 38.984 0.337 7.6 3.66 10.43
12/10/2020 7:45:00 AM 3.93 39.074 0.339 7.6 3.97 10.37
12/10/2020 8:00:00 AM 3.91 39.038 0.337 7.59 6.06 10.46
12/10/2020 8:15:00 AM 3.94 39.092 0.336 7.6 4.6 10.5
12/10/2020 8:30:00 AM 3.94 39.092 0.336 7.61 5.62 10.59
12/10/2020 8:45:00 AM 3.99 39.182 0.336 7.61 3.48 10.61
12/10/2020 9:00:00 AM 4.02 39.236 0.336 7.62 3.47 10.69
12/10/2020 9:15:00 AM 4.04 39.272 0.336 7.62 3.68 10.7
12/10/2020 9:30:00 AM 4.09 39.362 0.335 7.63 3.41 10.74
12/10/2020 9:45:00 AM 4.13 39.434 0.336 7.63 3.31 10.78
12/10/2020 10:00:00 AM 4.17 39.506 0.336 7.64 3.37 10.82
12/10/2020 10:15:00 AM 4.23 39.614 0.337 7.63 3.26 10.78
12/10/2020 10:30:00 AM 4.27 39.686 0.336 7.64 3.18 10.82
12/10/2020 10:45:00 AM 4.15 39.47 0.33 7.63 3.42 11.01
12/10/2020 11:00:00 AM 4.07 39.326 0.327 7.64 3.86 11.15
12/10/2020 11:15:00 AM 4.07 39.326 0.326 7.64 3.73 11.14
12/10/2020 11:30:00 AM 4.13 39.434 0.329 7.65 3.5 11.11
12/10/2020 11:45:00 AM 4.22 39.596 0.333 7.65 3.4 11.06
12/10/2020 12:00:00 PM 4.27 39.686 0.335 7.65 3.36 11.11
12/10/2020 12:15:00 PM 4.37 39.866 0.337 7.66 3.23 11.09
12/10/2020 12:30:00 PM 4.44 39.992 0.339 7.66 3.25 11.1
12/10/2020 12:45:00 PM 4.52 40.136 0.339 7.67 3.16 11.14
12/10/2020 1:00:00 PM 4.57 40.226 0.339 7.66 3.22 11.18
12/10/2020 1:15:00 PM 4.61 40.298 0.337 7.67 3.24 11.23
12/10/2020 1:30:00 PM 4.67 40.406 0.337 7.68 3.21 11.27
12/10/2020 1:45:00 PM 4.72 40.496 0.338 7.68 3.2 11.27
12/10/2020 2:00:00 PM 4.76 40.568 0.336 7.69 3.18 11.33
12/10/2020 2:15:00 PM 4.85 40.73 0.337 7.69 3.19 11.31
12/10/2020 2:30:00 PM 4.87 40.766 0.338 7.68 3.23 11.32
12/10/2020 2:45:00 PM 4.85 40.73 0.336 7.68 3.28 11.33
12/10/2020 3:00:00 PM 4.88 40.784 0.338 7.69 3.69 11.28
12/10/2020 3:15:00 PM 4.89 40.802 0.338 7.68 3.35 11.29
12/10/2020 3:30:00 PM 4.94 40.892 0.339 7.68 3.5 11.25
12/10/2020 3:45:00 PM 4.93 40.874 0.339 7.68 3.38 11.27
12/10/2020 4:00:00 PM 4.93 40.874 0.338 7.68 3.41 11.24
12/10/2020 4:15:00 PM 4.95 40.91 0.341 7.68 3.29 11.16
12/10/2020 4:30:00 PM 4.88 40.784 0.338 7.68 3.36 11.22
12/10/2020 4:45:00 PM 4.87 40.766 0.338 7.67 3.33 11.17
12/10/2020 5:00:00 PM 4.87 40.766 0.338 7.67 3.35 11.12
12/10/2020 5:15:00 PM 4.87 40.766 0.339 7.67 3.37 11.14
12/10/2020 5:30:00 PM 4.87 40.766 0.339 7.68 3.45 11.12
12/10/2020 5:45:00 PM 4.87 40.766 0.338 7.67 3.52 11.1
12/10/2020 6:00:00 PM 4.88 40.784 0.339 7.66 3.47 11.05
12/10/2020 6:15:00 PM 4.86 40.748 0.338 7.67 3.63 11.05
12/10/2020 6:30:00 PM 4.84 40.712 0.337 7.67 3.63 11.07
12/10/2020 6:45:00 PM 4.83 40.694 0.336 7.67 3.67 11.07
12/10/2020 7:00:00 PM 4.88 40.784 0.339 7.67 3.76 10.96
12/10/2020 7:15:00 PM 4.82 40.676 0.336 7.66 3.6 10.99
12/10/2020 7:30:00 PM 4.81 40.658 0.336 7.67 3.58 10.95
12/10/2020 7:45:00 PM 4.83 40.694 0.338 7.66 3.76 10.86
12/10/2020 8:00:00 PM 4.79 40.622 0.337 7.66 3.69 10.88
12/10/2020 8:15:00 PM 4.78 40.604 0.336 7.66 3.67 10.81
12/10/2020 8:30:00 PM 4.73 40.514 0.336 7.65 3.88 10.76
12/10/2020 8:45:00 PM 4.69 40.442 0.335 7.65 4.03 10.8
12/10/2020 9:00:00 PM 4.69 40.442 0.335 7.65 3.95 10.73
12/10/2020 9:15:00 PM 4.66 40.388 0.336 7.64 3.78 10.7
12/10/2020 9:30:00 PM 4.62 40.316 0.335 7.65 4.01 10.71
12/10/2020 9:45:00 PM 4.62 40.316 0.336 7.63 4 10.6
12/10/2020 10:00:00 PM 4.58 40.244 0.336 7.64 3.81 10.6
12/10/2020 10:15:00 PM 4.54 40.172 0.336 7.64 3.94 10.65
12/10/2020 10:30:00 PM 4.53 40.154 0.337 7.64 3.75 10.58
12/10/2020 10:45:00 PM 4.51 40.118 0.336 7.63 3.72 10.55
12/10/2020 11:00:00 PM 4.46 40.028 0.337 7.64 3.84 10.56
12/10/2020 11:15:00 PM 4.45 40.01 0.336 7.62 3.71 10.49
12/10/2020 11:30:00 PM 4.41 39.938 0.338 7.63 3.8 10.51
12/10/2020 11:45:00 PM 4.36 39.848 0.336 7.63 3.87 10.48
12/11/2020 12:00:00 AM 4.35 39.83 0.339 7.62 3.62 10.44
12/11/2020 12:15:00 AM 4.28 39.704 0.335 7.62 3.77 10.46
12/11/2020 12:30:00 AM 4.24 39.632 0.336 7.62 3.8 10.48
12/11/2020 12:45:00 AM 4.19 39.542 0.333 7.62 3.96 10.47
12/11/2020 1:00:00 AM 4.19 39.542 0.338 7.61 4.18 10.45
12/11/2020 1:15:00 AM 4.13 39.434 0.337 7.62 4.04 10.47
12/11/2020 1:30:00 AM 4.1 39.38 0.336 7.61 3.95 10.45
12/11/2020 1:45:00 AM 4.01 39.218 0.333 7.61 3.97 10.49
12/11/2020 2:00:00 AM 3.98 39.164 0.335 7.61 3.98 10.47
12/11/2020 2:15:00 AM 3.91 39.038 0.332 7.61 3.97 10.5
12/11/2020 2:30:00 AM 3.84 38.912 0.33 7.61 3.89 10.55
12/11/2020 2:45:00 AM 3.79 38.822 0.331 7.61 5.75 10.55
12/11/2020 3:00:00 AM 3.75 38.75 0.332 7.61 4.57 10.6
12/11/2020 3:15:00 AM 3.67 38.606 0.328 7.6 3.77 10.63
12/11/2020 3:30:00 AM 3.66 38.588 0.33 7.61 5.78 10.6
12/11/2020 3:45:00 AM 3.63 38.534 0.331 7.61 3.69 10.61
12/11/2020 4:00:00 AM 3.57 38.426 0.329 7.61 3.81 10.64
12/11/2020 4:15:00 AM 3.48 38.264 0.327 7.61 3.81 10.68
12/11/2020 4:30:00 AM 3.45 38.21 0.328 7.6 3.94 10.69
12/11/2020 4:45:00 AM 3.43 38.174 0.328 7.61 3.7 10.69
12/11/2020 5:00:00 AM 3.42 38.156 0.329 7.61 3.87 10.66
12/11/2020 5:15:00 AM 3.39 38.102 0.327 7.62 3.94 10.7
12/11/2020 5:30:00 AM 3.37 38.066 0.329 7.61 4.36 10.69
12/11/2020 5:45:00 AM 3.3 37.94 0.326 7.6 3.73 10.72
12/11/2020 6:00:00 AM 3.3 37.94 0.328 7.61 3.68 10.72
12/11/2020 6:15:00 AM 3.23 37.814 0.325 7.61 3.57 10.75
12/11/2020 6:30:00 AM 3.19 37.742 0.325 7.6 3.74 10.8
12/11/2020 6:45:00 AM 3.19 37.742 0.324 7.61 5.55 10.78
12/11/2020 7:00:00 AM 3.15 37.67 0.324 7.61 3.39 10.82
12/11/2020 7:15:00 AM 3.14 37.652 0.324 7.61 3.71 10.79
12/11/2020 7:30:00 AM 3.1 37.58 0.322 7.61 3.41 10.86
12/11/2020 7:45:00 AM 3.08 37.544 0.324 7.62 3.26 10.86
12/11/2020 8:00:00 AM 3.05 37.49 0.323 7.6 3.22 10.93
12/11/2020 8:15:00 AM 3.08 37.544 0.322 7.62 3.13 10.97
12/11/2020 8:30:00 AM 3.08 37.544 0.322 7.63 3.22 11.06
12/11/2020 8:45:00 AM 3.12 37.616 0.322 7.63 3.19 11.08
12/11/2020 9:00:00 AM 3.15 37.67 0.321 7.63 3.12 11.12
12/11/2020 9:15:00 AM 3.18 37.724 0.322 7.64 3.05 11.16
12/11/2020 9:30:00 AM 3.2 37.76 0.321 7.64 4.08 11.19
12/11/2020 9:45:00 AM 3.25 37.85 0.322 7.64 2.99 11.22
12/11/2020 10:00:00 AM 3.29 37.922 0.322 7.64 3.02 11.24
12/11/2020 10:15:00 AM 3.36 38.048 0.322 7.65 3 11.25
12/11/2020 10:30:00 AM 3.38 38.084 0.32 7.64 2.96 11.3
12/11/2020 10:45:00 AM 3.39 38.102 0.32 7.65 2.99 11.32
12/11/2020 11:00:00 AM 3.48 38.264 0.321 7.65 3.08 11.34
12/11/2020 11:15:00 AM 3.54 38.372 0.32 7.66 3.09 11.38
12/11/2020 11:30:00 AM 3.59 38.462 0.319 7.67 3.18 11.47
12/11/2020 11:45:00 AM 3.58 38.444 0.315 7.67 3.42 11.57
12/11/2020 12:00:00 PM 3.53 38.354 0.312 7.66 3.83 11.72
12/11/2020 12:15:00 PM 3.53 38.354 0.308 7.68 3.68 11.8
12/11/2020 12:30:00 PM 3.65 38.57 0.311 7.68 5.35 11.78
12/11/2020 12:45:00 PM 3.74 38.732 0.315 7.68 3.46 11.79
12/11/2020 1:00:00 PM 3.8 38.84 0.317 7.69 3.34 11.73
12/11/2020 1:15:00 PM 3.91 39.038 0.316 7.69 4.99 11.75
12/11/2020 1:30:00 PM 4.01 39.218 0.317 7.7 3.07 11.74
12/11/2020 1:45:00 PM 4.08 39.344 0.317 7.7 3.1 11.84
12/11/2020 2:00:00 PM 4.18 39.524 0.317 7.7 3.29 11.79
12/11/2020 2:15:00 PM 4.24 39.632 0.319 7.69 3.3 11.76
12/11/2020 2:30:00 PM 4.25 39.65 0.316 7.7 3.29 11.78
12/11/2020 2:45:00 PM 4.31 39.758 0.317 7.69 3.34 11.79
12/11/2020 3:00:00 PM 4.38 39.884 0.317 7.7 3.37 11.76
12/11/2020 3:15:00 PM 4.43 39.974 0.317 7.7 3.54 11.78
12/11/2020 3:30:00 PM 4.5 40.1 0.317 7.69 3.66 11.76
12/11/2020 3:45:00 PM 4.53 40.154 0.317 7.7 3.62 11.71
12/11/2020 4:00:00 PM 4.58 40.244 0.316 7.7 3.8 11.7
12/11/2020 4:15:00 PM 4.59 40.262 0.316 7.68 3.73 11.63
12/11/2020 4:30:00 PM 4.61 40.298 0.317 7.69 3.8 11.6
12/11/2020 4:45:00 PM 4.65 40.37 0.318 7.68 3.62 11.54
12/11/2020 5:00:00 PM 4.68 40.424 0.316 7.68 3.88 11.49
12/11/2020 5:15:00 PM 4.71 40.478 0.315 7.67 3.82 11.39
12/11/2020 5:30:00 PM 4.72 40.496 0.315 7.68 3.77 11.46
12/11/2020 5:45:00 PM 4.72 40.496 0.315 7.68 3.88 11.44
12/11/2020 6:00:00 PM 4.78 40.604 0.318 7.67 4.06 11.33
12/11/2020 6:15:00 PM 4.75 40.55 0.315 7.68 4.39 11.37
12/11/2020 6:30:00 PM 4.76 40.568 0.315 7.67 4.79 11.3
12/11/2020 6:45:00 PM 4.76 40.568 0.315 7.67 3.93 11.28
12/11/2020 7:00:00 PM 4.77 40.586 0.316 7.67 4.05 11.21
12/11/2020 7:15:00 PM 4.78 40.604 0.315 7.66 5.6 11.16
12/11/2020 7:30:00 PM 4.79 40.622 0.315 7.66 4.05 11.11
12/11/2020 7:45:00 PM 4.82 40.676 0.316 7.65 4.04 11.02
12/11/2020 8:00:00 PM 4.87 40.766 0.319 7.65 4.38 10.92
12/11/2020 8:15:00 PM 4.84 40.712 0.316 7.65 4.81 10.93
12/11/2020 8:30:00 PM 4.86 40.748 0.318 7.63 4.59 10.83
12/11/2020 8:45:00 PM 4.86 40.748 0.317 7.64 7.38 10.79
12/11/2020 9:00:00 PM 4.86 40.748 0.318 7.63 4.5 10.75
12/11/2020 9:15:00 PM 4.84 40.712 0.316 7.63 4.16 10.74
12/11/2020 9:30:00 PM 4.84 40.712 0.317 7.63 4.01 10.72
12/11/2020 9:45:00 PM 4.85 40.73 0.318 7.63 4.2 10.68
12/11/2020 10:00:00 PM 4.83 40.694 0.318 7.63 3.97 10.67
12/11/2020 10:15:00 PM 4.83 40.694 0.318 7.62 3.94 10.6
12/11/2020 10:30:00 PM 4.79 40.622 0.316 7.61 3.81 10.62
12/11/2020 10:45:00 PM 4.8 40.64 0.318 7.62 3.71 10.57
12/11/2020 11:00:00 PM 4.76 40.568 0.319 7.61 3.72 10.55
12/11/2020 11:15:00 PM 4.73 40.514 0.317 7.61 3.84 10.55
12/11/2020 11:30:00 PM 4.75 40.55 0.321 7.61 3.97 10.5
12/11/2020 11:45:00 PM 4.71 40.478 0.318 7.6 3.92 10.5
12/12/2020 12:00:00 AM 4.67 40.406 0.318 7.61 3.86 10.52
12/12/2020 12:15:00 AM 4.65 40.37 0.319 7.6 4.09 10.51
12/12/2020 12:30:00 AM 4.62 40.316 0.317 7.59 4.01 10.47
12/12/2020 12:45:00 AM 4.59 40.262 0.317 7.6 3.93 10.47
12/12/2020 1:00:00 AM 4.55 40.19 0.317 7.6 3.8 10.46
12/12/2020 1:15:00 AM 4.5 40.1 0.317 7.59 3.63 10.47
12/12/2020 1:30:00 AM 4.47 40.046 0.318 7.59 3.7 10.49
12/12/2020 1:45:00 AM 4.46 40.028 0.32 7.59 3.77 10.45
12/12/2020 2:00:00 AM 4.38 39.884 0.318 7.59 4.04 10.49
12/12/2020 2:15:00 AM 4.35 39.83 0.318 7.59 3.53 10.49
12/12/2020 2:30:00 AM 4.32 39.776 0.319 7.59 3.64 10.5
12/12/2020 2:45:00 AM 4.27 39.686 0.32 7.59 3.8 10.51
12/12/2020 3:00:00 AM 4.22 39.596 0.316 7.59 3.64 10.52
12/12/2020 3:15:00 AM 4.16 39.488 0.316 7.59 3.59 10.53
12/12/2020 3:30:00 AM 4.13 39.434 0.316 7.58 3.5 10.48
12/12/2020 3:45:00 AM 4.1 39.38 0.317 7.59 3.61 10.55
12/12/2020 4:00:00 AM 4.06 39.308 0.317 7.57 3.68 10.55
12/12/2020 4:15:00 AM 4.06 39.308 0.317 7.58 3.48 10.55
12/12/2020 4:30:00 AM 4.05 39.29 0.316 7.59 3.47 10.53
12/12/2020 4:45:00 AM 4 39.2 0.316 7.58 3.34 10.56
12/12/2020 5:00:00 AM 3.99 39.182 0.317 7.58 3.38 10.56
12/12/2020 5:15:00 AM 3.96 39.128 0.316 7.58 5.2 10.59
12/12/2020 5:30:00 AM 3.97 39.146 0.315 7.58 3.42 10.55
12/12/2020 5:45:00 AM 3.93 39.074 0.316 7.59 3.73 10.61
12/12/2020 6:00:00 AM 3.94 39.092 0.315 7.58 3.46 10.55
12/12/2020 6:15:00 AM 3.92 39.056 0.315 7.58 3.38 10.57
12/12/2020 6:30:00 AM 3.88 38.984 0.312 7.58 5.44 10.64
12/12/2020 6:45:00 AM 3.87 38.966 0.313 7.58 3.14 10.6
12/12/2020 7:00:00 AM 3.92 39.056 0.314 7.58 5.07 10.55
12/12/2020 7:15:00 AM 3.88 38.984 0.314 7.59 3.16 10.61
12/12/2020 7:30:00 AM 3.87 38.966 0.312 7.57 3.35 10.57
12/12/2020 7:45:00 AM 3.88 38.984 0.312 7.59 4.89 10.63
12/12/2020 8:00:00 AM 3.87 38.966 0.311 7.59 4.79 10.66
12/12/2020 8:15:00 AM 3.9 39.02 0.312 7.59 4.74 10.66
12/12/2020 8:30:00 AM 3.91 39.038 0.311 7.59 2.9 10.67
12/12/2020 8:45:00 AM 3.93 39.074 0.313 7.59 2.74 10.69
12/12/2020 9:00:00 AM 3.93 39.074 0.31 7.6 2.82 10.71
12/12/2020 9:15:00 AM 3.95 39.11 0.311 7.6 2.59 10.78
12/12/2020 9:30:00 AM 3.99 39.182 0.311 7.61 2.64 10.82
12/12/2020 9:45:00 AM 4 39.2 0.31 7.6 2.66 10.88
12/12/2020 10:00:00 AM 4.03 39.254 0.31 7.61 2.59 10.9
12/12/2020 10:15:00 AM 4.01 39.218 0.308 7.61 2.63 10.93
12/12/2020 10:30:00 AM 4.07 39.326 0.311 7.6 2.83 10.89
12/12/2020 10:45:00 AM 4.09 39.362 0.312 7.62 2.72 10.95
12/12/2020 11:00:00 AM 4.11 39.398 0.307 7.62 2.77 10.95
12/12/2020 11:15:00 AM 4.12 39.416 0.307 7.63 2.75 11.1
12/12/2020 11:30:00 AM 4.2 39.56 0.307 7.63 2.81 11.08
12/12/2020 11:45:00 AM 4.29 39.722 0.31 7.64 2.95 11.08
12/12/2020 12:00:00 PM 4.31 39.758 0.306 7.64 2.97 11.17
12/12/2020 12:15:00 PM 4.38 39.884 0.307 7.64 3.09 11.16
12/12/2020 12:30:00 PM 4.38 39.884 0.306 7.64 3.17 11.2
12/12/2020 12:45:00 PM 4.39 39.902 0.305 7.64 3.31 11.2
12/12/2020 1:00:00 PM 4.39 39.902 0.304 7.65 3.12 11.38
12/12/2020 1:15:00 PM 4.46 40.028 0.306 7.66 2.94 11.32
12/12/2020 1:30:00 PM 4.46 40.028 0.304 7.65 2.99 11.43
12/12/2020 1:45:00 PM 4.56 40.208 0.306 7.67 2.88 11.4
12/12/2020 2:00:00 PM 4.65 40.37 0.306 7.67 2.78 11.41
12/12/2020 2:15:00 PM 4.72 40.496 0.305 7.66 2.88 11.45
12/12/2020 2:30:00 PM 4.78 40.604 0.304 7.68 2.9 11.49
12/12/2020 2:45:00 PM 4.83 40.694 0.305 7.68 2.82 11.51
12/12/2020 3:00:00 PM 4.91 40.838 0.307 7.68 2.9 11.4
12/12/2020 3:15:00 PM 4.88 40.784 0.304 7.68 3.3 11.5
12/12/2020 3:30:00 PM 4.91 40.838 0.304 7.68 2.94 11.42
12/12/2020 3:45:00 PM 4.95 40.91 0.305 7.68 3.05 11.39
12/12/2020 4:00:00 PM 4.99 40.982 0.306 7.67 3.28 11.4
12/12/2020 4:15:00 PM 5.02 41.036 0.303 7.68 3.12 11.41
12/12/2020 4:30:00 PM 5.05 41.09 0.303 7.68 3.02 11.34
12/12/2020 4:45:00 PM 5.13 41.234 0.306 7.67 3 11.23
12/12/2020 5:00:00 PM 5.16 41.288 0.304 7.66 3.27 11.2
12/12/2020 5:15:00 PM 5.24 41.432 0.309 7.65 3.14 11.12
12/12/2020 5:30:00 PM 5.25 41.45 0.303 7.66 2.98 11.11
12/12/2020 5:45:00 PM 5.27 41.486 0.303 7.67 3.16 11.14
12/12/2020 6:00:00 PM 5.3 41.54 0.302 7.66 3.16 11.16
12/12/2020 6:15:00 PM 5.33 41.594 0.301 7.67 3.1 11.13
12/12/2020 6:30:00 PM 5.38 41.684 0.304 7.65 3.27 11.09
12/12/2020 6:45:00 PM 5.46 41.828 0.306 7.65 3.07 10.98
12/12/2020 7:00:00 PM 5.46 41.828 0.304 7.65 3.07 11
12/12/2020 7:15:00 PM 5.46 41.828 0.303 7.65 3.44 10.97
12/12/2020 7:30:00 PM 5.51 41.918 0.304 7.64 3.27 10.74
12/12/2020 7:45:00 PM 5.54 41.972 0.305 7.63 3.09 10.78
12/12/2020 8:00:00 PM 5.52 41.936 0.303 7.64 3.42 10.84
12/12/2020 8:15:00 PM 5.53 41.954 0.301 7.64 3.32 10.79
12/12/2020 8:30:00 PM 5.57 42.026 0.301 7.63 3.43 10.68
12/12/2020 8:45:00 PM 5.59 42.062 0.3 7.63 3.36 10.6
12/12/2020 9:00:00 PM 5.64 42.152 0.303 7.63 3.59 10.53
12/12/2020 9:15:00 PM 5.64 42.152 0.301 7.62 3.29 10.59
12/12/2020 9:30:00 PM 5.65 42.17 0.301 7.63 3.35 10.52
12/12/2020 9:45:00 PM 5.68 42.224 0.304 7.62 3.35 10.49
12/12/2020 10:00:00 PM 5.7 42.26 0.303 7.61 3.33 10.49
12/12/2020 10:15:00 PM 5.7 42.26 0.301 7.61 3.4 10.45
12/12/2020 10:30:00 PM 5.69 42.242 0.301 7.61 3.29 10.4
12/12/2020 10:45:00 PM 5.71 42.278 0.304 7.61 3.13 10.39
12/12/2020 11:00:00 PM 5.68 42.224 0.301 7.61 3.25 10.38
12/12/2020 11:15:00 PM 5.68 42.224 0.302 7.61 3.17 10.33
12/12/2020 11:30:00 PM 5.68 42.224 0.305 7.6 3.19 10.27
12/12/2020 11:45:00 PM 5.65 42.17 0.3 7.6 3.35 10.28
12/13/2020 12:00:00 AM 5.66 42.188 0.303 7.59 3.22 10.2
12/13/2020 12:15:00 AM 5.66 42.188 0.302 7.6 3.25 10.24
12/13/2020 12:30:00 AM 5.59 42.062 0.3 7.59 3.28 10.31
12/13/2020 12:45:00 AM 5.6 42.08 0.301 7.59 3.25 10.25
12/13/2020 1:00:00 AM 5.58 42.044 0.3 7.59 3.28 10.17
12/13/2020 1:15:00 AM 5.56 42.008 0.301 7.58 3.39 10.17
12/13/2020 1:30:00 AM 5.52 41.936 0.299 7.59 3.33 10.24
12/13/2020 1:45:00 AM 5.53 41.954 0.301 7.59 3.25 10.2
12/13/2020 2:00:00 AM 5.54 41.972 0.301 7.59 3.21 10.17
12/13/2020 2:15:00 AM 5.56 42.008 0.302 7.59 3.28 10.17
12/13/2020 2:30:00 AM 5.58 42.044 0.302 7.58 3.33 10.14
12/13/2020 2:45:00 AM 5.56 42.008 0.299 7.59 3.49 10.18
12/13/2020 3:00:00 AM 5.55 41.99 0.299 7.58 3.52 10.17
12/13/2020 3:15:00 AM 5.54 41.972 0.299 7.58 3.72 10.15
12/13/2020 3:30:00 AM 5.51 41.918 0.297 7.58 3.37 10.16
12/13/2020 3:45:00 AM 5.52 41.936 0.297 7.57 3.36 10.14
12/13/2020 4:00:00 AM 5.49 41.882 0.296 7.58 3.41 10.13
12/13/2020 4:15:00 AM 5.49 41.882 0.297 7.57 3.2 10.13
12/13/2020 4:30:00 AM 5.46 41.828 0.296 7.58 3.42 10.15
12/13/2020 4:45:00 AM 5.43 41.774 0.295 7.58 3.55 10.18
12/13/2020 5:00:00 AM 5.45 41.81 0.295 7.57 3.41 10.17
12/13/2020 5:15:00 AM 5.45 41.81 0.296 7.58 5.07 10.18
12/13/2020 5:30:00 AM 5.47 41.846 0.294 7.57 3.37 10.13
12/13/2020 5:45:00 AM 5.48 41.864 0.294 7.58 3.38 10.16
12/13/2020 6:00:00 AM 5.5 41.9 0.293 7.58 3.67 10.12
12/13/2020 6:15:00 AM 5.5 41.9 0.296 7.57 3.63 10.16
12/13/2020 6:30:00 AM 5.48 41.864 0.293 7.58 3.4 10.18
12/13/2020 6:45:00 AM 5.46 41.828 0.294 7.57 3.46 10.12
12/13/2020 7:00:00 AM 5.45 41.81 0.293 7.57 4.33 10.11
12/13/2020 7:15:00 AM 5.44 41.792 0.292 7.57 5.23 10.17
12/13/2020 7:30:00 AM 5.44 41.792 0.289 7.58 3.7 10.16
12/13/2020 7:45:00 AM 5.45 41.81 0.293 7.57 3.56 10.18
12/13/2020 8:00:00 AM 5.45 41.81 0.29 7.57 3.68 10.17
12/13/2020 8:15:00 AM 5.45 41.81 0.291 7.58 3.54 10.24
12/13/2020 8:30:00 AM 5.48 41.864 0.292 7.58 3.57 10.19
12/13/2020 8:45:00 AM 5.46 41.828 0.288 7.58 3.4 10.26
12/13/2020 9:00:00 AM 5.49 41.882 0.289 7.58 3.22 10.29
12/13/2020 9:15:00 AM 5.49 41.882 0.288 7.59 3.19 10.38
12/13/2020 9:30:00 AM 5.5 41.9 0.288 7.6 3.16 10.49
12/13/2020 9:45:00 AM 5.52 41.936 0.285 7.6 2.98 10.46
12/13/2020 10:00:00 AM 5.54 41.972 0.288 7.6 2.97 10.48
12/13/2020 10:15:00 AM 5.58 42.044 0.289 7.61 3.06 10.49
12/13/2020 10:30:00 AM 5.58 42.044 0.285 7.62 3.12 10.64
12/13/2020 10:45:00 AM 5.6 42.08 0.285 7.6 3.04 10.56
12/13/2020 11:00:00 AM 5.63 42.134 0.286 7.61 3.05 10.59
12/13/2020 11:15:00 AM 5.63 42.134 0.284 7.62 2.82 10.72
12/13/2020 11:30:00 AM 5.68 42.224 0.285 7.62 3.05 10.71
12/13/2020 11:45:00 AM 5.7 42.26 0.285 7.62 3.44 10.69
12/13/2020 12:00:00 PM 5.72 42.296 0.284 7.63 2.98 10.71
12/13/2020 12:15:00 PM 5.75 42.35 0.285 7.63 2.91 10.75
12/13/2020 12:30:00 PM 5.76 42.368 0.283 7.64 2.9 10.9
12/13/2020 12:45:00 PM 5.77 42.386 0.283 7.63 3.21 10.94
12/13/2020 1:00:00 PM 5.77 42.386 0.283 7.65 2.86 10.95
12/13/2020 1:15:00 PM 5.78 42.404 0.283 7.65 2.9 11
12/13/2020 1:30:00 PM 5.82 42.476 0.285 7.66 2.92 11.05
12/13/2020 1:45:00 PM 5.83 42.494 0.283 7.66 2.77 11.03
12/13/2020 2:00:00 PM 5.82 42.476 0.282 7.66 2.66 11.11
12/13/2020 2:15:00 PM 5.84 42.512 0.281 7.66 2.82 11.11
12/13/2020 2:30:00 PM 5.91 42.638 0.29 7.67 2.75 11.11
12/13/2020 2:45:00 PM 5.91 42.638 0.284 7.67 2.61 11.15
12/13/2020 3:00:00 PM 5.89 42.602 0.283 7.68 2.7 11.24
12/13/2020 3:15:00 PM 5.89 42.602 0.282 7.68 2.65 11.25
12/13/2020 3:30:00 PM 5.92 42.656 0.285 7.68 2.75 11.2
12/13/2020 3:45:00 PM 5.92 42.656 0.283 7.66 2.76 11.14
12/13/2020 4:00:00 PM 5.94 42.692 0.284 7.67 2.61 11.19
12/13/2020 4:15:00 PM 5.93 42.674 0.282 7.68 2.72 11.18
12/13/2020 4:30:00 PM 5.92 42.656 0.281 7.68 2.73 11.15
12/13/2020 4:45:00 PM 5.91 42.638 0.282 7.67 2.94 11.14
12/13/2020 5:00:00 PM 5.92 42.656 0.283 7.66 2.64 11.04
12/13/2020 5:15:00 PM 5.92 42.656 0.283 7.66 2.86 11.04
12/13/2020 5:30:00 PM 5.93 42.674 0.283 7.65 2.66 10.97
12/13/2020 5:45:00 PM 5.92 42.656 0.283 7.66 3.03 10.99
12/13/2020 6:00:00 PM 5.91 42.638 0.283 7.66 2.84 10.99
12/13/2020 6:15:00 PM 5.92 42.656 0.283 7.66 2.86 10.95
12/13/2020 6:30:00 PM 5.92 42.656 0.283 7.65 2.83 10.9
12/13/2020 6:45:00 PM 5.91 42.638 0.284 7.65 2.85 10.86
12/13/2020 7:00:00 PM 5.87 42.566 0.282 7.65 2.91 10.89
12/13/2020 7:15:00 PM 5.87 42.566 0.284 7.64 3.16 10.79
12/13/2020 7:30:00 PM 5.85 42.53 0.283 7.65 3.1 10.81
12/13/2020 7:45:00 PM 5.84 42.512 0.284 7.64 3.19 10.78
12/13/2020 8:00:00 PM 5.82 42.476 0.286 7.64 3.58 10.76
12/13/2020 8:15:00 PM 5.84 42.512 0.287 7.64 3.56 10.64
12/13/2020 8:30:00 PM 5.83 42.494 0.288 7.62 3.56 10.62
12/13/2020 8:45:00 PM 5.83 42.494 0.287 7.63 3.74 10.56
12/13/2020 9:00:00 PM 5.77 42.386 0.285 7.62 3.75 10.6
12/13/2020 9:15:00 PM 5.76 42.368 0.285 7.61 4.74 10.55
12/13/2020 9:30:00 PM 5.76 42.368 0.288 7.62 4.19 10.47
12/13/2020 9:45:00 PM 5.75 42.35 0.291 7.62 3.89 10.49
12/13/2020 10:00:00 PM 5.7 42.26 0.287 7.61 3.43 10.48
12/13/2020 10:15:00 PM 5.69 42.242 0.288 7.61 3.47 10.46
12/13/2020 10:30:00 PM 5.65 42.17 0.288 7.61 3.36 10.47
12/13/2020 10:45:00 PM 5.65 42.17 0.288 7.61 3.53 10.41
12/13/2020 11:00:00 PM 5.6 42.08 0.288 7.61 4.21 10.43
12/13/2020 11:15:00 PM 5.59 42.062 0.288 7.6 3.52 10.39
12/13/2020 11:30:00 PM 5.57 42.026 0.289 7.6 3.63 10.37
12/13/2020 11:45:00 PM 5.53 41.954 0.29 7.6 3.57 10.37
12/14/2020 12:00:00 AM 5.49 41.882 0.289 7.6 3.34 10.39
12/14/2020 12:15:00 AM 5.5 41.9 0.291 7.59 3.27 10.3
12/14/2020 12:30:00 AM 5.48 41.864 0.293 7.59 3.39 10.24
12/14/2020 12:45:00 AM 5.45 41.81 0.292 7.6 3.18 10.26
12/14/2020 1:00:00 AM 5.46 41.828 0.295 7.6 3.45 10.28
12/14/2020 1:15:00 AM 5.41 41.738 0.293 7.59 3.31 10.29
12/14/2020 1:30:00 AM 5.39 41.702 0.293 7.58 3.34 10.14
12/14/2020 1:45:00 AM 5.35 41.63 0.293 7.59 3.68 10.31
12/14/2020 2:00:00 AM 5.35 41.63 0.293 7.58 3.64 10.27
12/14/2020 2:15:00 AM 5.31 41.558 0.292 7.59 3.63 10.28
12/14/2020 2:30:00 AM 5.3 41.54 0.293 7.58 3.78 10.25
12/14/2020 2:45:00 AM 5.28 41.504 0.293 7.59 3.98 10.26
12/14/2020 3:00:00 AM 5.26 41.468 0.292 7.58 3.58 10.25
12/14/2020 3:15:00 AM 5.27 41.486 0.294 7.58 3.29 10.23
12/14/2020 3:30:00 AM 5.26 41.468 0.295 7.58 3.72 10.21
12/14/2020 3:45:00 AM 5.23 41.414 0.296 7.57 3.58 10.25
12/14/2020 4:00:00 AM 5.21 41.378 0.293 7.58 3.45 10.24
12/14/2020 4:15:00 AM 5.18 41.324 0.291 7.58 3.33 10.28
12/14/2020 4:30:00 AM 5.18 41.324 0.291 7.58 3.3 10.26
12/14/2020 4:45:00 AM 5.2 41.36 0.293 7.57 3.34 10.2
12/14/2020 5:00:00 AM 5.19 41.342 0.295 7.58 4.02 10.18
12/14/2020 5:15:00 AM 5.16 41.288 0.294 7.58 3.36 10.22
12/14/2020 5:30:00 AM 5.17 41.306 0.295 7.58 3.81 10.18
12/14/2020 5:45:00 AM 5.17 41.306 0.295 7.56 3.52 10.15
12/14/2020 6:00:00 AM 5.15 41.27 0.296 7.58 3.46 10.18
12/14/2020 6:15:00 AM 5.13 41.234 0.295 7.57 3.32 10.21
12/14/2020 6:30:00 AM 5.13 41.234 0.298 7.58 3.27 10.15
12/14/2020 6:45:00 AM 5.09 41.162 0.293 7.56 5.31 10.15
12/14/2020 7:00:00 AM 5.06 41.108 0.293 7.57 3.81 10.18
12/14/2020 7:15:00 AM 5.04 41.072 0.296 7.57 4.05 10.11
12/14/2020 7:30:00 AM 5.01 41.018 0.295 7.58 4.12 10.18
12/14/2020 7:45:00 AM 5.01 41.018 0.295 7.57 4.12 10.18
12/14/2020 8:00:00 AM 5.01 41.018 0.295 7.57 3.85 10.13
12/14/2020 8:15:00 AM 4.99 40.982 0.296 7.58 3.97 10.19
12/14/2020 8:30:00 AM 4.99 40.982 0.298 7.58 3.88 10.24
12/14/2020 8:45:00 AM 4.99 40.982 0.298 7.58 3.67 10.23
12/14/2020 9:00:00 AM 4.99 40.982 0.298 7.59 3.66 10.31
12/14/2020 9:15:00 AM 4.97 40.946 0.296 7.58 3.5 10.33
12/14/2020 9:30:00 AM 4.98 40.964 0.302 7.6 3.49 10.35
12/14/2020 9:45:00 AM 4.99 40.982 0.3 7.59 3.04 10.36
12/14/2020 10:00:00 AM 4.98 40.964 0.295 7.6 3.18 10.44
12/14/2020 10:15:00 AM 4.99 40.982 0.303 7.61 3.22 10.52
12/14/2020 10:30:00 AM 4.99 40.982 0.294 7.61 3.3 10.58
12/14/2020 10:45:00 AM 5.01 41.018 0.299 7.61 3.06 10.55
12/14/2020 11:00:00 AM 5.03 41.054 0.298 7.61 2.87 10.62
12/14/2020 11:15:00 AM 5.04 41.072 0.299 7.62 3.83 10.64
12/14/2020 11:30:00 AM 5.03 41.054 0.301 7.62 3.07 10.61
12/14/2020 11:45:00 AM 5.03 41.054 0.298 7.63 2.94 10.68
12/14/2020 12:00:00 PM 5.01 41.018 0.297 7.63 3.02 10.74
12/14/2020 12:15:00 PM 5 41 0.297 7.63 2.86 10.74
12/14/2020 12:30:00 PM 5.03 41.054 0.297 7.64 3.12 10.76
12/14/2020 12:45:00 PM 5.06 41.108 0.301 7.63 2.86 10.81
12/14/2020 1:00:00 PM 5.06 41.108 0.3 7.64 3.03 10.89
12/14/2020 1:15:00 PM 5.08 41.144 0.301 7.65 2.93 10.91
12/14/2020 1:30:00 PM 5.08 41.144 0.302 7.66 2.88 10.99
12/14/2020 1:45:00 PM 5.07 41.126 0.3 7.65 2.81 10.97
12/14/2020 2:00:00 PM 5.06 41.108 0.301 7.66 2.73 10.97
12/14/2020 2:15:00 PM 5.08 41.144 0.305 7.65 2.8 10.94
12/14/2020 2:30:00 PM 5.11 41.198 0.309 7.66 2.89 11.03
12/14/2020 2:45:00 PM 5.12 41.216 0.31 7.67 2.83 11.08
12/14/2020 3:00:00 PM 5.13 41.234 0.311 7.67 2.74 11.09
12/14/2020 3:15:00 PM 5.1 41.18 0.311 7.67 2.67 11.12
12/14/2020 3:30:00 PM 5.12 41.216 0.312 7.68 2.83 11.07
12/14/2020 3:45:00 PM 5.12 41.216 0.315 7.66 2.75 11.07
12/14/2020 4:00:00 PM 5.09 41.162 0.313 7.67 2.74 11.08
12/14/2020 4:15:00 PM 5.03 41.054 0.319 7.66 2.92 11
12/14/2020 4:30:00 PM 4.86 40.748 0.315 7.66 2.7 10.99
12/14/2020 4:45:00 PM 4.79 40.622 0.316 7.66 2.76 10.92
12/14/2020 5:00:00 PM 4.78 40.604 0.313 7.65 2.85 10.99
12/14/2020 5:15:00 PM 4.82 40.676 0.309 7.67 2.77 10.98
12/14/2020 5:30:00 PM 4.88 40.784 0.31 7.67 2.83 10.97
12/14/2020 5:45:00 PM 4.88 40.784 0.309 7.67 2.9 10.98
12/14/2020 6:00:00 PM 4.88 40.784 0.309 7.67 2.89 11.01
12/14/2020 6:15:00 PM 4.83 40.694 0.307 7.67 2.87 11.03
12/14/2020 6:30:00 PM 4.81 40.658 0.307 7.66 2.72 10.98
12/14/2020 6:45:00 PM 4.77 40.586 0.306 7.66 2.9 10.94
12/14/2020 7:00:00 PM 4.72 40.496 0.307 7.66 2.97 10.93
12/14/2020 7:15:00 PM 4.7 40.46 0.308 7.66 2.96 10.87
12/14/2020 7:30:00 PM 4.64 40.352 0.305 7.65 3.05 10.89
12/14/2020 7:45:00 PM 4.59 40.262 0.303 7.66 3.03 10.84
12/14/2020 8:00:00 PM 4.59 40.262 0.307 7.64 2.96 10.78
12/14/2020 8:15:00 PM 4.57 40.226 0.307 7.66 3.15 10.81
12/14/2020 8:30:00 PM 4.57 40.226 0.306 7.66 3.34 10.78
12/14/2020 8:45:00 PM 4.54 40.172 0.306 7.65 3.18 10.77
12/14/2020 9:00:00 PM 4.51 40.118 0.305 7.65 3.3 10.76
12/14/2020 9:15:00 PM 4.48 40.064 0.305 7.64 3.06 10.73
12/14/2020 9:30:00 PM 4.44 39.992 0.307 7.64 3.25 10.68
12/14/2020 9:45:00 PM 4.37 39.866 0.309 7.64 3.11 10.67
12/14/2020 10:00:00 PM 4.31 39.758 0.311 7.64 3.33 10.67
12/14/2020 10:15:00 PM 4.27 39.686 0.313 7.64 3.53 10.66
12/14/2020 10:30:00 PM 4.25 39.65 0.316 7.63 3.7 10.63
12/14/2020 10:45:00 PM 4.2 39.56 0.317 7.64 3.85 10.69
12/14/2020 11:00:00 PM 4.19 39.542 0.317 7.63 3.7 10.64
12/14/2020 11:15:00 PM 4.16 39.488 0.319 7.64 4 10.66
12/14/2020 11:30:00 PM 4.13 39.434 0.318 7.63 3.68 10.59
12/14/2020 11:45:00 PM 4.08 39.344 0.316 7.63 3.7 10.58
12/15/2020 12:00:00 AM 4.06 39.308 0.315 7.62 3.66 10.57
12/15/2020 12:15:00 AM 4.01 39.218 0.313 7.63 3.86 10.57
12/15/2020 12:30:00 AM 3.97 39.146 0.314 7.62 3.45 10.61
12/15/2020 12:45:00 AM 3.9 39.02 0.31 7.63 5.43 10.63
12/15/2020 1:00:00 AM 3.81 38.858 0.31 7.62 3.14 10.66
12/15/2020 1:15:00 AM 3.78 38.804 0.311 7.63 3.24 10.67
12/15/2020 1:30:00 AM 3.73 38.714 0.31 7.62 3.28 10.67
12/15/2020 1:45:00 AM 3.73 38.714 0.311 7.62 4.85 10.68
12/15/2020 2:00:00 AM 3.71 38.678 0.309 7.62 4.85 10.67
12/15/2020 2:15:00 AM 3.67 38.606 0.309 7.61 3.82 10.67
12/15/2020 2:30:00 AM 3.64 38.552 0.309 7.63 8.61 10.7
12/15/2020 2:45:00 AM 3.6 38.48 0.308 7.62 7.9 10.71
12/15/2020 3:00:00 AM 3.57 38.426 0.309 7.62 3.63 10.72
12/15/2020 3:15:00 AM 3.57 38.426 0.31 7.62 3.17 10.68
12/15/2020 3:30:00 AM 3.58 38.444 0.311 7.62 3.25 10.68
12/15/2020 3:45:00 AM 3.54 38.372 0.309 7.62 3.71 10.69
12/15/2020 4:00:00 AM 3.5 38.3 0.315 7.62 3.63 10.72
12/15/2020 4:15:00 AM 3.49 38.282 0.31 7.62 3.45 10.71
12/15/2020 4:30:00 AM 3.45 38.21 0.31 7.62 3.59 10.74
12/15/2020 4:45:00 AM 3.46 38.228 0.314 7.62 3.04 10.69
12/15/2020 5:00:00 AM 3.43 38.174 0.309 7.61 12.8 10.75
12/15/2020 5:15:00 AM 3.36 38.048 0.31 7.62 2.91 10.74
12/15/2020 5:30:00 AM 3.31 37.958 0.309 7.61 5.07 10.79
12/15/2020 5:45:00 AM 3.3 37.94 0.31 7.62 3.03 10.78
12/15/2020 6:00:00 AM 3.31 37.958 0.311 7.61 3.23 10.77
12/15/2020 6:15:00 AM 3.28 37.904 0.31 7.62 3.47 10.74
12/15/2020 6:30:00 AM 3.29 37.922 0.313 7.62 3.03 10.8
12/15/2020 6:45:00 AM 3.26 37.868 0.311 7.61 10.2 10.83
12/15/2020 7:00:00 AM 3.27 37.886 0.313 7.62 3.53 10.79
12/15/2020 7:15:00 AM 3.24 37.832 0.312 7.61 3.25 10.8
12/15/2020 7:30:00 AM 3.23 37.814 0.312 7.62 2.71 10.84
12/15/2020 7:45:00 AM 3.22 37.796 0.314 7.61 3.06 10.82
12/15/2020 8:00:00 AM 3.21 37.778 0.313 7.62 4.73 10.86
12/15/2020 8:15:00 AM 3.21 37.778 0.314 7.62 4.8 10.9
12/15/2020 8:30:00 AM 3.21 37.778 0.313 7.63 4.56 10.98
12/15/2020 8:45:00 AM 3.19 37.742 0.311 7.63 4.63 11.01
12/15/2020 9:00:00 AM 3.18 37.724 0.312 7.63 4.63 11.04
12/15/2020 9:15:00 AM 3.19 37.742 0.313 7.64 4.52 11.06
12/15/2020 9:30:00 AM 3.19 37.742 0.314 7.63 4.31 11.14
12/15/2020 9:45:00 AM 3.19 37.742 0.313 7.64 4.47 11.17
12/15/2020 10:00:00 AM 3.2 37.76 0.315 7.65 2.66 11.24
12/15/2020 10:15:00 AM 3.23 37.814 0.316 7.65 2.68 11.16
12/15/2020 10:30:00 AM 3.21 37.778 0.313 7.65 2.69 11.26
12/15/2020 10:45:00 AM 3.25 37.85 0.313 7.66 2.86 11.39
12/15/2020 11:00:00 AM 3.32 37.976 0.313 7.66 2.8 11.39
12/15/2020 11:15:00 AM 3.33 37.994 0.314 7.66 2.75 11.41
12/15/2020 11:30:00 AM 3.24 37.832 0.312 7.66 4.44 11.47
12/15/2020 11:45:00 AM 3.32 37.976 0.313 7.67 4.36 11.48
12/15/2020 12:00:00 PM 3.35 38.03 0.313 7.67 2.7 11.49
12/15/2020 12:15:00 PM 3.38 38.084 0.313 7.67 2.84 11.55
12/15/2020 12:30:00 PM 3.41 38.138 0.313 7.68 4.52 11.63
12/15/2020 12:45:00 PM 3.46 38.228 0.315 7.68 2.84 11.63
12/15/2020 1:00:00 PM 3.49 38.282 0.312 7.69 3.35 11.68
12/15/2020 1:15:00 PM 3.51 38.318 0.315 7.69 2.95 11.77
12/15/2020 1:30:00 PM 3.47 38.246 0.31 7.69 3.02 11.77
12/15/2020 1:45:00 PM 3.55 38.39 0.314 7.69 2.77 11.78
12/15/2020 2:00:00 PM 3.53 38.354 0.312 7.7 2.92 11.8
12/15/2020 2:15:00 PM 3.5 38.3 0.311 7.7 2.69 11.84
12/15/2020 2:30:00 PM 3.55 38.39 0.313 7.7 4.39 11.88
12/15/2020 2:45:00 PM 3.59 38.462 0.314 7.71 4.5 11.92
12/15/2020 3:00:00 PM 3.61 38.498 0.313 7.71 4.41 11.9
12/15/2020 3:15:00 PM 3.6 38.48 0.314 7.71 2.8 11.92
12/15/2020 3:30:00 PM 3.59 38.462 0.311 7.71 4.61 11.97
12/15/2020 3:45:00 PM 3.59 38.462 0.312 7.71 2.95 11.88
12/15/2020 4:00:00 PM 3.54 38.372 0.312 7.71 3.1 11.93
12/15/2020 4:15:00 PM 3.53 38.354 0.312 7.7 3.11 11.86
12/15/2020 4:30:00 PM 3.52 38.336 0.313 7.69 2.9 11.76
12/15/2020 4:45:00 PM 3.5 38.3 0.311 7.7 3.13 11.71
12/15/2020 5:00:00 PM 3.46 38.228 0.311 7.7 3.45 11.74
12/15/2020 5:15:00 PM 3.48 38.264 0.313 7.68 3.47 11.67
12/15/2020 5:30:00 PM 3.48 38.264 0.314 7.68 3.29 11.58
12/15/2020 5:45:00 PM 3.49 38.282 0.317 7.68 3.13 11.65
12/15/2020 6:00:00 PM 3.43 38.174 0.312 7.69 4.59 11.71
12/15/2020 6:15:00 PM 3.44 38.192 0.316 7.68 3.16 11.66
12/15/2020 6:30:00 PM 3.4 38.12 0.313 7.69 4.86 11.67
12/15/2020 6:45:00 PM 3.39 38.102 0.313 7.68 3.13 11.53
12/15/2020 7:00:00 PM 3.37 38.066 0.314 7.67 3.11 11.56
12/15/2020 7:15:00 PM 3.33 37.994 0.313 7.68 5.03 11.62
12/15/2020 7:30:00 PM 3.35 38.03 0.318 7.68 3.56 11.49
12/15/2020 7:45:00 PM 3.31 37.958 0.314 7.68 4.89 11.5
12/15/2020 8:00:00 PM 3.27 37.886 0.318 7.68 3.32 11.5
12/15/2020 8:15:00 PM 3.25 37.85 0.316 7.67 3.23 11.37
12/15/2020 8:30:00 PM 3.2 37.76 0.314 7.67 4.97 11.45
12/15/2020 8:45:00 PM 3.17 37.706 0.315 7.66 4.93 11.43
12/15/2020 9:00:00 PM 3.16 37.688 0.318 7.65 3.33 11.31
12/15/2020 9:15:00 PM 3.11 37.598 0.315 7.66 5.14 11.36
12/15/2020 9:30:00 PM 3.09 37.562 0.316 7.65 4.95 11.32
12/15/2020 9:45:00 PM 3.05 37.49 0.315 7.66 3.18 11.3
12/15/2020 10:00:00 PM 3 37.4 0.315 7.65 3.42 11.33
12/15/2020 10:15:00 PM 3.01 37.418 0.319 7.65 3.34 11.26
12/15/2020 10:30:00 PM 2.98 37.364 0.318 7.64 3.33 11.23
12/15/2020 10:45:00 PM 2.97 37.346 0.317 7.65 3.37 11.19
12/15/2020 11:00:00 PM 2.93 37.274 0.318 7.64 4.82 11.21
12/15/2020 11:15:00 PM 2.91 37.238 0.322 7.64 3.11 11.2
12/15/2020 11:30:00 PM 2.86 37.148 0.317 7.64 3.2 11.21
12/15/2020 11:45:00 PM 2.82 37.076 0.316 7.64 6.39 11.17
12/16/2020 12:00:00 AM 2.79 37.022 0.317 7.64 3.21 11.19
12/16/2020 12:15:00 AM 2.73 36.914 0.316 7.64 5.02 11.22
12/16/2020 12:30:00 AM 2.69 36.842 0.317 7.64 5.25 11.16
12/16/2020 12:45:00 AM 2.68 36.824 0.32 7.64 3.09 11.16
12/16/2020 1:00:00 AM 2.6 36.68 0.318 7.63 4.99 11.22
12/16/2020 1:15:00 AM 2.6 36.68 0.318 7.63 4.74 11.18
12/16/2020 1:30:00 AM 2.56 36.608 0.318 7.63 3.19 11.17
12/16/2020 1:45:00 AM 2.53 36.554 0.319 7.63 4.75 11.17
12/16/2020 2:00:00 AM 2.54 36.572 0.321 7.62 2.93 11.09
12/16/2020 2:15:00 AM 2.48 36.464 0.324 7.63 3.1 11.15
12/16/2020 2:30:00 AM 2.4 36.32 0.32 7.62 4.86 11.17
12/16/2020 2:45:00 AM 2.4 36.32 0.321 7.62 4.72 11.13
12/16/2020 3:00:00 AM 2.34 36.212 0.321 7.61 3.21 11.12
12/16/2020 3:15:00 AM 2.38 36.284 0.327 7.61 2.97 11.01
12/16/2020 3:30:00 AM 2.32 36.176 0.323 7.63 4.96 11.16
12/16/2020 3:45:00 AM 2.31 36.158 0.325 7.62 3.04 11.2
12/16/2020 4:00:00 AM 2.26 36.068 0.322 7.61 2.97 11.17
12/16/2020 4:15:00 AM 2.34 36.212 0.33 7.61 3.07 11.16
12/16/2020 4:30:00 AM 2.23 36.014 0.325 7.62 5.05 11.18
12/16/2020 4:45:00 AM 2.18 35.924 0.322 7.62 4.86 11.22
12/16/2020 5:00:00 AM 2.12 35.816 0.323 7.62 2.99 11.24
12/16/2020 5:15:00 AM 2.1 35.78 0.323 7.62 4.83 11.22
12/16/2020 5:30:00 AM 2.09 35.762 0.324 7.62 4.84 11.24
12/16/2020 5:45:00 AM 2.03 35.654 0.324 7.62 2.95 11.27
12/16/2020 6:00:00 AM 2.05 35.69 0.325 7.62 4.49 11.22
12/16/2020 6:15:00 AM 2.07 35.726 0.325 7.62 2.9 11.24
12/16/2020 6:30:00 AM 2.02 35.636 0.327 7.62 2.96 11.25
12/16/2020 6:45:00 AM 2.02 35.636 0.325 7.61 4.67 11.22
12/16/2020 7:00:00 AM 2 35.6 0.326 7.62 4.97 11.21
12/16/2020 7:15:00 AM 2.01 35.618 0.327 7.6 3.63 11.1
12/16/2020 7:30:00 AM 2.01 35.618 0.327 7.62 5.86 11.19
12/16/2020 7:45:00 AM 2.01 35.618 0.329 7.62 4.9 11.19
12/16/2020 8:00:00 AM 2.03 35.654 0.33 7.62 2.77 11.23
12/16/2020 8:15:00 AM 2.07 35.726 0.333 7.62 4.52 11.16
12/16/2020 8:30:00 AM 2.06 35.708 0.33 7.62 2.61 11.29
12/16/2020 8:45:00 AM 2.07 35.726 0.33 7.62 3.99 11.26
12/16/2020 9:00:00 AM 2.13 35.834 0.334 7.63 5.59 11.26
12/16/2020 9:15:00 AM 2.09 35.762 0.332 7.63 7.18 11.28
12/16/2020 9:30:00 AM 2.06 35.708 0.33 7.63 5.28 11.45
12/16/2020 9:45:00 AM 2.16 35.888 0.331 7.63 3.02 11.48
12/16/2020 10:00:00 AM 2.2 35.96 0.335 7.64 2.55 11.44
12/16/2020 10:15:00 AM 2.19 35.942 0.331 7.66 3.24 11.6
12/16/2020 10:30:00 AM 2.25 36.05 0.331 7.64 2.89 11.46
12/16/2020 10:45:00 AM 2.26 36.068 0.331 7.65 2.73 11.51
12/16/2020 11:00:00 AM 2.2 35.96 0.33 7.65 2.98 11.7
12/16/2020 11:15:00 AM 2.2 35.96 0.329 7.66 4.95 11.74
12/16/2020 11:30:00 AM 2.23 36.014 0.328 7.65 2.91 11.67
12/16/2020 11:45:00 AM 2.22 35.996 0.328 7.65 4.85 11.73
12/16/2020 12:00:00 PM 2.23 36.014 0.33 7.66 2.96 11.69
12/16/2020 12:15:00 PM 2.22 35.996 0.333 7.63 7.38 11.6
12/16/2020 12:30:00 PM 2.1 35.78 0.325 7.66 3.23 11.84
12/16/2020 12:45:00 PM 2.2 35.96 0.326 7.66 4.68 11.69
12/16/2020 1:00:00 PM 2.15 35.87 0.326 7.65 3.28 11.79
12/16/2020 1:15:00 PM 2.15 35.87 0.329 7.67 3.73 11.91
12/16/2020 1:30:00 PM 2.11 35.798 0.327 7.67 4.63 11.94
12/16/2020 1:45:00 PM 2.12 35.816 0.326 7.67 3.56 11.9
12/16/2020 2:00:00 PM 2.1 35.78 0.326 7.68 3.56 12
12/16/2020 2:15:00 PM 2.22 35.996 0.338 7.67 3.9 11.68
12/16/2020 2:30:00 PM 2.12 35.816 0.33 7.68 3.6 11.91
12/16/2020 2:45:00 PM 2.08 35.744 0.328 7.69 3.43 11.94
12/16/2020 3:00:00 PM 2.14 35.852 0.331 7.67 3.56 11.77
12/16/2020 3:15:00 PM 2.07 35.726 0.329 7.69 3.46 11.84
12/16/2020 3:30:00 PM 1.99 35.582 0.332 7.68 3.58 11.86
12/16/2020 3:45:00 PM 2.02 35.636 0.33 7.68 5.21 11.77
12/16/2020 4:00:00 PM 1.95 35.51 0.327 7.68 5.6 11.84
12/16/2020 4:15:00 PM 1.99 35.582 0.332 7.67 3.76 11.85
12/16/2020 4:30:00 PM 1.92 35.456 0.329 7.68 5.9 11.8
12/16/2020 4:45:00 PM 1.87 35.366 0.328 7.66 3.86 11.45
12/16/2020 5:00:00 PM 1.76 35.168 0.325 7.67 3.9 11.69
12/16/2020 5:15:00 PM 1.66 34.988 0.326 7.68 3.47 11.7
12/16/2020 5:30:00 PM 1.6 34.88 0.327 7.68 3.51 11.85
12/16/2020 5:45:00 PM 1.52 34.736 0.326 7.68 3.46 11.87
12/16/2020 6:00:00 PM 1.49 34.682 0.325 7.68 3.41 11.82
12/16/2020 6:15:00 PM 1.44 34.592 0.325 7.68 5.28 11.79
12/16/2020 6:30:00 PM 1.49 34.682 0.326 7.69 4.87 11.69
12/16/2020 6:45:00 PM 1.42 34.556 0.328 7.68 3.82 11.73
12/16/2020 7:00:00 PM 1.49 34.682 0.33 7.68 5.47 11.69
12/16/2020 7:15:00 PM 1.58 34.844 0.332 7.68 5.4 11.49
12/16/2020 7:30:00 PM 1.48 34.664 0.333 7.63 3.94 11.52
12/16/2020 7:45:00 PM 1.61 34.898 0.339 7.67 3.57 11.02
12/16/2020 8:00:00 PM 1.54 34.772 0.342 7.67 3.68 11.41
12/16/2020 8:15:00 PM 1.55 34.79 0.346 7.66 3.68 11.18
12/16/2020 8:30:00 PM 1.6 34.88 0.351 7.66 3.76 10.99
12/16/2020 8:45:00 PM 2.09 35.762 0.369 7.62 5.51 10.46
12/16/2020 9:00:00 PM 2.21 35.978 0.382 7.63 3.27 9.86
12/16/2020 9:15:00 PM 1.39 34.502 0.355 7.65 5.34 10.78
12/16/2020 9:30:00 PM 1.59 34.862 0.364 7.65 3.7 10.7
12/16/2020 9:45:00 PM 2.51 36.518 0.384 7.62 5.29 9.81
12/16/2020 10:00:00 PM 2.18 35.924 0.379 7.63 4.33 10.09
12/16/2020 10:15:00 PM 2.07 35.726 0.384 7.62 2.98 9.84
12/16/2020 10:30:00 PM 1.65 34.97 0.374 7.63 3.29 10.46
12/16/2020 10:45:00 PM 1.76 35.168 0.376 7.61 3.17 10.04
12/16/2020 11:00:00 PM 1.51 34.718 0.367 7.62 3.39 10.35
12/16/2020 11:15:00 PM 1.52 34.736 0.367 7.63 3.59 10.52
12/16/2020 11:30:00 PM 1.53 34.754 0.374 7.61 3.25 10.2
12/16/2020 11:45:00 PM 1.59 34.862 0.375 7.61 3.23 9.71
12/17/2020 12:00:00 AM 1.65 34.97 0.381 7.61 3.33 10.27
12/17/2020 12:15:00 AM 1.63 34.934 0.382 7.62 3.37 10.25
12/17/2020 12:30:00 AM 1.75 35.15 0.39 7.6 3.12 9.84
12/17/2020 12:45:00 AM 1.76 35.168 0.386 7.61 3.36 9.94
12/17/2020 1:00:00 AM 1.79 35.222 0.395 7.62 3.26 9.77
12/17/2020 1:15:00 AM 1.62 34.916 0.386 7.59 3.18 9.78
12/17/2020 1:30:00 AM 1.78 35.204 0.386 7.61 3.23 9.53
12/17/2020 1:45:00 AM 1.75 35.15 0.399 7.59 3.19 9.55
12/17/2020 2:00:00 AM 1.81 35.258 0.397 7.6 3.33 9.5
12/17/2020 2:15:00 AM 1.94 35.492 0.409 7.56 3.24 8.9
12/17/2020 2:30:00 AM 3.4 38.12 0.437 7.53 3.16 7.37
12/17/2020 2:45:00 AM 2.61 36.698 0.417 7.54 3.8 8.23
12/17/2020 3:00:00 AM 2.13 35.834 0.407 7.58 3.91 8.93
12/17/2020 3:15:00 AM 2.25 36.05 0.411 7.53 3.74 9.03
12/17/2020 3:30:00 AM 2.19 35.942 0.41 7.56 4.25 8.84
12/17/2020 3:45:00 AM 1.88 35.384 0.405 7.54 3.9 9.05
12/17/2020 4:00:00 AM 2.14 35.852 0.415 7.56 3.47 8.97
12/17/2020 4:15:00 AM 1.87 35.366 0.405 7.57 3.22 9.2
12/17/2020 4:30:00 AM 1.98 35.564 0.412 7.56 3.24 9.1
12/17/2020 4:45:00 AM 2.11 35.798 0.414 7.58 3.19 8.96
12/17/2020 5:00:00 AM 2.31 36.158 0.417 7.56 3.08 8.72
12/17/2020 5:15:00 AM 2.48 36.464 0.43 7.59 2.97 8.97
12/17/2020 5:30:00 AM 2.58 36.644 0.428 7.58 2.9 8.82
12/17/2020 5:45:00 AM 2.88 37.184 0.429 7.6 2.72 8.81
12/17/2020 6:00:00 AM 2.83 37.094 0.429 7.57 2.91 8.8
12/17/2020 6:15:00 AM 2.76 36.968 0.419 7.58 3.03 8.86
12/17/2020 6:30:00 AM 2.94 37.292 0.423 7.58 3.25 8.88
12/17/2020 6:45:00 AM 2.89 37.202 0.421 7.57 3.07 8.96
12/17/2020 7:00:00 AM 2.78 37.004 0.415 7.56 3.28 9.03
12/17/2020 7:15:00 AM 2.76 36.968 0.411 7.57 3.48 9.03
12/17/2020 7:30:00 AM 2.6 36.68 0.405 7.56 4.57 9.27
12/17/2020 7:45:00 AM 2.55 36.59 0.405 7.56 4.32 9.31
12/17/2020 8:00:00 AM 2.39 36.302 0.397 7.56 3.58 9.47
12/17/2020 8:15:00 AM 2.32 36.176 0.391 7.56 9.22 9.54
12/17/2020 8:30:00 AM 2.97 37.346 0.415 7.58 76.35 9.02
12/17/2020 8:45:00 AM 2.91 37.238 0.395 7.57 9.99 9.48
12/17/2020 9:00:00 AM 2.81 37.058 0.391 7.56 7.4 9.52
12/17/2020 9:15:00 AM 2.49 36.482 0.378 7.58 5.56 9.83
12/17/2020 9:30:00 AM 2.48 36.464 0.376 7.57 8.97 9.98
12/17/2020 9:45:00 AM 2.48 36.464 0.371 7.57 4.88 9.9
12/17/2020 10:00:00 AM 2.2 35.96 0.37 7.58 4.21 10.14
12/17/2020 10:15:00 AM 2.15 35.87 0.369 7.58 3.76 10.4
12/17/2020 10:30:00 AM 2.14 35.852 0.367 7.56 8.69 10.38
12/17/2020 10:45:00 AM 2.19 35.942 0.368 7.58 4.41 10.43
12/17/2020 11:00:00 AM 2.08 35.744 0.367 7.58 4.2 10.61
12/17/2020 11:15:00 AM 2.1 35.78 0.363 7.6 4.87 10.56
12/17/2020 11:30:00 AM 2.08 35.744 0.362 7.59 6.41 10.63
12/17/2020 11:45:00 AM 2.03 35.654 0.361 7.59 6.95 10.75
12/17/2020 12:00:00 PM 1.85 35.33 0.353 7.59 6.4 10.91
12/17/2020 12:15:00 PM 1.88 35.384 0.353 7.59 18.14 10.76
12/17/2020 12:30:00 PM 2.49 36.482 0.357 7.59 17.97 10.53
12/17/2020 12:45:00 PM 1.97 35.546 0.339 7.56 10.66 11.12
12/17/2020 1:00:00 PM 1.86 35.348 0.337 7.56 5.16 11.15
12/17/2020 1:15:00 PM 1.71 35.078 0.333 7.59 5.23 11.44
12/17/2020 1:30:00 PM 1.73 35.114 0.33 7.58 4.93 11.46
12/17/2020 1:45:00 PM 1.74 35.132 0.326 7.58 5.77 11.52
12/17/2020 2:00:00 PM 1.9 35.42 0.331 7.61 8.15 11.4
12/17/2020 2:15:00 PM 1.73 35.114 0.328 7.61 5.95 11.57
12/17/2020 2:30:00 PM 1.64 34.952 0.326 7.61 7.55 11.51
12/17/2020 2:45:00 PM 1.64 34.952 0.314 7.62 5.21 11.66
12/17/2020 3:00:00 PM 1.61 34.898 0.316 7.6 5.37 11.74
12/17/2020 3:15:00 PM 1.64 34.952 0.316 7.62 4.74 11.76
12/17/2020 3:30:00 PM 1.58 34.844 0.309 7.62 5.37 11.76
12/17/2020 3:45:00 PM 1.51 34.718 0.309 7.62 5 11.88
12/17/2020 4:00:00 PM 1.48 34.664 0.306 7.63 4.48 11.89
12/17/2020 4:15:00 PM 1.4 34.52 0.308 7.62 6.27 11.81
12/17/2020 4:30:00 PM 1.35 34.43 0.304 7.63 4.58 11.95
12/17/2020 4:45:00 PM 1.32 34.376 0.309 7.63 6.24 11.84
12/17/2020 5:00:00 PM 1.35 34.43 0.313 7.63 5.59 11.83
12/17/2020 5:15:00 PM 1.45 34.61 0.31 7.63 7.22 11.8
12/17/2020 5:30:00 PM 1.35 34.43 0.308 7.63 6.41 11.76
12/17/2020 5:45:00 PM 1.4 34.52 0.311 7.63 4.6 11.84
12/17/2020 6:00:00 PM 1.47 34.646 0.32 7.64 4.65 11.79
12/17/2020 6:15:00 PM 1.38 34.484 0.31 7.63 5.42 11.91
12/17/2020 6:30:00 PM 1.41 34.538 0.312 7.62 4.39 11.79
12/17/2020 6:45:00 PM 1.48 34.664 0.315 7.63 4.44 11.78
12/17/2020 7:00:00 PM 1.48 34.664 0.317 7.62 4.2 11.7
12/17/2020 7:15:00 PM 1.43 34.574 0.316 7.64 4.32 11.73
12/17/2020 7:30:00 PM 1.54 34.772 0.323 7.63 4.33 11.61
12/17/2020 7:45:00 PM 1.67 35.006 0.336 7.62 4.27 11.6
12/17/2020 8:00:00 PM 1.62 34.916 0.324 7.63 4.17 11.47
12/17/2020 8:15:00 PM 1.6 34.88 0.325 7.62 4.34 11.61
12/17/2020 8:30:00 PM 1.64 34.952 0.331 7.62 4.11 11.55
12/17/2020 8:45:00 PM 1.56 34.808 0.334 7.63 5.92 11.39
12/17/2020 9:00:00 PM 1.64 34.952 0.336 7.62 3.78 11.33
12/17/2020 9:15:00 PM 1.57 34.826 0.331 7.63 6.16 11.33
12/17/2020 9:30:00 PM 1.47 34.646 0.329 7.63 4.04 11.5
12/17/2020 9:45:00 PM 1.51 34.718 0.332 7.64 4.01 11.45
12/17/2020 10:00:00 PM 1.64 34.952 0.338 7.64 4.33 11.36
12/17/2020 10:15:00 PM 1.58 34.844 0.337 7.63 4.26 11.33
12/17/2020 10:30:00 PM 1.64 34.952 0.338 7.64 4.18 11.32
12/17/2020 10:45:00 PM 1.56 34.808 0.337 7.64 4.08 11.34
12/17/2020 11:00:00 PM 1.64 34.952 0.35 7.63 5.66 11.02
12/17/2020 11:15:00 PM 1.58 34.844 0.338 7.64 3.83 11.23
12/17/2020 11:30:00 PM 1.62 34.916 0.341 7.64 3.85 11.3
12/17/2020 11:45:00 PM 1.58 34.844 0.342 7.63 4.11 11.34
12/18/2020 12:00:00 AM 1.61 34.898 0.343 7.63 5.72 11.17
12/18/2020 12:15:00 AM 1.59 34.862 0.344 7.63 5.63 11.14
12/18/2020 12:30:00 AM 1.63 34.934 0.346 7.62 5.65 11.15
12/18/2020 12:45:00 AM 1.6 34.88 0.344 7.64 5.6 11.17
12/18/2020 1:00:00 AM 1.74 35.132 0.346 7.63 3.75 11.12
12/18/2020 1:15:00 AM 1.63 34.934 0.342 7.63 3.67 11.33
12/18/2020 1:30:00 AM 1.71 35.078 0.344 7.62 4 11.16
12/18/2020 1:45:00 AM 1.66 34.988 0.342 7.62 3.62 11.15
12/18/2020 2:00:00 AM 1.65 34.97 0.343 7.63 3.67 11.12
12/18/2020 2:15:00 AM 1.61 34.898 0.341 7.63 3.67 11.19
12/18/2020 2:30:00 AM 1.58 34.844 0.34 7.63 3.7 11.2
12/18/2020 2:45:00 AM 1.61 34.898 0.343 7.62 3.82 11.11
12/18/2020 3:00:00 AM 1.62 34.916 0.341 7.62 9.28 11.01
12/18/2020 3:15:00 AM 1.62 34.916 0.339 7.62 5.02 11.04
12/18/2020 3:30:00 AM 1.6 34.88 0.348 7.62 4.73 10.99
12/18/2020 3:45:00 AM 1.55 34.79 0.341 7.62 3.58 11.17
12/18/2020 4:00:00 AM 1.63 34.934 0.341 7.62 3.57 11.09
12/18/2020 4:15:00 AM 1.57 34.826 0.339 7.62 5.46 11.01
12/18/2020 4:30:00 AM 1.57 34.826 0.34 7.62 5.61 10.98
12/18/2020 4:45:00 AM 1.61 34.898 0.341 7.62 3.75 11.09
12/18/2020 5:00:00 AM 1.5 34.7 0.339 7.62 3.56 11.11
12/18/2020 5:15:00 AM 1.5 34.7 0.335 7.62 3.55 11.22
12/18/2020 5:30:00 AM 1.52 34.736 0.337 7.62 3.62 11.24
12/18/2020 5:45:00 AM 1.46 34.628 0.335 7.63 5.55 11.1
12/18/2020 6:00:00 AM 1.52 34.736 0.334 7.63 5.49 11.03
12/18/2020 6:15:00 AM 1.44 34.592 0.332 7.61 3.48 11.18
12/18/2020 6:30:00 AM 1.52 34.736 0.338 7.62 5.34 11.06
12/18/2020 6:45:00 AM 1.57 34.826 0.339 7.62 5.29 11.01
12/18/2020 7:00:00 AM 1.56 34.808 0.341 7.62 3.44 11.21
12/18/2020 7:15:00 AM 1.53 34.754 0.334 7.62 3.6 11.06
12/18/2020 7:30:00 AM 1.49 34.682 0.332 7.62 3.67 11.26
12/18/2020 7:45:00 AM 1.49 34.682 0.33 7.61 3.95 11.22
12/18/2020 8:00:00 AM 1.54 34.772 0.333 7.62 3.37 11.2
12/18/2020 8:15:00 AM 1.54 34.772 0.33 7.61 5.83 10.94
12/18/2020 8:30:00 AM 1.57 34.826 0.332 7.62 3.51 11.38
12/18/2020 8:45:00 AM 1.53 34.754 0.33 7.63 6.97 11.28
12/18/2020 9:00:00 AM 1.56 34.808 0.332 7.62 3.48 11.32
12/18/2020 9:15:00 AM 1.55 34.79 0.329 7.63 3.77 11.31
12/18/2020 9:30:00 AM 1.53 34.754 0.327 7.62 3.37 11.37
12/18/2020 9:45:00 AM 1.57 34.826 0.327 7.63 3.35 11.38
12/18/2020 10:00:00 AM 1.54 34.772 0.326 7.63 3.47 11.47
12/18/2020 10:15:00 AM 1.52 34.736 0.325 7.63 3.26 11.47
12/18/2020 10:30:00 AM 1.61 34.898 0.329 7.62 3.44 11.38
12/18/2020 10:45:00 AM 1.52 34.736 0.325 7.63 3.5 11.53
12/18/2020 11:00:00 AM 1.63 34.934 0.326 7.63 5.15 11.33
12/18/2020 11:15:00 AM 1.61 34.898 0.324 7.63 3.26 11.46
12/18/2020 11:30:00 AM 1.66 34.988 0.328 7.62 3.24 11.34
12/18/2020 11:45:00 AM 1.54 34.772 0.321 7.63 3.22 11.6
12/18/2020 12:00:00 PM 1.57 34.826 0.319 7.64 3.23 11.57
12/18/2020 12:15:00 PM 1.61 34.898 0.323 7.63 3.2 11.64
12/18/2020 12:30:00 PM 1.62 34.916 0.322 7.64 4.97 11.58
12/18/2020 12:45:00 PM 1.6 34.88 0.32 7.64 3.34 11.72
12/18/2020 1:00:00 PM 1.6 34.88 0.318 7.65 3.39 11.68
12/18/2020 1:15:00 PM 1.61 34.898 0.316 7.65 3.23 11.71
12/18/2020 1:30:00 PM 1.65 34.97 0.315 7.65 3.36 11.76
12/18/2020 1:45:00 PM 1.69 35.042 0.317 7.65 3.4 11.71
12/18/2020 2:00:00 PM 1.59 34.862 0.316 7.65 3.31 11.77
12/18/2020 2:15:00 PM 1.52 34.736 0.318 7.64 5.24 11.67
12/18/2020 2:30:00 PM 1.49 34.682 0.314 7.65 3.34 11.75
12/18/2020 2:45:00 PM 1.5 34.7 0.314 7.64 3.37 11.84
12/18/2020 3:00:00 PM 1.53 34.754 0.315 7.65 3.31 11.81
12/18/2020 3:15:00 PM 1.46 34.628 0.311 7.65 3.43 11.81
12/18/2020 3:30:00 PM 1.5 34.7 0.316 7.64 5.21 11.66
12/18/2020 3:45:00 PM 1.47 34.646 0.312 7.65 5.13 11.68
12/18/2020 4:00:00 PM 1.43 34.574 0.31 7.65 3.28 11.76
12/18/2020 4:15:00 PM 1.47 34.646 0.316 7.64 3.56 11.73
12/18/2020 4:30:00 PM 1.43 34.574 0.312 7.64 5.27 11.76
12/18/2020 4:45:00 PM 1.44 34.592 0.312 7.64 3.33 11.8
12/18/2020 5:00:00 PM 1.47 34.646 0.312 7.64 3.34 11.67
12/18/2020 5:15:00 PM 1.44 34.592 0.31 7.64 3.24 11.69
12/18/2020 5:30:00 PM 1.36 34.448 0.311 7.64 4.98 11.71
12/18/2020 5:45:00 PM 1.41 34.538 0.316 7.64 3.21 11.74
12/18/2020 6:00:00 PM 1.38 34.484 0.316 7.63 5.03 11.62
12/18/2020 6:15:00 PM 1.34 34.412 0.315 7.63 5.01 11.75
12/18/2020 6:30:00 PM 1.38 34.484 0.314 7.63 3.26 11.74
12/18/2020 6:45:00 PM 1.35 34.43 0.314 7.63 5.09 11.68
12/18/2020 7:00:00 PM 1.3 34.34 0.317 7.63 5.17 11.66
12/18/2020 7:15:00 PM 1.3 34.34 0.312 7.63 5.17 11.65
12/18/2020 7:30:00 PM 1.28 34.304 0.318 7.64 5.17 11.73
12/18/2020 7:45:00 PM 1.36 34.448 0.317 7.63 3.35 11.69
12/18/2020 8:00:00 PM 1.28 34.304 0.313 7.63 5.29 11.67
12/18/2020 8:15:00 PM 1.3 34.34 0.311 7.63 3.43 11.66
12/18/2020 8:30:00 PM 1.27 34.286 0.315 7.62 3.36 11.64
12/18/2020 8:45:00 PM 1.29 34.322 0.311 7.63 3.33 11.68
12/18/2020 9:00:00 PM 1.32 34.376 0.314 7.62 3.48 11.61
12/18/2020 9:15:00 PM 1.41 34.538 0.319 7.62 3.28 11.58
12/18/2020 9:30:00 PM 1.34 34.412 0.317 7.62 5.29 11.49
12/18/2020 9:45:00 PM 1.32 34.376 0.317 7.62 3.36 11.62
12/18/2020 10:00:00 PM 1.3 34.34 0.315 7.62 3.45 11.58
12/18/2020 10:15:00 PM 1.27 34.286 0.315 7.61 3.44 11.61
12/18/2020 10:30:00 PM 1.29 34.322 0.314 7.61 3.46 11.59
12/18/2020 10:45:00 PM 1.4 34.52 0.32 7.62 3.5 11.48
12/18/2020 11:00:00 PM 1.47 34.646 0.316 7.6 3.46 11.33
12/18/2020 11:15:00 PM 1.39 34.502 0.322 7.61 5.23 11.41
12/18/2020 11:30:00 PM 1.32 34.376 0.316 7.61 3.55 11.52
12/18/2020 11:45:00 PM 1.37 34.466 0.316 7.6 3.55 11.39
12/19/2020 12:00:00 AM 1.3 34.34 0.317 7.6 5.53 11.38
12/19/2020 12:15:00 AM 1.28 34.304 0.317 7.61 3.59 11.54
12/19/2020 12:30:00 AM 1.28 34.304 0.316 7.61 3.5 11.58
12/19/2020 12:45:00 AM 1.29 34.322 0.321 7.6 4.7 11.47
12/19/2020 1:00:00 AM 1.28 34.304 0.315 7.61 3.38 11.47
12/19/2020 1:15:00 AM 1.3 34.34 0.318 7.59 3.61 11.52
12/19/2020 1:30:00 AM 1.33 34.394 0.319 7.6 3.77 11.53
12/19/2020 1:45:00 AM 1.35 34.43 0.322 7.58 5.52 11.34
12/19/2020 2:00:00 AM 1.35 34.43 0.323 7.58 5.54 11.32
12/19/2020 2:15:00 AM 1.38 34.484 0.321 7.59 5.45 11.26
12/19/2020 2:30:00 AM 1.36 34.448 0.327 7.58 5.29 11.32
12/19/2020 2:45:00 AM 1.3 34.34 0.319 7.59 3.35 11.46
12/19/2020 3:00:00 AM 1.46 34.628 0.325 7.6 3.44 11.37
12/19/2020 3:15:00 AM 1.28 34.304 0.319 7.58 3.56 11.4
12/19/2020 3:30:00 AM 1.4 34.52 0.32 7.58 3.49 11.36
12/19/2020 3:45:00 AM 1.45 34.61 0.319 7.59 3.5 11.28
12/19/2020 4:00:00 AM 1.36 34.448 0.322 7.58 3.48 11.29
12/19/2020 4:15:00 AM 1.38 34.484 0.324 7.58 3.55 11.31
12/19/2020 4:30:00 AM 1.39 34.502 0.326 7.58 5.45 11.22
12/19/2020 4:45:00 AM 1.39 34.502 0.324 7.58 3.54 11.32
12/19/2020 5:00:00 AM 1.47 34.646 0.336 7.58 5.39 11.11
12/19/2020 5:15:00 AM 1.42 34.556 0.323 7.57 3.53 11.2
12/19/2020 5:30:00 AM 1.46 34.628 0.327 7.58 3.41 11.18
12/19/2020 5:45:00 AM 1.51 34.718 0.325 7.57 3.56 11.24
12/19/2020 6:00:00 AM 1.51 34.718 0.329 7.57 5.33 11.16
12/19/2020 6:15:00 AM 1.52 34.736 0.331 7.57 3.39 11.15
12/19/2020 6:30:00 AM 1.65 34.97 0.335 7.56 3.45 10.94
12/19/2020 6:45:00 AM 1.49 34.682 0.329 7.56 3.56 11.17
12/19/2020 7:00:00 AM 1.54 34.772 0.332 7.57 5.71 10.94
12/19/2020 7:15:00 AM 1.5 34.7 0.331 7.56 3.55 11.15
12/19/2020 7:30:00 AM 1.53 34.754 0.333 7.57 9.68 11.02
12/19/2020 7:45:00 AM 1.46 34.628 0.329 7.55 16.36 11.06
12/19/2020 8:00:00 AM 1.52 34.736 0.328 7.55 12.13 10.96
12/19/2020 8:15:00 AM 1.53 34.754 0.331 7.56 9.35 11.1
12/19/2020 8:30:00 AM 1.63 34.934 0.334 7.57 7.58 10.97
12/19/2020 8:45:00 AM 1.64 34.952 0.334 7.56 6.01 11.02
12/19/2020 9:00:00 AM 1.69 35.042 0.334 7.58 10.37 11.07
12/19/2020 9:15:00 AM 1.82 35.276 0.336 7.58 14.6 11.07
12/19/2020 9:30:00 AM 1.88 35.384 0.351 7.55 5.49 11.08
12/19/2020 9:45:00 AM 1.77 35.186 0.334 7.57 3.6 11.07
12/19/2020 10:00:00 AM 1.86 35.348 0.332 7.57 3.28 11.06
12/19/2020 10:15:00 AM 1.69 35.042 0.327 7.59 11.64 11.31
12/19/2020 10:30:00 AM 1.69 35.042 0.327 7.57 13.47 11.32
12/19/2020 10:45:00 AM 1.68 35.024 0.325 7.58 10.41 11.4
12/19/2020 11:00:00 AM 1.73 35.114 0.327 7.57 7.02 11.42
12/19/2020 11:15:00 AM 1.76 35.168 0.327 7.57 8.9 11.44
12/19/2020 11:30:00 AM 1.79 35.222 0.324 7.59 11.9 11.47
12/19/2020 11:45:00 AM 1.76 35.168 0.325 7.58 21.83 11.56
12/19/2020 12:00:00 PM 1.77 35.186 0.324 7.59 7.92 11.53
12/19/2020 12:15:00 PM 1.75 35.15 0.32 7.59 5.4 11.61
12/19/2020 12:30:00 PM 1.81 35.258 0.323 7.59 5.3 11.58
12/19/2020 12:45:00 PM 1.77 35.186 0.32 7.59 5.03 11.63
12/19/2020 1:00:00 PM 1.82 35.276 0.323 7.59 5.18 11.63
12/19/2020 1:15:00 PM 1.78 35.204 0.323 7.6 10.84 11.74
12/19/2020 1:30:00 PM 1.78 35.204 0.322 7.6 6.16 11.74
12/19/2020 1:45:00 PM 1.75 35.15 0.319 7.61 15.9 11.74
12/19/2020 2:00:00 PM 1.69 35.042 0.319 7.6 13.89 11.87
12/19/2020 2:15:00 PM 1.68 35.024 0.316 7.61 8.49 11.88
12/19/2020 2:30:00 PM 1.65 34.97 0.316 7.61 7.49 11.92
12/19/2020 2:45:00 PM 1.73 35.114 0.319 7.61 6.66 11.87
12/19/2020 3:00:00 PM 1.62 34.916 0.314 7.62 6.06 11.93
12/19/2020 3:15:00 PM 1.6 34.88 0.314 7.61 5.73 11.96
12/19/2020 3:30:00 PM 1.53 34.754 0.313 7.62 5.1 12.02
12/19/2020 3:45:00 PM 1.52 34.736 0.312 7.62 4.54 11.99
12/19/2020 4:00:00 PM 1.5 34.7 0.314 7.63 4.8 12
12/19/2020 4:15:00 PM 1.51 34.718 0.312 7.62 4.75 11.95
12/19/2020 4:30:00 PM 1.49 34.682 0.314 7.62 4.51 11.98
12/19/2020 4:45:00 PM 1.5 34.7 0.313 7.62 5.77 11.91
12/19/2020 5:00:00 PM 1.49 34.682 0.314 7.62 5.33 11.92
12/19/2020 5:15:00 PM 1.41 34.538 0.311 7.62 6.51 11.97
12/19/2020 5:30:00 PM 1.45 34.61 0.313 7.63 4 11.94
12/19/2020 5:45:00 PM 1.42 34.556 0.31 7.63 4.05 11.94
12/19/2020 6:00:00 PM 1.43 34.574 0.312 7.62 5.78 11.94
12/19/2020 6:15:00 PM 1.49 34.682 0.312 7.62 4.12 11.85
12/19/2020 6:30:00 PM 1.54 34.772 0.315 7.61 5.6 11.81
12/19/2020 6:45:00 PM 1.54 34.772 0.312 7.62 3.85 11.82
12/19/2020 7:00:00 PM 1.45 34.61 0.31 7.61 4.02 11.9
12/19/2020 7:15:00 PM 1.47 34.646 0.311 7.62 3.96 11.86
12/19/2020 7:30:00 PM 1.46 34.628 0.311 7.62 3.92 11.85
12/19/2020 7:45:00 PM 1.46 34.628 0.31 7.62 4.18 11.83
12/19/2020 8:00:00 PM 1.43 34.574 0.308 7.61 5.73 11.84
12/19/2020 8:15:00 PM 1.49 34.682 0.31 7.61 4.03 11.75
12/19/2020 8:30:00 PM 1.54 34.772 0.312 7.6 5.52 11.69
12/19/2020 8:45:00 PM 1.47 34.646 0.31 7.61 5.89 11.77
12/19/2020 9:00:00 PM 1.45 34.61 0.31 7.61 5.57 11.76
12/19/2020 9:15:00 PM 1.49 34.682 0.312 7.61 5.49 11.69
12/19/2020 9:30:00 PM 1.41 34.538 0.309 7.6 5.55 11.75
12/19/2020 9:45:00 PM 1.4 34.52 0.31 7.61 4.14 11.72
12/19/2020 10:00:00 PM 1.49 34.682 0.31 7.6 3.99 11.66
12/19/2020 10:15:00 PM 1.4 34.52 0.311 7.6 5.61 11.69
12/19/2020 10:30:00 PM 1.4 34.52 0.308 7.59 3.98 11.69
12/19/2020 10:45:00 PM 1.39 34.502 0.308 7.6 6.06 11.68
12/19/2020 11:00:00 PM 1.43 34.574 0.311 7.6 4.38 11.62
12/19/2020 11:15:00 PM 1.42 34.556 0.309 7.6 4.12 11.64
12/19/2020 11:30:00 PM 1.5 34.7 0.309 7.59 5.65 11.56
12/19/2020 11:45:00 PM 1.52 34.736 0.309 7.6 5.53 11.47
12/20/2020 12:00:00 AM 1.49 34.682 0.308 7.59 3.88 11.54
12/20/2020 12:15:00 AM 1.42 34.556 0.31 7.58 3.96 11.58
12/20/2020 12:30:00 AM 1.48 34.664 0.312 7.59 3.97 11.5
12/20/2020 12:45:00 AM 1.43 34.574 0.311 7.59 4.16 11.55
12/20/2020 1:00:00 AM 1.47 34.646 0.314 7.59 5.57 11.45
12/20/2020 1:15:00 AM 1.47 34.646 0.311 7.59 5.67 11.44
12/20/2020 1:30:00 AM 1.49 34.682 0.314 7.59 5.82 11.43
12/20/2020 1:45:00 AM 1.52 34.736 0.314 7.59 5.71 11.41
12/20/2020 2:00:00 AM 1.45 34.61 0.312 7.59 4.05 11.44
12/20/2020 2:15:00 AM 1.46 34.628 0.313 7.59 4.15 11.46
12/20/2020 2:30:00 AM 1.49 34.682 0.313 7.59 4.16 11.4
12/20/2020 2:45:00 AM 1.54 34.772 0.311 7.59 3.97 11.33
12/20/2020 3:00:00 AM 1.54 34.772 0.32 7.58 5.69 11.37
12/20/2020 3:15:00 AM 1.5 34.7 0.312 7.59 5.98 11.37
12/20/2020 3:30:00 AM 1.54 34.772 0.315 7.59 4.14 11.35
12/20/2020 3:45:00 AM 1.49 34.682 0.312 7.58 4.06 11.35
12/20/2020 4:00:00 AM 1.48 34.664 0.31 7.58 3.89 11.36
12/20/2020 4:15:00 AM 1.47 34.646 0.312 7.58 3.89 11.36
12/20/2020 4:30:00 AM 1.49 34.682 0.311 7.59 3.69 11.33
12/20/2020 4:45:00 AM 1.54 34.772 0.312 7.58 5.58 11.26
12/20/2020 5:00:00 AM 1.5 34.7 0.312 7.57 3.99 11.33
12/20/2020 5:15:00 AM 1.57 34.826 0.315 7.58 3.95 11.29
12/20/2020 5:30:00 AM 1.55 34.79 0.312 7.58 3.99 11.27
12/20/2020 5:45:00 AM 1.53 34.754 0.312 7.58 3.87 11.31
12/20/2020 6:00:00 AM 1.59 34.862 0.312 7.58 3.75 11.25
12/20/2020 6:15:00 AM 1.55 34.79 0.313 7.58 5.6 11.23
12/20/2020 6:30:00 AM 1.44 34.592 0.312 7.58 3.95 11.34
12/20/2020 6:45:00 AM 1.43 34.574 0.311 7.58 5.7 11.23
12/20/2020 7:00:00 AM 1.44 34.592 0.31 7.59 7.74 11.26
12/20/2020 7:15:00 AM 1.39 34.502 0.312 7.58 7.77 11.26
12/20/2020 7:30:00 AM 1.39 34.502 0.31 7.58 5.98 11.3
12/20/2020 7:45:00 AM 1.46 34.628 0.315 7.57 9.15 11.24
12/20/2020 8:00:00 AM 1.48 34.664 0.314 7.57 9.41 11.29
12/20/2020 8:15:00 AM 1.67 35.006 0.316 7.58 6.07 11.13
12/20/2020 8:30:00 AM 1.63 34.934 0.312 7.58 3.91 11.26
12/20/2020 8:45:00 AM 1.63 34.934 0.313 7.59 3.91 11.31
12/20/2020 9:00:00 AM 1.67 35.006 0.314 7.58 5.78 11.22
12/20/2020 9:15:00 AM 1.67 35.006 0.317 7.59 3.66 11.29
12/20/2020 9:30:00 AM 1.62 34.916 0.314 7.58 3.99 11.31
12/20/2020 9:45:00 AM 1.69 35.042 0.316 7.58 4 11.26
12/20/2020 10:00:00 AM 1.63 34.934 0.311 7.59 3.81 11.3
12/20/2020 10:15:00 AM 1.58 34.844 0.311 7.58 3.84 11.38
12/20/2020 10:30:00 AM 1.57 34.826 0.312 7.59 5.48 11.38
12/20/2020 10:45:00 AM 1.54 34.772 0.311 7.59 4.04 11.35
12/20/2020 11:00:00 AM 1.57 34.826 0.315 7.59 5.54 11.37
12/20/2020 11:15:00 AM 1.5 34.7 0.311 7.59 4.08 11.45
12/20/2020 11:30:00 AM 1.57 34.826 0.311 7.6 4.14 11.49
12/20/2020 11:45:00 AM 1.63 34.934 0.311 7.61 4.37 11.49
12/20/2020 12:00:00 PM 1.71 35.078 0.312 7.61 3.91 11.5
12/20/2020 12:15:00 PM 1.76 35.168 0.311 7.6 3.73 11.41
12/20/2020 12:30:00 PM 1.76 35.168 0.312 7.6 3.73 11.48
12/20/2020 12:45:00 PM 1.73 35.114 0.312 7.6 3.67 11.55
12/20/2020 1:00:00 PM 1.67 35.006 0.31 7.61 3.77 11.61
12/20/2020 1:15:00 PM 1.69 35.042 0.31 7.6 3.62 11.56
12/20/2020 1:30:00 PM 1.65 34.97 0.311 7.61 3.7 11.55
12/20/2020 1:45:00 PM 1.61 34.898 0.313 7.6 3.66 11.56
12/20/2020 2:00:00 PM 1.59 34.862 0.312 7.61 3.47 11.6
12/20/2020 2:15:00 PM 1.59 34.862 0.311 7.61 3.54 11.6
12/20/2020 2:30:00 PM 1.64 34.952 0.31 7.62 3.56 11.62
12/20/2020 2:45:00 PM 1.65 34.97 0.309 7.61 3.64 11.56
12/20/2020 3:00:00 PM 1.72 35.096 0.309 7.62 3.6 11.6
12/20/2020 3:15:00 PM 1.68 35.024 0.309 7.62 3.73 11.6
12/20/2020 3:30:00 PM 1.63 34.934 0.308 7.61 3.86 11.63
12/20/2020 3:45:00 PM 1.69 35.042 0.312 7.62 3.77 11.59
12/20/2020 4:00:00 PM 1.69 35.042 0.31 7.6 3.85 11.58
12/20/2020 4:15:00 PM 1.73 35.114 0.313 7.61 3.98 11.53
12/20/2020 4:30:00 PM 1.67 35.006 0.311 7.6 3.81 11.58
12/20/2020 4:45:00 PM 1.67 35.006 0.311 7.61 3.98 11.55
12/20/2020 5:00:00 PM 1.67 35.006 0.312 7.61 3.93 11.48
12/20/2020 5:15:00 PM 1.69 35.042 0.311 7.62 4.2 11.5
12/20/2020 5:30:00 PM 1.66 34.988 0.312 7.62 3.93 11.58
12/20/2020 5:45:00 PM 1.68 35.024 0.31 7.61 3.85 11.51
12/20/2020 6:00:00 PM 1.7 35.06 0.311 7.61 3.66 11.5
12/20/2020 6:15:00 PM 1.67 35.006 0.31 7.62 3.68 11.5
12/20/2020 6:30:00 PM 1.67 35.006 0.309 7.61 3.68 11.48
12/20/2020 6:45:00 PM 1.64 34.952 0.309 7.61 3.54 11.52
12/20/2020 7:00:00 PM 1.65 34.97 0.311 7.61 3.83 11.55
12/20/2020 7:15:00 PM 1.62 34.916 0.308 7.61 3.6 11.51
12/20/2020 7:30:00 PM 1.67 35.006 0.311 7.61 3.55 11.43
12/20/2020 7:45:00 PM 1.61 34.898 0.31 7.61 3.76 11.49
12/20/2020 8:00:00 PM 1.61 34.898 0.311 7.61 4.17 11.48
12/20/2020 8:15:00 PM 1.63 34.934 0.312 7.61 3.66 11.43
12/20/2020 8:30:00 PM 1.62 34.916 0.313 7.61 3.59 11.52
12/20/2020 8:45:00 PM 1.64 34.952 0.316 7.6 5.6 11.45
12/20/2020 9:00:00 PM 1.6 34.88 0.312 7.61 3.39 11.47
12/20/2020 9:15:00 PM 1.62 34.916 0.312 7.61 3.39 11.4
12/20/2020 9:30:00 PM 1.64 34.952 0.314 7.61 3.32 11.44
12/20/2020 9:45:00 PM 1.62 34.916 0.313 7.61 3.46 11.46
12/20/2020 10:00:00 PM 1.66 34.988 0.313 7.6 3.39 11.37
12/20/2020 10:15:00 PM 1.61 34.898 0.311 7.61 3.55 11.39
12/20/2020 10:30:00 PM 1.6 34.88 0.313 7.6 3.52 11.46
12/20/2020 10:45:00 PM 1.59 34.862 0.31 7.61 3.98 11.4
12/20/2020 11:00:00 PM 1.61 34.898 0.311 7.6 3.56 11.41
12/20/2020 11:15:00 PM 1.64 34.952 0.311 7.6 3.51 11.37
12/20/2020 11:30:00 PM 1.69 35.042 0.311 7.6 3.57 11.31
12/20/2020 11:45:00 PM 1.59 34.862 0.311 7.61 3.67 11.4
12/21/2020 12:00:00 AM 1.64 34.952 0.312 7.59 3.69 11.34
12/21/2020 12:15:00 AM 1.75 35.15 0.314 7.6 3.66 11.29
12/21/2020 12:30:00 AM 1.63 34.934 0.312 7.6 3.65 11.34
12/21/2020 12:45:00 AM 1.63 34.934 0.311 7.59 4.05 11.31
12/21/2020 1:00:00 AM 1.68 35.024 0.313 7.6 4.11 11.31
12/21/2020 1:15:00 AM 1.68 35.024 0.314 7.59 3.76 11.32
12/21/2020 1:30:00 AM 1.66 34.988 0.312 7.59 4.12 11.3
12/21/2020 1:45:00 AM 1.73 35.114 0.313 7.6 3.78 11.22
12/21/2020 2:00:00 AM 1.69 35.042 0.316 7.59 3.92 11.26
12/21/2020 2:15:00 AM 1.69 35.042 0.315 7.59 3.67 11.26
12/21/2020 2:30:00 AM 1.68 35.024 0.315 7.6 3.7 11.26
12/21/2020 2:45:00 AM 1.73 35.114 0.319 7.59 3.59 11.23
12/21/2020 3:00:00 AM 1.71 35.078 0.315 7.59 3.67 11.26
12/21/2020 3:15:00 AM 1.68 35.024 0.317 7.6 3.57 11.22
12/21/2020 3:30:00 AM 1.65 34.97 0.312 7.59 4.05 11.25
12/21/2020 3:45:00 AM 1.64 34.952 0.311 7.6 3.9 11.32
12/21/2020 4:00:00 AM 1.65 34.97 0.315 7.59 3.75 11.26
12/21/2020 4:15:00 AM 1.65 34.97 0.311 7.59 4.83 11.29
12/21/2020 4:30:00 AM 1.82 35.276 0.324 7.58 3.71 11.16
12/21/2020 4:45:00 AM 1.64 34.952 0.311 7.6 3.64 11.29
12/21/2020 5:00:00 AM 1.7 35.06 0.313 7.59 3.63 11.24
12/21/2020 5:15:00 AM 1.67 35.006 0.313 7.59 3.52 11.21
12/21/2020 5:30:00 AM 1.66 34.988 0.309 7.59 3.8 11.31
12/21/2020 5:45:00 AM 1.67 35.006 0.311 7.6 3.54 11.22
12/21/2020 6:00:00 AM 1.66 34.988 0.311 7.6 3.68 11.25
12/21/2020 6:15:00 AM 1.72 35.096 0.311 7.59 3.53 11.2
12/21/2020 6:30:00 AM 1.67 35.006 0.314 7.59 3.72 11.28
12/21/2020 6:45:00 AM 1.67 35.006 0.315 7.59 3.56 11.25
12/21/2020 7:00:00 AM 1.67 35.006 0.312 7.59 3.62 11.22
12/21/2020 7:15:00 AM 1.68 35.024 0.312 7.59 3.69 11.26
12/21/2020 7:30:00 AM 1.64 34.952 0.312 7.59 3.66 11.24
12/21/2020 7:45:00 AM 1.65 34.97 0.313 7.59 4.19 11.22
12/21/2020 8:00:00 AM 1.57 34.826 0.308 7.59 3.65 11.31
12/21/2020 8:15:00 AM 1.62 34.916 0.308 7.6 3.59 11.38
12/21/2020 8:30:00 AM 1.7 35.06 0.313 7.59 3.56 11.28
12/21/2020 8:45:00 AM 1.67 35.006 0.309 7.61 3.43 11.34
12/21/2020 9:00:00 AM 1.73 35.114 0.311 7.6 3.29 11.35
12/21/2020 9:15:00 AM 1.8 35.24 0.312 7.62 3.5 11.37
12/21/2020 9:30:00 AM 1.77 35.186 0.309 7.61 3.33 11.43
12/21/2020 9:45:00 AM 1.8 35.24 0.312 7.61 3.45 11.45
12/21/2020 10:00:00 AM 1.88 35.384 0.312 7.61 3.41 11.41
12/21/2020 10:15:00 AM 1.94 35.492 0.312 7.62 3.61 11.45
12/21/2020 10:30:00 AM 1.96 35.528 0.311 7.62 4.12 11.43
12/21/2020 10:45:00 AM 1.93 35.474 0.309 7.61 4.8 11.52
12/21/2020 11:00:00 AM 1.98 35.564 0.313 7.62 7.48 11.48
12/21/2020 11:15:00 AM 1.94 35.492 0.31 7.61 7.27 11.51
12/21/2020 11:30:00 AM 1.96 35.528 0.309 7.61 4.05 11.47
12/21/2020 11:45:00 AM 1.99 35.582 0.314 7.62 3.78 11.52
12/21/2020 12:00:00 PM 1.92 35.456 0.308 7.62 4.55 11.6
12/21/2020 12:15:00 PM 1.92 35.456 0.308 7.63 4.84 11.62
12/21/2020 12:30:00 PM 1.97 35.546 0.309 7.63 4.27 11.59
12/21/2020 12:45:00 PM 2.03 35.654 0.309 7.63 6.11 11.55
12/21/2020 1:00:00 PM 1.97 35.546 0.307 7.63 4.69 11.63
12/21/2020 1:15:00 PM 2.06 35.708 0.309 7.64 4.12 11.64
12/21/2020 1:30:00 PM 2.07 35.726 0.308 7.64 3.87 11.67
12/21/2020 1:45:00 PM 2.09 35.762 0.31 7.63 4.68 11.64
12/21/2020 2:00:00 PM 2.1 35.78 0.309 7.64 4.67 11.58
12/21/2020 2:15:00 PM 2.09 35.762 0.308 7.64 3.96 11.68
12/21/2020 2:30:00 PM 2.05 35.69 0.307 7.65 3.93 11.73
12/21/2020 2:45:00 PM 2.06 35.708 0.307 7.64 4.54 11.69
12/21/2020 3:00:00 PM 2.02 35.636 0.306 7.64 5.06 11.7
12/21/2020 3:15:00 PM 2.03 35.654 0.308 7.64 4.42 11.68
12/21/2020 3:30:00 PM 2.03 35.654 0.31 7.64 4.97 11.65
12/21/2020 3:45:00 PM 2.01 35.618 0.31 7.64 4.24 11.7
12/21/2020 4:00:00 PM 1.97 35.546 0.309 7.64 3.8 11.75
12/21/2020 4:15:00 PM 1.97 35.546 0.309 7.64 4.12 11.7
12/21/2020 4:30:00 PM 2.01 35.618 0.311 7.64 3.91 11.64
12/21/2020 4:45:00 PM 1.97 35.546 0.311 7.64 4.92 11.66
12/21/2020 5:00:00 PM 1.95 35.51 0.311 7.64 4.32 11.69
12/21/2020 5:15:00 PM 1.95 35.51 0.311 7.64 4.83 11.65
12/21/2020 5:30:00 PM 1.99 35.582 0.315 7.64 4.53 11.62
12/21/2020 5:45:00 PM 1.99 35.582 0.314 7.64 3.98 11.62
12/21/2020 6:00:00 PM 1.96 35.528 0.313 7.64 3.62 11.63
12/21/2020 6:15:00 PM 1.93 35.474 0.313 7.64 5.33 11.63
12/21/2020 6:30:00 PM 1.93 35.474 0.313 7.63 3.48 11.63
12/21/2020 6:45:00 PM 1.93 35.474 0.313 7.64 3.7 11.58
12/21/2020 7:00:00 PM 1.97 35.546 0.314 7.63 3.52 11.52
12/21/2020 7:15:00 PM 1.9 35.42 0.313 7.63 3.8 11.59
12/21/2020 7:30:00 PM 1.94 35.492 0.313 7.63 3.56 11.52
12/21/2020 7:45:00 PM 1.95 35.51 0.316 7.62 3.82 11.58
12/21/2020 8:00:00 PM 1.91 35.438 0.315 7.63 3.86 11.52
12/21/2020 8:15:00 PM 1.89 35.402 0.313 7.63 3.84 11.49
12/21/2020 8:30:00 PM 1.88 35.384 0.312 7.63 3.86 11.48
12/21/2020 8:45:00 PM 1.9 35.42 0.315 7.62 3.7 11.47
12/21/2020 9:00:00 PM 1.87 35.366 0.312 7.62 3.91 11.48
12/21/2020 9:15:00 PM 1.89 35.402 0.312 7.62 4.07 11.41
12/21/2020 9:30:00 PM 1.84 35.312 0.31 7.63 3.69 11.48
12/21/2020 9:45:00 PM 1.86 35.348 0.315 7.62 3.73 11.47
12/21/2020 10:00:00 PM 1.86 35.348 0.312 7.62 3.69 11.44
12/21/2020 10:15:00 PM 1.84 35.312 0.31 7.62 3.69 11.46
12/21/2020 10:30:00 PM 1.83 35.294 0.311 7.61 3.82 11.5
12/21/2020 10:45:00 PM 1.85 35.33 0.311 7.62 3.77 11.44
12/21/2020 11:00:00 PM 1.83 35.294 0.31 7.61 3.69 11.45
12/21/2020 11:15:00 PM 1.85 35.33 0.312 7.62 3.59 11.39
12/21/2020 11:30:00 PM 1.83 35.294 0.309 7.61 5.08 11.44
12/21/2020 11:45:00 PM 1.86 35.348 0.309 7.61 3.65 11.39
12/22/2020 12:00:00 AM 1.83 35.294 0.31 7.61 3.58 11.37
12/22/2020 12:15:00 AM 1.83 35.294 0.308 7.61 3.68 11.45
12/22/2020 12:30:00 AM 1.8 35.24 0.309 7.59 3.73 11.42
12/22/2020 12:45:00 AM 1.85 35.33 0.312 7.61 3.76 11.36
12/22/2020 1:00:00 AM 1.83 35.294 0.308 7.61 3.93 11.33
12/22/2020 1:15:00 AM 1.82 35.276 0.308 7.61 3.66 11.37
12/22/2020 1:30:00 AM 1.8 35.24 0.308 7.61 3.58 11.36
12/22/2020 1:45:00 AM 1.85 35.33 0.309 7.61 3.66 11.35
12/22/2020 2:00:00 AM 1.78 35.204 0.308 7.6 3.44 11.41
12/22/2020 2:15:00 AM 1.78 35.204 0.307 7.6 3.62 11.36
12/22/2020 2:30:00 AM 1.77 35.186 0.309 7.6 3.6 11.33
12/22/2020 2:45:00 AM 1.76 35.168 0.307 7.6 3.65 11.36
12/22/2020 3:00:00 AM 1.73 35.114 0.307 7.6 3.62 11.39
12/22/2020 3:15:00 AM 1.72 35.096 0.307 7.6 3.78 11.33
12/22/2020 3:30:00 AM 1.73 35.114 0.307 7.6 3.66 11.34
12/22/2020 3:45:00 AM 1.78 35.204 0.31 7.6 3.6 11.31
12/22/2020 4:00:00 AM 1.76 35.168 0.306 7.61 3.62 11.34
12/22/2020 4:15:00 AM 1.73 35.114 0.306 7.6 3.89 11.33
12/22/2020 4:30:00 AM 1.73 35.114 0.306 7.6 4.1 11.36
12/22/2020 4:45:00 AM 1.75 35.15 0.306 7.6 4.26 11.29
12/22/2020 5:00:00 AM 1.75 35.15 0.304 7.6 3.72 11.31
12/22/2020 5:15:00 AM 1.72 35.096 0.305 7.6 3.58 11.34
12/22/2020 5:30:00 AM 1.74 35.132 0.306 7.61 3.85 11.32
12/22/2020 5:45:00 AM 1.74 35.132 0.305 7.59 3.75 11.33
12/22/2020 6:00:00 AM 1.74 35.132 0.305 7.61 3.69 11.32
12/22/2020 6:15:00 AM 1.75 35.15 0.306 7.6 3.73 11.32
12/22/2020 6:30:00 AM 1.77 35.186 0.306 7.61 3.95 11.3
12/22/2020 6:45:00 AM 1.79 35.222 0.308 7.61 3.91 11.3
12/22/2020 7:00:00 AM 1.76 35.168 0.306 7.6 4.21 11.33
12/22/2020 7:15:00 AM 1.77 35.186 0.306 7.61 4.59 11.3
12/22/2020 7:30:00 AM 1.76 35.168 0.305 7.61 4.72 11.31
12/22/2020 7:45:00 AM 1.74 35.132 0.305 7.61 4.24 11.34
12/22/2020 8:00:00 AM 1.77 35.186 0.305 7.6 3.95 11.33
12/22/2020 8:15:00 AM 1.75 35.15 0.304 7.61 3.87 11.37
12/22/2020 8:30:00 AM 1.81 35.258 0.305 7.61 3.81 11.36
12/22/2020 8:45:00 AM 1.83 35.294 0.306 7.61 3.63 11.37
12/22/2020 9:00:00 AM 1.84 35.312 0.305 7.61 3.8 11.42
12/22/2020 9:15:00 AM 1.82 35.276 0.303 7.61 5.21 11.43
12/22/2020 9:30:00 AM 1.86 35.348 0.305 7.62 4.01 11.47
12/22/2020 9:45:00 AM 1.89 35.402 0.303 7.62 4.39 11.47
12/22/2020 10:00:00 AM 1.96 35.528 0.306 7.63 5.72 11.52
12/22/2020 10:15:00 AM 1.97 35.546 0.304 7.62 3.97 11.56
12/22/2020 10:30:00 AM 1.95 35.51 0.302 7.62 3.69 11.61
12/22/2020 10:45:00 AM 1.99 35.582 0.303 7.63 3.6 11.62
12/22/2020 11:00:00 AM 2.04 35.672 0.304 7.63 3.52 11.62
12/22/2020 11:15:00 AM 2.07 35.726 0.304 7.63 3.38 11.62
12/22/2020 11:30:00 AM 2.12 35.816 0.304 7.64 3.65 11.65
12/22/2020 11:45:00 AM 2.2 35.96 0.306 7.63 3.7 11.67
12/22/2020 12:00:00 PM 2.18 35.924 0.303 7.64 3.5 11.71
12/22/2020 12:15:00 PM 2.16 35.888 0.304 7.64 3.6 11.74
12/22/2020 12:30:00 PM 2.11 35.798 0.302 7.64 3.76 11.77
12/22/2020 12:45:00 PM 2.15 35.87 0.302 7.65 4.19 11.77
12/22/2020 1:00:00 PM 2.18 35.924 0.302 7.65 4.35 11.8
12/22/2020 1:15:00 PM 2.19 35.942 0.302 7.65 5.74 11.81
12/22/2020 1:30:00 PM 2.25 36.05 0.302 7.66 5.27 11.84
12/22/2020 1:45:00 PM 2.26 36.068 0.303 7.65 7 11.88
12/22/2020 2:00:00 PM 2.27 36.086 0.302 7.66 5.16 11.88
12/22/2020 2:15:00 PM 2.24 36.032 0.3 7.66 4.77 11.93
12/22/2020 2:30:00 PM 2.25 36.05 0.3 7.66 4.77 11.97
12/22/2020 2:45:00 PM 2.24 36.032 0.299 7.66 6.43 11.95
12/22/2020 3:00:00 PM 2.26 36.068 0.301 7.67 4.66 11.95
12/22/2020 3:15:00 PM 2.25 36.05 0.3 7.66 5.19 11.92
12/22/2020 3:30:00 PM 2.19 35.942 0.298 7.66 6.74 11.94
12/22/2020 3:45:00 PM 2.21 35.978 0.299 7.67 5.39 11.91
12/22/2020 4:00:00 PM 2.24 36.032 0.302 7.66 6.65 11.88
12/22/2020 4:15:00 PM 2.21 35.978 0.299 7.66 5.05 11.95
12/22/2020 4:30:00 PM 2.23 36.014 0.3 7.66 4.67 11.89
12/22/2020 4:45:00 PM 2.19 35.942 0.299 7.66 6 11.92
12/22/2020 5:00:00 PM 2.21 35.978 0.3 7.65 4.44 11.9
12/22/2020 5:15:00 PM 2.23 36.014 0.3 7.66 5.7 11.84
12/22/2020 5:30:00 PM 2.19 35.942 0.302 7.66 4.77 11.89
12/22/2020 5:45:00 PM 2.19 35.942 0.299 7.66 6.32 11.87
12/22/2020 6:00:00 PM 2.2 35.96 0.299 7.65 5.35 11.84
12/22/2020 6:15:00 PM 2.19 35.942 0.3 7.65 4.78 11.84
12/22/2020 6:30:00 PM 2.13 35.834 0.298 7.66 5.22 11.87
12/22/2020 6:45:00 PM 2.11 35.798 0.297 7.66 3.8 11.88
12/22/2020 7:00:00 PM 2.1 35.78 0.297 7.65 6.27 11.82
12/22/2020 7:15:00 PM 2.14 35.852 0.301 7.65 4.37 11.75
12/22/2020 7:30:00 PM 2.05 35.69 0.297 7.65 5.47 11.83
12/22/2020 7:45:00 PM 2.05 35.69 0.298 7.65 4.01 11.79
12/22/2020 8:00:00 PM 2.03 35.654 0.298 7.64 3.95 11.78
12/22/2020 8:15:00 PM 2.03 35.654 0.3 7.65 3.9 11.82
12/22/2020 8:30:00 PM 2 35.6 0.302 7.64 5.34 11.78
12/22/2020 8:45:00 PM 2 35.6 0.3 7.64 5.37 11.75
12/22/2020 9:00:00 PM 1.98 35.564 0.302 7.65 4.62 11.76
12/22/2020 9:15:00 PM 1.98 35.564 0.3 7.65 3.84 11.72
12/22/2020 9:30:00 PM 1.96 35.528 0.298 7.64 3.7 11.72
12/22/2020 9:45:00 PM 1.99 35.582 0.301 7.64 3.73 11.68
12/22/2020 10:00:00 PM 2.01 35.618 0.303 7.64 3.8 11.65
12/22/2020 10:15:00 PM 2.01 35.618 0.304 7.64 3.7 11.67
12/22/2020 10:30:00 PM 1.99 35.582 0.303 7.64 3.75 11.64
12/22/2020 10:45:00 PM 1.99 35.582 0.303 7.64 3.81 11.63
12/22/2020 11:00:00 PM 1.95 35.51 0.303 7.64 3.69 11.67
12/22/2020 11:15:00 PM 1.95 35.51 0.302 7.64 3.85 11.62
12/22/2020 11:30:00 PM 1.94 35.492 0.302 7.64 3.85 11.63
12/22/2020 11:45:00 PM 1.98 35.564 0.306 7.63 3.87 11.57
12/23/2020 12:00:00 AM 1.93 35.474 0.302 7.64 5.58 11.63
12/23/2020 12:15:00 AM 1.97 35.546 0.305 7.63 5.58 11.58
12/23/2020 12:30:00 AM 1.95 35.51 0.303 7.63 5.62 11.59
12/23/2020 12:45:00 AM 1.96 35.528 0.306 7.63 4.06 11.56
12/23/2020 1:00:00 AM 1.94 35.492 0.305 7.64 4.25 11.57
12/23/2020 1:15:00 AM 1.92 35.456 0.304 7.63 4.25 11.58
12/23/2020 1:30:00 AM 1.9 35.42 0.303 7.63 4.28 11.55
12/23/2020 1:45:00 AM 1.88 35.384 0.303 7.63 5.69 11.55
12/23/2020 2:00:00 AM 1.88 35.384 0.303 7.63 5.57 11.56
12/23/2020 2:15:00 AM 1.89 35.402 0.308 7.63 5.6 11.55
12/23/2020 2:30:00 AM 1.87 35.366 0.304 7.63 5.67 11.56
12/23/2020 2:45:00 AM 1.88 35.384 0.305 7.63 4.32 11.53
12/23/2020 3:00:00 AM 1.9 35.42 0.307 7.63 4.03 11.54
12/23/2020 3:15:00 AM 1.83 35.294 0.305 7.63 4 11.58
12/23/2020 3:30:00 AM 1.82 35.276 0.304 7.62 5.57 11.56
12/23/2020 3:45:00 AM 1.84 35.312 0.304 7.63 3.95 11.57
12/23/2020 4:00:00 AM 1.83 35.294 0.305 7.63 3.87 11.57
12/23/2020 4:15:00 AM 1.83 35.294 0.303 7.63 4.05 11.57
12/23/2020 4:30:00 AM 1.86 35.348 0.305 7.63 3.9 11.52
12/23/2020 4:45:00 AM 1.84 35.312 0.306 7.62 3.98 11.56
12/23/2020 5:00:00 AM 1.85 35.33 0.304 7.63 3.85 11.55
12/23/2020 5:15:00 AM 1.85 35.33 0.304 7.62 3.81 11.56
12/23/2020 5:30:00 AM 1.83 35.294 0.306 7.62 5.54 11.54
12/23/2020 5:45:00 AM 1.77 35.186 0.304 7.62 5.73 11.57
12/23/2020 6:00:00 AM 1.72 35.096 0.303 7.62 3.84 11.63
12/23/2020 6:15:00 AM 1.74 35.132 0.307 7.63 3.8 11.59
12/23/2020 6:30:00 AM 1.69 35.042 0.304 7.62 3.73 11.6
12/23/2020 6:45:00 AM 1.69 35.042 0.305 7.62 3.89 11.62
12/23/2020 7:00:00 AM 1.63 34.934 0.302 7.62 3.87 11.65
12/23/2020 7:15:00 AM 1.66 34.988 0.304 7.62 3.89 11.59
12/23/2020 7:30:00 AM 1.66 34.988 0.306 7.63 4 11.63
12/23/2020 7:45:00 AM 1.7 35.06 0.306 7.63 5.01 11.58
12/23/2020 8:00:00 AM 1.69 35.042 0.305 7.63 5.31 11.61
12/23/2020 8:15:00 AM 1.7 35.06 0.307 7.63 4.01 11.65
12/23/2020 8:30:00 AM 1.7 35.06 0.304 7.63 4.67 11.69
12/23/2020 8:45:00 AM 1.73 35.114 0.305 7.63 3.84 11.69
12/23/2020 9:00:00 AM 1.74 35.132 0.305 7.63 3.8 11.76
12/23/2020 9:15:00 AM 1.77 35.186 0.305 7.64 3.65 11.78
12/23/2020 9:30:00 AM 1.84 35.312 0.306 7.64 3.89 11.8
12/23/2020 9:45:00 AM 1.85 35.33 0.306 7.65 5.73 11.82
12/23/2020 10:00:00 AM 1.85 35.33 0.305 7.65 4.06 11.85
12/23/2020 10:15:00 AM 1.86 35.348 0.305 7.64 4.21 11.86
12/23/2020 10:30:00 AM 1.89 35.402 0.306 7.65 4.18 11.87
12/23/2020 10:45:00 AM 1.93 35.474 0.307 7.65 3.91 11.9
12/23/2020 11:00:00 AM 1.93 35.474 0.305 7.65 5.5 11.91
12/23/2020 11:15:00 AM 2 35.6 0.306 7.66 3.68 11.9
12/23/2020 11:30:00 AM 2.06 35.708 0.307 7.66 5.51 11.95
12/23/2020 11:45:00 AM 2.11 35.798 0.305 7.67 3.76 11.98
12/23/2020 12:00:00 PM 2.12 35.816 0.306 7.67 3.78 12.05
12/23/2020 12:15:00 PM 2.17 35.906 0.304 7.66 4.1 12.07
12/23/2020 12:30:00 PM 2.2 35.96 0.304 7.68 4.02 12.12
12/23/2020 12:45:00 PM 2.26 36.068 0.304 7.68 4.14 12.13
12/23/2020 1:00:00 PM 2.3 36.14 0.304 7.68 3.89 12.14
12/23/2020 1:15:00 PM 2.38 36.284 0.304 7.69 4.06 12.16
12/23/2020 1:30:00 PM 2.44 36.392 0.304 7.68 3.91 12.19
12/23/2020 1:45:00 PM 2.45 36.41 0.303 7.69 5.61 12.24
12/23/2020 2:00:00 PM 2.53 36.554 0.304 7.68 5.5 12.21
12/23/2020 2:15:00 PM 2.53 36.554 0.301 7.69 5.43 12.27
12/23/2020 2:30:00 PM 2.56 36.608 0.304 7.7 4.02 12.27
12/23/2020 2:45:00 PM 2.57 36.626 0.303 7.69 5.5 12.3
12/23/2020 3:00:00 PM 2.58 36.644 0.304 7.7 5.49 12.31
12/23/2020 3:15:00 PM 2.6 36.68 0.303 7.69 5.45 12.29
12/23/2020 3:30:00 PM 2.64 36.752 0.303 7.7 4.01 12.26
12/23/2020 3:45:00 PM 2.62 36.716 0.303 7.69 5.49 12.27
12/23/2020 4:00:00 PM 2.64 36.752 0.304 7.69 5.53 12.25
12/23/2020 4:15:00 PM 2.66 36.788 0.302 7.69 5.61 12.21
12/23/2020 4:30:00 PM 2.68 36.824 0.302 7.69 5.48 12.12
12/23/2020 4:45:00 PM 2.62 36.716 0.301 7.68 5.61 12.18
12/23/2020 5:00:00 PM 2.62 36.716 0.303 7.69 5.69 12.1
12/23/2020 5:15:00 PM 2.6 36.68 0.302 7.69 5.73 12.13
12/23/2020 5:30:00 PM 2.57 36.626 0.301 7.68 5.66 12.11
12/23/2020 5:45:00 PM 2.56 36.608 0.303 7.68 5.85 12.09
12/23/2020 6:00:00 PM 2.54 36.572 0.301 7.68 3.93 12.07
12/23/2020 6:15:00 PM 2.51 36.518 0.304 7.68 5.69 12.09
12/23/2020 6:30:00 PM 2.5 36.5 0.302 7.68 5.6 12.06
12/23/2020 6:45:00 PM 2.45 36.41 0.302 7.68 5.76 12.05
12/23/2020 7:00:00 PM 2.45 36.41 0.3 7.68 4.26 11.94
12/23/2020 7:15:00 PM 2.44 36.392 0.302 7.67 5.74 11.97
12/23/2020 7:30:00 PM 2.43 36.374 0.304 7.67 4.18 11.96
12/23/2020 7:45:00 PM 2.38 36.284 0.302 7.67 4.14 11.96
12/23/2020 8:00:00 PM 2.42 36.356 0.303 7.66 4.01 11.86
12/23/2020 8:15:00 PM 2.36 36.248 0.304 7.67 5.63 11.89
12/23/2020 8:30:00 PM 2.35 36.23 0.303 7.67 3.85 11.87
12/23/2020 8:45:00 PM 2.31 36.158 0.302 7.66 4.68 11.85
12/23/2020 9:00:00 PM 2.31 36.158 0.303 7.66 4.18 11.82
12/23/2020 9:15:00 PM 2.28 36.104 0.306 7.67 3.89 11.85
12/23/2020 9:30:00 PM 2.29 36.122 0.305 7.66 3.88 11.77
12/23/2020 9:45:00 PM 2.35 36.23 0.308 7.66 3.94 11.7
12/23/2020 10:00:00 PM 2.3 36.14 0.308 7.66 3.86 11.75
12/23/2020 10:15:00 PM 2.29 36.122 0.304 7.66 3.79 11.67
12/23/2020 10:30:00 PM 2.24 36.032 0.302 7.66 5.46 11.71
12/23/2020 10:45:00 PM 2.25 36.05 0.304 7.65 3.91 11.65
12/23/2020 11:00:00 PM 2.25 36.05 0.303 7.65 3.92 11.67
12/23/2020 11:15:00 PM 2.25 36.05 0.304 7.65 6.27 11.65
12/23/2020 11:30:00 PM 2.31 36.158 0.304 7.65 4.01 11.59
12/23/2020 11:45:00 PM 2.28 36.104 0.307 7.65 6.02 11.62
12/24/2020 12:00:00 AM 2.32 36.176 0.306 7.64 5.53 11.52
12/24/2020 12:15:00 AM 2.29 36.122 0.305 7.65 5.64 11.56
12/24/2020 12:30:00 AM 2.27 36.086 0.306 7.65 5.51 11.57
12/24/2020 12:45:00 AM 2.29 36.122 0.308 7.65 3.88 11.57
12/24/2020 1:00:00 AM 2.28 36.104 0.31 7.64 5.53 11.55
12/24/2020 1:15:00 AM 2.31 36.158 0.307 7.64 3.8 11.53
12/24/2020 1:30:00 AM 2.27 36.086 0.306 7.64 5.41 11.51
12/24/2020 1:45:00 AM 2.27 36.086 0.307 7.64 3.86 11.53
12/24/2020 2:00:00 AM 2.28 36.104 0.305 7.64 5.43 11.49
12/24/2020 2:15:00 AM 2.27 36.086 0.304 7.64 5.15 11.49
12/24/2020 2:30:00 AM 2.28 36.104 0.307 7.63 4.2 11.49
12/24/2020 2:45:00 AM 2.29 36.122 0.306 7.64 5.55 11.43
12/24/2020 3:00:00 AM 2.35 36.23 0.307 7.64 5.77 11.39
12/24/2020 3:15:00 AM 2.33 36.194 0.308 7.64 3.85 11.45
12/24/2020 3:30:00 AM 2.35 36.23 0.307 7.64 4.83 11.41
12/24/2020 3:45:00 AM 2.37 36.266 0.306 7.63 5.56 11.4
12/24/2020 4:00:00 AM 2.36 36.248 0.307 7.63 5.55 11.42
12/24/2020 4:15:00 AM 2.38 36.284 0.309 7.64 5.28 11.4
12/24/2020 4:30:00 AM 2.38 36.284 0.306 7.63 5.42 11.41
12/24/2020 4:45:00 AM 2.43 36.374 0.308 7.63 5.26 11.37
12/24/2020 5:00:00 AM 2.42 36.356 0.305 7.63 5.34 11.36
12/24/2020 5:15:00 AM 2.46 36.428 0.308 7.63 5.42 11.35
12/24/2020 5:30:00 AM 2.48 36.464 0.307 7.63 3.81 11.34
12/24/2020 5:45:00 AM 2.44 36.392 0.303 7.63 5.49 11.38
12/24/2020 6:00:00 AM 2.52 36.536 0.306 7.63 4.74 11.33
12/24/2020 6:15:00 AM 2.53 36.554 0.307 7.63 5.71 11.32
12/24/2020 6:30:00 AM 2.58 36.644 0.308 7.63 3.9 11.24
12/24/2020 6:45:00 AM 2.57 36.626 0.312 7.62 5.56 11.31
12/24/2020 7:00:00 AM 2.59 36.662 0.306 7.63 5.53 11.29
12/24/2020 7:15:00 AM 2.63 36.734 0.307 7.63 5.5 11.24
12/24/2020 7:30:00 AM 2.63 36.734 0.308 7.63 5.59 11.3
12/24/2020 7:45:00 AM 2.63 36.734 0.307 7.63 5.56 11.31
12/24/2020 8:00:00 AM 2.69 36.842 0.306 7.63 5.48 11.26
12/24/2020 8:15:00 AM 2.68 36.824 0.306 7.63 3.64 11.31
12/24/2020 8:30:00 AM 2.72 36.896 0.305 7.63 5.61 11.29
12/24/2020 8:45:00 AM 2.78 37.004 0.307 7.63 3.71 11.28
12/24/2020 9:00:00 AM 2.76 36.968 0.305 7.63 5.52 11.34
12/24/2020 9:15:00 AM 2.81 37.058 0.305 7.64 5.69 11.31
12/24/2020 9:30:00 AM 2.84 37.112 0.305 7.64 4.31 11.31
12/24/2020 9:45:00 AM 2.84 37.112 0.303 7.64 5.54 11.4
12/24/2020 10:00:00 AM 2.95 37.31 0.306 7.64 5.54 11.37
12/24/2020 10:15:00 AM 2.92 37.256 0.302 7.65 5.73 11.48
12/24/2020 10:30:00 AM 3 37.4 0.305 7.64 5.65 11.46
12/24/2020 10:45:00 AM 3.02 37.436 0.301 7.65 5.55 11.5
12/24/2020 11:00:00 AM 3.07 37.526 0.302 7.66 3.91 11.51
12/24/2020 11:15:00 AM 3.11 37.598 0.302 7.65 5.83 11.54
12/24/2020 11:30:00 AM 3.14 37.652 0.302 7.66 4.25 11.55
12/24/2020 11:45:00 AM 3.14 37.652 0.299 7.66 5.68 11.6
12/24/2020 12:00:00 PM 3.16 37.688 0.298 7.67 4.01 11.62
12/24/2020 12:15:00 PM 3.18 37.724 0.298 7.67 4.11 11.66
12/24/2020 12:30:00 PM 3.24 37.832 0.298 7.67 4.4 11.64
12/24/2020 12:45:00 PM 3.25 37.85 0.297 7.67 4.1 11.67
12/24/2020 1:00:00 PM 3.25 37.85 0.294 7.67 4.1 11.72
12/24/2020 1:15:00 PM 3.3 37.94 0.294 7.68 4.14 11.74
12/24/2020 1:30:00 PM 3.33 37.994 0.295 7.67 4.35 11.76
12/24/2020 1:45:00 PM 3.35 38.03 0.295 7.68 4.36 11.78
12/24/2020 2:00:00 PM 3.34 38.012 0.298 7.67 4.95 11.77
12/24/2020 2:15:00 PM 3.32 37.976 0.303 7.67 5.26 11.83
12/24/2020 2:30:00 PM 3.3 37.94 0.31 7.67 5.76 11.9
12/24/2020 2:45:00 PM 3.33 37.994 0.316 7.67 6.66 11.86
12/24/2020 3:00:00 PM 3.31 37.958 0.322 7.67 8.04 11.87
12/24/2020 3:15:00 PM 3.32 37.976 0.324 7.66 8.66 11.87
12/24/2020 3:30:00 PM 3.28 37.904 0.326 7.66 9.87 11.91
12/24/2020 3:45:00 PM 3.27 37.886 0.324 7.66 11.74 11.92
12/24/2020 4:00:00 PM 3.24 37.832 0.323 7.67 11.96 11.95
12/24/2020 4:15:00 PM 3.19 37.742 0.32 7.65 14.1 11.97
12/24/2020 4:30:00 PM 3.15 37.67 0.318 7.65 14.47 11.91
12/24/2020 4:45:00 PM 3.09 37.562 0.313 7.65 17.27 11.96
12/24/2020 5:00:00 PM 3.02 37.436 0.304 7.64 19.01 12.04
12/24/2020 5:15:00 PM 2.9 37.22 0.291 7.64 20.3 12.13
12/24/2020 5:30:00 PM 2.74 36.932 0.278 7.64 29.41 12.21
12/24/2020 5:45:00 PM 2.57 36.626 0.262 7.63 30.91 12.29
12/24/2020 6:00:00 PM 2.36 36.248 0.246 7.63 51.58 12.37
12/24/2020 6:15:00 PM 2.1 35.78 0.226 7.63 77.11 12.47
12/24/2020 6:30:00 PM 1.82 35.276 0.2 7.6 84.26 12.61
12/24/2020 6:45:00 PM 1.62 34.916 0.177 7.57 131.53 12.6
12/24/2020 7:00:00 PM 1.39 34.502 0.159 7.56 195.22 12.76
12/24/2020 7:15:00 PM 1.15 34.07 0.132 7.43 232.08 12.83
12/24/2020 7:30:00 PM 1.04 33.872 0.131 7.43 136.09 12.71
12/24/2020 7:45:00 PM 1.07 33.926 0.136 7.36 194.28 12.71
12/24/2020 8:00:00 PM 0.73 33.314 0.114 7.33 183.29 12.93
12/24/2020 8:15:00 PM 0.61 33.098 0.105 7.42 251.17 12.94
12/24/2020 8:30:00 PM 0.46 32.828 0.1 7.32 276.27 13.13
12/24/2020 8:45:00 PM 0.42 32.756 0.098 7.24 221.61 13.07
12/24/2020 9:00:00 PM 0.33 32.594 0.096 7.22 338.53 13.19
12/24/2020 9:15:00 PM 0.24 32.432 0.092 7.19 327.53 12.99
12/24/2020 9:30:00 PM 0.17 32.306 0.083 7.12 331.45 11.02
12/24/2020 9:45:00 PM 0.1 32.18 0.067 6.94 315.42 13.23
12/24/2020 10:00:00 PM 0.06 32.108 0.051 6.89 269.93 13.29
12/24/2020 10:15:00 PM 0.02 32.036 0.074 6.96 265.51 13.32
12/24/2020 10:30:00 PM 0.01 32.018 0.073 6.9 314.38 13.35
12/24/2020 10:45:00 PM 0 32 0.069 6.83 238.13 13.37
12/24/2020 11:00:00 PM -0.02 31.964 0.07 6.81 235.2 13.37
12/24/2020 11:15:00 PM -0.02 31.964 0.069 6.78 339.3 13.39
12/24/2020 11:30:00 PM -0.02 31.964 0.069 6.78 248.01 13.41
12/24/2020 11:45:00 PM -0.02 31.964 0.069 6.75 207.55 13.42
12/25/2020 12:00:00 AM -0.03 31.946 0.068 6.75 214.7 13.43
12/25/2020 12:15:00 AM -0.04 31.928 0.067 6.72 162.36 13.43
12/25/2020 12:30:00 AM -0.03 31.946 0.067 6.73 201.4 13.43
12/25/2020 12:45:00 AM -0.04 31.928 0.066 6.77 176.17 13.42
12/25/2020 1:00:00 AM -0.03 31.946 0.065 6.77 217.43 13.41
12/25/2020 1:15:00 AM -0.04 31.928 0.063 6.75 195.95 13.41
12/25/2020 1:30:00 AM -0.03 31.946 0.063 6.79 262.4 13.41
12/25/2020 1:45:00 AM -0.03 31.946 0.063 6.78 161.33 13.4
12/25/2020 2:00:00 AM -0.02 31.964 0.062 6.77 223.53 13.39
12/25/2020 2:15:00 AM -0.01 31.982 0.062 6.79 202.54 13.38
12/25/2020 2:30:00 AM -0.02 31.964 0.062 6.82 265.86 13.37
12/25/2020 2:45:00 AM -0.01 31.982 0.062 6.82 220.89 13.36
12/25/2020 3:00:00 AM -0.03 31.946 0.061 6.79 140.25 13.34
12/25/2020 3:15:00 AM -0.02 31.964 0.061 6.81 149.38 13.32
12/25/2020 3:30:00 AM -0.02 31.964 0.06 6.82 157.53 13.3
12/25/2020 3:45:00 AM -0.02 31.964 0.06 6.82 164.76 13.28
12/25/2020 4:00:00 AM -0.01 31.982 0.06 6.82 161.15 13.26
12/25/2020 4:15:00 AM 0 32 0.059 6.82 128.11 13.24
12/25/2020 4:30:00 AM 0 32 0.06 6.8 151.76 13.22
12/25/2020 4:45:00 AM 0.01 32.018 0.06 6.76 112.9 13.19
12/25/2020 5:00:00 AM 0.02 32.036 0.059 6.77 155.51 13.18
12/25/2020 5:15:00 AM 0.03 32.054 0.059 6.82 165.07 13.17
12/25/2020 5:30:00 AM 0.04 32.072 0.059 6.78 159.98 13.16
12/25/2020 5:45:00 AM 0.05 32.09 0.058 6.81 111.61 13.15
12/25/2020 6:00:00 AM 0.04 32.072 0.058 6.82 149.83 13.14
12/25/2020 6:15:00 AM 0.05 32.09 0.058 6.84 109.65 13.14
12/25/2020 6:30:00 AM 0.08 32.144 0.058 6.85 173.74 13.13
12/25/2020 6:45:00 AM 0.09 32.162 0.058 6.83 164.74 13.12
12/25/2020 7:00:00 AM 0.1 32.18 0.057 6.85 115.02 13.13
12/25/2020 7:15:00 AM 0.11 32.198 0.057 6.85 141.07 13.12
12/25/2020 7:30:00 AM 0.14 32.252 0.057 6.85 150.78 13.13
12/25/2020 7:45:00 AM 0.16 32.288 0.056 6.84 148.62 13.12
12/25/2020 8:00:00 AM 0.18 32.324 0.057 6.82 155.11 13.12
12/25/2020 8:15:00 AM 0.2 32.36 0.056 6.83 153.09 13.11
12/25/2020 8:30:00 AM 0.23 32.414 0.057 6.82 225.08 13.1
12/25/2020 8:45:00 AM 0.26 32.468 0.057 6.85 134.89 13.1
12/25/2020 9:00:00 AM 0.29 32.522 0.057 6.84 149.36 13.09
12/25/2020 9:15:00 AM 0.31 32.558 0.057 6.8 135.62 13.09
12/25/2020 9:30:00 AM 0.34 32.612 0.057 6.85 165.55 13.09
12/25/2020 9:45:00 AM 0.37 32.666 0.056 6.82 154.42 13.08
12/25/2020 10:00:00 AM 0.4 32.72 0.057 6.85 104.04 13.08
12/25/2020 10:15:00 AM 0.43 32.774 0.057 6.84 142.47 13.07
12/25/2020 10:30:00 AM 0.47 32.846 0.057 6.86 191.78 13.07
12/25/2020 10:45:00 AM 0.5 32.9 0.057 6.86 94.65 13.05
12/25/2020 11:00:00 AM 0.54 32.972 0.058 6.86 135.19 13.05
12/25/2020 11:15:00 AM 0.57 33.026 0.054 6.83 110.43 13.04
12/25/2020 11:30:00 AM 0.62 33.116 0.058 6.86 90.04 13.03
12/25/2020 11:45:00 AM 0.65 33.17 0.058 6.86 160.64 13.02
12/25/2020 12:00:00 PM 0.67 33.206 0.058 6.87 125.43 13.02
12/25/2020 12:15:00 PM 0.71 33.278 0.059 6.89 143.76 13
12/25/2020 12:30:00 PM 0.74 33.332 0.059 6.87 116.93 13
12/25/2020 12:45:00 PM 0.78 33.404 0.059 6.88 126.65 12.99
12/25/2020 1:00:00 PM 0.82 33.476 0.06 6.89 75.52 12.97
12/25/2020 1:15:00 PM 0.85 33.53 0.06 6.9 96.88 12.95
12/25/2020 1:30:00 PM 0.89 33.602 0.06 6.91 97.67 12.95
12/25/2020 1:45:00 PM 0.93 33.674 0.06 6.91 87.78 12.95
12/25/2020 2:00:00 PM 0.96 33.728 0.061 6.92 68.84 12.95
12/25/2020 2:15:00 PM 0.99 33.782 0.061 6.92 112.99 12.93
12/25/2020 2:30:00 PM 1.04 33.872 0.062 6.92 81.07 12.93
12/25/2020 2:45:00 PM 1.09 33.962 0.062 6.93 106.6 12.91
12/25/2020 3:00:00 PM 1.12 34.016 0.062 6.93 100.72 12.88
12/25/2020 3:15:00 PM 1.16 34.088 0.063 6.94 106.29 12.88
12/25/2020 3:30:00 PM 1.2 34.16 0.06 6.93 68.66 12.87
12/25/2020 3:45:00 PM 1.24 34.232 0.064 6.91 72.25 12.85
12/25/2020 4:00:00 PM 1.27 34.286 0.063 6.88 99.95 12.84
12/25/2020 4:15:00 PM 1.3 34.34 0.062 6.91 69.86 12.83
12/25/2020 4:30:00 PM 1.32 34.376 0.065 6.92 77.51 12.82
12/25/2020 4:45:00 PM 1.33 34.394 0.064 6.92 43.34 12.8
12/25/2020 5:00:00 PM 1.36 34.448 0.067 6.93 58.59 12.79
12/25/2020 5:15:00 PM 1.38 34.484 0.065 6.94 43.46 12.78
12/25/2020 5:30:00 PM 1.4 34.52 0.066 6.93 2.83 12.77
12/25/2020 5:45:00 PM 1.41 34.538 0.071 6.94 40.95 12.77
12/25/2020 6:00:00 PM 1.42 34.556 0.072 6.95 64.53 12.76
12/25/2020 6:15:00 PM 1.44 34.592 0.073 6.98 63.18 12.75
12/25/2020 6:30:00 PM 1.44 34.592 0.07 6.97 54.35 12.73
12/25/2020 6:45:00 PM 1.44 34.592 0.071 6.97 50.52 12.73
12/25/2020 7:00:00 PM 1.44 34.592 0.071 6.98 30.03 12.73
12/25/2020 7:15:00 PM 1.45 34.61 0.072 6.98 40.01 12.72
12/25/2020 7:30:00 PM 1.44 34.592 0.078 7 41.23 12.71
12/25/2020 7:45:00 PM 1.43 34.574 0.078 7 40.44 12.71
12/25/2020 8:00:00 PM 1.43 34.574 0.079 7.02 51.67 12.72
12/25/2020 8:15:00 PM 1.42 34.556 0.078 7.03 43.79 12.71
12/25/2020 8:30:00 PM 1.42 34.556 0.076 7.02 67.72 12.71
12/25/2020 8:45:00 PM 1.4 34.52 0.082 7.03 59.52 12.71
12/25/2020 9:00:00 PM 1.38 34.484 0.078 7.02 41.1 12.71
12/25/2020 9:15:00 PM 1.37 34.466 0.078 7.02 55.4 12.71
12/25/2020 9:30:00 PM 1.36 34.448 0.085 7.07 49.03 12.7
12/25/2020 9:45:00 PM 1.33 34.394 0.08 7.04 36.56 12.71
12/25/2020 10:00:00 PM 1.32 34.376 0.086 7.08 45.24 12.72
12/25/2020 10:15:00 PM 1.3 34.34 0.086 7.06 36.09 12.71
12/25/2020 10:30:00 PM 1.28 34.304 0.083 7.06 35.86 12.71
12/25/2020 10:45:00 PM 1.27 34.286 0.089 7.08 44.94 12.71
12/25/2020 11:00:00 PM 1.26 34.268 0.088 7.07 40.75 12.72
12/25/2020 11:15:00 PM 1.24 34.232 0.089 7.07 41.03 12.72
12/25/2020 11:30:00 PM 1.22 34.196 0.09 7.08 36.92 12.72
12/25/2020 11:45:00 PM 1.2 34.16 0.093 7.11 28.3 12.72
12/26/2020 12:00:00 AM 1.19 34.142 0.089 7.1 35.17 12.73
12/26/2020 12:15:00 AM 1.16 34.088 0.095 7.1 32.59 12.73
12/26/2020 12:30:00 AM 1.15 34.07 0.091 7.08 33.63 12.74
12/26/2020 12:45:00 AM 1.13 34.034 0.091 7.08 58.41 12.73
12/26/2020 1:00:00 AM 1.11 33.998 0.098 7.1 43.84 12.75
12/26/2020 1:15:00 AM 1.09 33.962 0.099 7.13 40.14 12.75
12/26/2020 1:30:00 AM 1.07 33.926 0.093 7.1 33.71 12.76
12/26/2020 1:45:00 AM 1.04 33.872 0.1 7.12 44.69 12.75
12/26/2020 2:00:00 AM 1.02 33.836 0.1 7.12 41.2 12.77
12/26/2020 2:15:00 AM 1 33.8 0.101 7.12 46.24 12.78
12/26/2020 2:30:00 AM 0.98 33.764 0.102 7.13 30.75 12.78
12/26/2020 2:45:00 AM 0.96 33.728 0.102 7.15 31.65 12.79
12/26/2020 3:00:00 AM 0.95 33.71 0.103 7.15 51.52 12.79
12/26/2020 3:15:00 AM 0.93 33.674 0.104 7.16 27.46 12.79
12/26/2020 3:30:00 AM 0.91 33.638 0.101 7.13 33.9 12.81
12/26/2020 3:45:00 AM 0.91 33.638 0.105 7.15 50.09 12.81
12/26/2020 4:00:00 AM 0.89 33.602 0.102 7.15 41.83 12.82
12/26/2020 4:15:00 AM 0.87 33.566 0.105 7.18 39.73 12.84
12/26/2020 4:30:00 AM 0.87 33.566 0.107 7.18 28.58 12.82
12/26/2020 4:45:00 AM 0.85 33.53 0.107 7.18 45.03 12.82
12/26/2020 5:00:00 AM 0.84 33.512 0.108 7.18 59.78 12.84
12/26/2020 5:15:00 AM 0.83 33.494 0.108 7.19 28.9 12.85
12/26/2020 5:30:00 AM 0.81 33.458 0.109 7.2 22.49 12.85
12/26/2020 5:45:00 AM 0.8 33.44 0.111 7.2 29.68 12.83
12/26/2020 6:00:00 AM 0.78 33.404 0.111 7.2 43.43 12.85
12/26/2020 6:15:00 AM 0.77 33.386 0.109 7.2 32.08 12.85
12/26/2020 6:30:00 AM 0.76 33.368 0.113 7.21 34.42 12.86
12/26/2020 6:45:00 AM 0.74 33.332 0.113 7.21 42.9 12.86
12/26/2020 7:00:00 AM 0.72 33.296 0.111 7.2 34.79 12.88
12/26/2020 7:15:00 AM 0.7 33.26 0.114 7.21 28.74 12.87
12/26/2020 7:30:00 AM 0.67 33.206 0.115 7.2 34.45 12.88
12/26/2020 7:45:00 AM 0.67 33.206 0.117 7.21 27.56 12.86
12/26/2020 8:00:00 AM 0.65 33.17 0.118 7.21 34.6 12.88
12/26/2020 8:15:00 AM 0.63 33.134 0.115 7.21 23.23 12.89
12/26/2020 8:30:00 AM 0.61 33.098 0.116 7.21 21.59 12.91
12/26/2020 8:45:00 AM 0.6 33.08 0.119 7.21 27.84 12.91
12/26/2020 9:00:00 AM 0.59 33.062 0.121 7.23 36.3 12.92
12/26/2020 9:15:00 AM 0.59 33.062 0.12 7.22 24.61 12.92
12/26/2020 9:30:00 AM 0.61 33.098 0.122 7.23 27.52 12.92
12/26/2020 9:45:00 AM 0.6 33.08 0.121 7.26 24.84 12.93
12/26/2020 10:00:00 AM 0.62 33.116 0.122 7.26 28.36 12.93
12/26/2020 10:15:00 AM 0.66 33.188 0.123 7.26 22.62 12.92
12/26/2020 10:30:00 AM 0.66 33.188 0.124 7.27 33.48 12.95
12/26/2020 10:45:00 AM 0.68 33.224 0.124 7.27 26.98 12.94
12/26/2020 11:00:00 AM 0.71 33.278 0.125 7.26 23.32 12.95
12/26/2020 11:15:00 AM 0.75 33.35 0.125 7.27 24.75 12.95
12/26/2020 11:30:00 AM 0.76 33.368 0.125 7.29 27.55 12.94
12/26/2020 11:45:00 AM 0.81 33.458 0.127 7.3 25.64 12.94
12/26/2020 12:00:00 PM 0.88 33.584 0.125 7.27 28.78 12.89
12/26/2020 12:15:00 PM 0.88 33.584 0.128 7.28 27.05 12.94
12/26/2020 12:30:00 PM 0.91 33.638 0.125 7.29 24.87 12.89
12/26/2020 12:45:00 PM 0.94 33.692 0.128 7.3 22.84 12.9
12/26/2020 1:00:00 PM 0.95 33.71 0.129 7.3 29.06 12.91
12/26/2020 1:15:00 PM 0.98 33.764 0.129 7.31 25.69 12.89
12/26/2020 1:30:00 PM 1.05 33.89 0.131 7.29 29.75 12.86
12/26/2020 1:45:00 PM 1.04 33.872 0.129 7.31 27.58 12.85
12/26/2020 2:00:00 PM 1.1 33.98 0.126 7.3 20.12 12.84
12/26/2020 2:15:00 PM 1.13 34.034 0.126 7.31 22.53 12.83
12/26/2020 2:30:00 PM 1.2 34.16 0.128 7.31 17.17 12.77
12/26/2020 2:45:00 PM 1.16 34.088 0.126 7.32 52.22 12.83
12/26/2020 3:00:00 PM 1.19 34.142 0.136 7.32 27.07 12.8
12/26/2020 3:15:00 PM 1.25 34.25 0.137 7.32 23.06 12.76
12/26/2020 3:30:00 PM 1.24 34.232 0.13 7.32 22.86 12.76
12/26/2020 3:45:00 PM 1.28 34.304 0.133 7.32 25.47 12.72
12/26/2020 4:00:00 PM 1.27 34.286 0.132 7.32 31.33 12.76
12/26/2020 4:15:00 PM 1.28 34.304 0.138 7.32 18.2 12.73
12/26/2020 4:30:00 PM 1.34 34.412 0.142 7.33 24.67 12.62
12/26/2020 4:45:00 PM 1.32 34.376 0.135 7.33 33.72 12.66
12/26/2020 5:00:00 PM 1.28 34.304 0.142 7.34 21.92 12.67
12/26/2020 5:15:00 PM 1.29 34.322 0.133 7.32 19.95 12.64
12/26/2020 5:30:00 PM 1.33 34.394 0.145 7.34 23.01 12.59
12/26/2020 5:45:00 PM 1.31 34.358 0.134 7.34 19.73 12.56
12/26/2020 6:00:00 PM 1.3 34.34 0.147 7.34 25.96 12.61
12/26/2020 6:15:00 PM 1.33 34.394 0.142 7.34 25.39 12.54
12/26/2020 6:30:00 PM 1.27 34.286 0.146 7.35 25.46 12.6
12/26/2020 6:45:00 PM 1.3 34.34 0.148 7.35 21.58 12.53
12/26/2020 7:00:00 PM 1.26 34.268 0.144 7.34 25.03 12.56
12/26/2020 7:15:00 PM 1.24 34.232 0.148 7.34 23.36 12.56
12/26/2020 7:30:00 PM 1.18 34.124 0.144 7.34 24.78 12.6
12/26/2020 7:45:00 PM 1.22 34.196 0.149 7.35 22.01 12.54
12/26/2020 8:00:00 PM 1.18 34.124 0.147 7.36 19.96 12.53
12/26/2020 8:15:00 PM 1.2 34.16 0.147 7.34 18.79 12.54
12/26/2020 8:30:00 PM 1.16 34.088 0.149 7.35 24.61 12.52
12/26/2020 8:45:00 PM 1.12 34.016 0.141 7.34 22.5 12.57
12/26/2020 9:00:00 PM 1.13 34.034 0.143 7.33 22.69 12.56
12/26/2020 9:15:00 PM 1.12 34.016 0.151 7.35 22.83 12.54
12/26/2020 9:30:00 PM 1.11 33.998 0.152 7.34 20.69 12.54
12/26/2020 9:45:00 PM 1.09 33.962 0.142 7.33 20.3 12.56
12/26/2020 10:00:00 PM 1.05 33.89 0.151 7.34 21.77 12.6
12/26/2020 10:15:00 PM 1.05 33.89 0.15 7.34 18.83 12.58
12/26/2020 10:30:00 PM 1.04 33.872 0.146 7.33 22.89 12.59
12/26/2020 10:45:00 PM 1 33.8 0.148 7.34 19.21 12.61
12/26/2020 11:00:00 PM 1 33.8 0.148 7.32 18.86 12.64
12/26/2020 11:15:00 PM 0.95 33.71 0.146 7.31 18.73 12.66
12/26/2020 11:30:00 PM 0.94 33.692 0.151 7.32 20.54 12.64
12/26/2020 11:45:00 PM 0.95 33.71 0.151 7.33 21.07 12.63
12/27/2020 12:00:00 AM 0.94 33.692 0.152 7.32 18.29 12.64
12/27/2020 12:15:00 AM 0.91 33.638 0.15 7.31 21.58 12.66
12/27/2020 12:30:00 AM 0.95 33.71 0.154 7.32 20.59 12.63
12/27/2020 12:45:00 AM 0.91 33.638 0.151 7.33 20.43 12.64
12/27/2020 1:00:00 AM 0.9 33.62 0.154 7.32 19.42 12.7
12/27/2020 1:15:00 AM 0.9 33.62 0.151 7.32 18.43 12.67
12/27/2020 1:30:00 AM 0.89 33.602 0.152 7.33 20.08 12.69
12/27/2020 1:45:00 AM 0.88 33.584 0.154 7.33 20.03 12.7
12/27/2020 2:00:00 AM 0.88 33.584 0.149 7.31 21.32 12.7
12/27/2020 2:15:00 AM 0.93 33.674 0.156 7.33 18.95 12.66
12/27/2020 2:30:00 AM 0.91 33.638 0.154 7.34 19.57 12.7
12/27/2020 2:45:00 AM 0.89 33.602 0.155 7.34 18.54 12.71
12/27/2020 3:00:00 AM 0.95 33.71 0.157 7.34 19.64 12.67
12/27/2020 3:15:00 AM 0.95 33.71 0.157 7.35 20.91 12.67
12/27/2020 3:30:00 AM 0.96 33.728 0.155 7.34 17.36 12.65
12/27/2020 3:45:00 AM 0.96 33.728 0.154 7.34 21.57 12.7
12/27/2020 4:00:00 AM 0.96 33.728 0.15 7.34 21.29 12.69
12/27/2020 4:15:00 AM 0.99 33.782 0.159 7.36 19.38 12.66
12/27/2020 4:30:00 AM 1.02 33.836 0.161 7.35 20.22 12.64
12/27/2020 4:45:00 AM 1.01 33.818 0.163 7.36 18.67 12.68
12/27/2020 5:00:00 AM 1.06 33.908 0.164 7.36 19.1 12.59
12/27/2020 5:15:00 AM 1.07 33.926 0.166 7.36 18.77 12.64
12/27/2020 5:30:00 AM 1.06 33.908 0.168 7.36 16.01 12.66
12/27/2020 5:45:00 AM 1.07 33.926 0.16 7.35 20.15 12.62
12/27/2020 6:00:00 AM 1.09 33.962 0.163 7.37 18.85 12.6
12/27/2020 6:15:00 AM 1.09 33.962 0.165 7.37 19.15 12.62
12/27/2020 6:30:00 AM 1.07 33.926 0.166 7.36 17.54 12.64
12/27/2020 6:45:00 AM 1.12 34.016 0.168 7.37 19.76 12.56
12/27/2020 7:00:00 AM 1.12 34.016 0.169 7.37 17.55 12.62
12/27/2020 7:15:00 AM 1.13 34.034 0.168 7.36 17.93 12.61
12/27/2020 7:30:00 AM 1.14 34.052 0.168 7.37 19.74 12.59
12/27/2020 7:45:00 AM 1.11 33.998 0.163 7.36 19.64 12.64
12/27/2020 8:00:00 AM 1.16 34.088 0.17 7.37 17.87 12.61
12/27/2020 8:15:00 AM 1.11 33.998 0.164 7.36 21.67 12.66
12/27/2020 8:30:00 AM 1.14 34.052 0.171 7.37 18.21 12.61
12/27/2020 8:45:00 AM 1.12 34.016 0.171 7.36 15.87 12.65
12/27/2020 9:00:00 AM 1.17 34.106 0.172 7.37 17.04 12.56
12/27/2020 9:15:00 AM 1.15 34.07 0.169 7.37 17.32 12.66
12/27/2020 9:30:00 AM 1.24 34.232 0.173 7.36 17.9 12.58
12/27/2020 9:45:00 AM 1.2 34.16 0.172 7.36 18.31 12.67
12/27/2020 10:00:00 AM 1.25 34.25 0.173 7.38 17.18 12.64
12/27/2020 10:15:00 AM 1.27 34.286 0.172 7.36 16.64 12.61
12/27/2020 10:30:00 AM 1.28 34.304 0.173 7.37 13.63 12.66
12/27/2020 10:45:00 AM 1.3 34.34 0.171 7.39 22.39 12.66
12/27/2020 11:00:00 AM 1.39 34.502 0.173 7.37 19.19 12.62
12/27/2020 11:15:00 AM 1.39 34.502 0.175 7.38 16.88 12.67
12/27/2020 11:30:00 AM 1.47 34.646 0.177 7.38 19.44 12.64
12/27/2020 11:45:00 AM 1.5 34.7 0.18 7.39 18.42 12.61
12/27/2020 12:00:00 PM 1.52 34.736 0.175 7.38 19.63 12.66
12/27/2020 12:15:00 PM 1.62 34.916 0.175 7.4 18.48 12.58
12/27/2020 12:30:00 PM 1.68 35.024 0.176 7.4 16.9 12.62
12/27/2020 12:45:00 PM 1.74 35.132 0.177 7.4 17.74 12.62
12/27/2020 1:00:00 PM 1.83 35.294 0.18 7.41 17.79 12.59
12/27/2020 1:15:00 PM 1.88 35.384 0.177 7.41 18.25 12.59
12/27/2020 1:30:00 PM 1.88 35.384 0.181 7.4 17.06 12.62
12/27/2020 1:45:00 PM 1.94 35.492 0.177 7.41 18.27 12.58
12/27/2020 2:00:00 PM 2.01 35.618 0.181 7.39 14.6 12.58
12/27/2020 2:15:00 PM 2.09 35.762 0.18 7.4 16.14 12.5
12/27/2020 2:30:00 PM 2.09 35.762 0.18 7.4 17.66 12.57
12/27/2020 2:45:00 PM 2.14 35.852 0.181 7.41 18.33 12.53
12/27/2020 3:00:00 PM 2.16 35.888 0.183 7.4 18.35 12.49
12/27/2020 3:15:00 PM 2.16 35.888 0.179 7.4 16.59 12.47
12/27/2020 3:30:00 PM 2.13 35.834 0.181 7.4 16.59 12.54
12/27/2020 3:45:00 PM 2.15 35.87 0.182 7.4 17.44 12.51
12/27/2020 4:00:00 PM 2.14 35.852 0.18 7.39 19.35 12.49
12/27/2020 4:15:00 PM 2.17 35.906 0.182 7.41 17.15 12.43
12/27/2020 4:30:00 PM 2.16 35.888 0.181 7.39 18.07 12.46
12/27/2020 4:45:00 PM 2.12 35.816 0.179 7.4 16.98 12.41
12/27/2020 5:00:00 PM 2.13 35.834 0.185 7.4 15.96 12.39
12/27/2020 5:15:00 PM 2.16 35.888 0.185 7.4 17.63 12.25
12/27/2020 5:30:00 PM 2.1 35.78 0.186 7.4 17.19 12.39
12/27/2020 5:45:00 PM 2.06 35.708 0.183 7.39 18.32 12.36
12/27/2020 6:00:00 PM 2.04 35.672 0.185 7.4 16.52 12.34
12/27/2020 6:15:00 PM 2.01 35.618 0.185 7.4 16.99 12.33
12/27/2020 6:30:00 PM 1.97 35.546 0.186 7.39 17.64 12.35
12/27/2020 6:45:00 PM 1.97 35.546 0.186 7.4 17.24 12.33
12/27/2020 7:00:00 PM 1.91 35.438 0.182 7.4 16.53 12.35
12/27/2020 7:15:00 PM 1.91 35.438 0.186 7.39 20.97 12.34
12/27/2020 7:30:00 PM 1.92 35.456 0.186 7.4 18.06 12.31
12/27/2020 7:45:00 PM 1.89 35.402 0.186 7.39 16.36 12.32
12/27/2020 8:00:00 PM 1.86 35.348 0.185 7.4 16.89 12.32
12/27/2020 8:15:00 PM 1.88 35.384 0.189 7.4 16.38 12.31
12/27/2020 8:30:00 PM 1.83 35.294 0.185 7.39 16.13 12.34
12/27/2020 8:45:00 PM 1.85 35.33 0.185 7.39 14.55 12.31
12/27/2020 9:00:00 PM 1.82 35.276 0.188 7.39 16.2 12.33
12/27/2020 9:15:00 PM 1.79 35.222 0.186 7.39 14.57 12.33
12/27/2020 9:30:00 PM 1.77 35.186 0.188 7.39 19.16 12.34
12/27/2020 9:45:00 PM 1.78 35.204 0.188 7.4 17.64 12.3
12/27/2020 10:00:00 PM 1.76 35.168 0.191 7.4 22.67 12.32
12/27/2020 10:15:00 PM 1.79 35.222 0.192 7.41 16.11 12.3
12/27/2020 10:30:00 PM 1.77 35.186 0.19 7.41 16.38 12.27
12/27/2020 10:45:00 PM 1.77 35.186 0.189 7.41 19.15 12.24
12/27/2020 11:00:00 PM 1.75 35.15 0.193 7.41 16.66 12.31
12/27/2020 11:15:00 PM 1.74 35.132 0.19 7.41 16.53 12.29
12/27/2020 11:30:00 PM 1.7 35.06 0.189 7.41 15.59 12.33
12/27/2020 11:45:00 PM 1.71 35.078 0.192 7.41 16.36 12.32
12/28/2020 12:00:00 AM 1.7 35.06 0.19 7.41 15.95 12.32
12/28/2020 12:15:00 AM 1.73 35.114 0.192 7.42 15.8 12.28
12/28/2020 12:30:00 AM 1.71 35.078 0.193 7.41 16.54 12.3
12/28/2020 12:45:00 AM 1.73 35.114 0.195 7.41 16.31 12.28
12/28/2020 1:00:00 AM 1.75 35.15 0.196 7.42 16.27 12.26
12/28/2020 1:15:00 AM 1.68 35.024 0.19 7.42 16.68 12.28
12/28/2020 1:30:00 AM 1.74 35.132 0.198 7.42 16.06 12.29
12/28/2020 1:45:00 AM 1.66 34.988 0.192 7.42 16.62 12.31
12/28/2020 2:00:00 AM 1.69 35.042 0.196 7.42 17.51 12.31
12/28/2020 2:15:00 AM 1.69 35.042 0.2 7.43 16.24 12.31
12/28/2020 2:30:00 AM 1.69 35.042 0.195 7.42 16.5 12.27
12/28/2020 2:45:00 AM 1.68 35.024 0.196 7.42 15.63 12.31
12/28/2020 3:00:00 AM 1.65 34.97 0.194 7.42 17.42 12.27
12/28/2020 3:15:00 AM 1.67 35.006 0.194 7.42 20.67 12.28
12/28/2020 3:30:00 AM 1.67 35.006 0.154 7.43 18.01 12.29
12/28/2020 3:45:00 AM 1.68 35.024 0.195 7.43 16.49 12.27
12/28/2020 4:00:00 AM 1.69 35.042 0.197 7.42 16.68 12.29
12/28/2020 4:15:00 AM 1.69 35.042 0.195 7.43 15.78 12.3
12/28/2020 4:30:00 AM 1.73 35.114 0.199 7.42 15.4 12.27
12/28/2020 4:45:00 AM 1.71 35.078 0.197 7.43 15.15 12.27
12/28/2020 5:00:00 AM 1.73 35.114 0.197 7.43 14.59 12.26
12/28/2020 5:15:00 AM 1.74 35.132 0.196 7.43 15.13 12.23
12/28/2020 5:30:00 AM 1.75 35.15 0.197 7.42 15.61 12.23
12/28/2020 5:45:00 AM 1.78 35.204 0.199 7.43 15.22 12.2
12/28/2020 6:00:00 AM 1.77 35.186 0.199 7.43 14.74 12.23
12/28/2020 6:15:00 AM 1.74 35.132 0.199 7.42 15.1 12.19
12/28/2020 6:30:00 AM 1.76 35.168 0.198 7.43 15.37 12.22
12/28/2020 6:45:00 AM 1.76 35.168 0.2 7.43 15.35 12.2
12/28/2020 7:00:00 AM 1.79 35.222 0.202 7.43 15.01 12.2
12/28/2020 7:15:00 AM 1.8 35.24 0.2 7.44 15.96 12.22
12/28/2020 7:30:00 AM 1.84 35.312 0.202 7.43 15.75 12.22
12/28/2020 7:45:00 AM 1.84 35.312 0.199 7.43 15.79 12.21
12/28/2020 8:00:00 AM 1.87 35.366 0.201 7.44 16.04 12.18
12/28/2020 8:15:00 AM 1.89 35.402 0.202 7.44 14.72 12.21
12/28/2020 8:30:00 AM 1.9 35.42 0.198 7.43 16.28 12.21
12/28/2020 8:45:00 AM 1.93 35.474 0.2 7.43 15.7 12.21
12/28/2020 9:00:00 AM 1.95 35.51 0.2 7.43 14.69 12.2
12